Provisional Data: Little Mehoopany Creek near North Mehoopany, PA


Please select a monitoring station.
Please select start date.
Please select start date.

Toggle Unit: C/F Toggle Unit: C/F
Sample Time Temperature (C) Temperature (F) Specific Conductivity (mS/cm) pH   Turbidity (NTU+) DO (mg/L)
12/4/2020 12:00:00 AM 4.8 40.64 0.158 7.32 3.57 12.71
12/4/2020 12:15:00 AM 4.81 40.658 0.158 7.34 3.41 12.7
12/4/2020 12:30:00 AM 4.81 40.658 0.158 7.34 3.45 12.7
12/4/2020 12:45:00 AM 4.81 40.658 0.158 7.29 3.46 12.69
12/4/2020 1:00:00 AM 4.82 40.676 0.158 7.28 3.3 12.69
12/4/2020 1:15:00 AM 4.82 40.676 0.158 7.31 3.35 12.69
12/4/2020 1:30:00 AM 4.82 40.676 0.158 7.3 3.39 12.69
12/4/2020 1:45:00 AM 4.81 40.658 0.158 7.28 3.31 12.68
12/4/2020 2:00:00 AM 4.82 40.676 0.158 7.27 3.38 12.68
12/4/2020 2:15:00 AM 4.82 40.676 0.158 7.29 3.52 12.68
12/4/2020 2:30:00 AM 4.83 40.694 0.159 7.28 3.45 12.67
12/4/2020 2:45:00 AM 4.83 40.694 0.158 7.33 3.32 12.67
12/4/2020 3:00:00 AM 4.83 40.694 0.158 7.3 3.47 12.68
12/4/2020 3:15:00 AM 4.84 40.712 0.158 7.32 3.39 12.67
12/4/2020 3:30:00 AM 4.84 40.712 0.158 7.29 3.27 12.67
12/4/2020 3:45:00 AM 4.84 40.712 0.158 7.28 3.38 12.67
12/4/2020 4:00:00 AM 4.85 40.73 0.159 7.32 3.41 12.67
12/4/2020 4:15:00 AM 4.85 40.73 0.158 7.28 3.34 12.67
12/4/2020 4:30:00 AM 4.85 40.73 0.159 7.3 3.4 12.67
12/4/2020 4:45:00 AM 4.85 40.73 0.159 7.3 3.49 12.66
12/4/2020 5:00:00 AM 4.85 40.73 0.158 7.29 3.41 12.66
12/4/2020 5:15:00 AM 4.86 40.748 0.159 7.31 3.36 12.66
12/4/2020 5:30:00 AM 4.87 40.766 0.159 7.31 3.36 12.66
12/4/2020 5:45:00 AM 4.87 40.766 0.159 7.32 3.33 12.66
12/4/2020 6:00:00 AM 4.87 40.766 0.159 7.29 3.34 12.66
12/4/2020 6:15:00 AM 4.89 40.802 0.159 7.29 3.4 12.65
12/4/2020 6:30:00 AM 4.89 40.802 0.159 7.32 3.4 12.65
12/4/2020 6:45:00 AM 4.91 40.838 0.159 7.27 3.39 12.65
12/4/2020 7:00:00 AM 4.93 40.874 0.159 7.32 3.46 12.64
12/4/2020 7:15:00 AM 4.94 40.892 0.159 7.33 3.42 12.65
12/4/2020 7:30:00 AM 4.94 40.892 0.159 7.3 3.45 12.68
12/4/2020 7:45:00 AM 4.93 40.874 0.159 7.33 3.41 12.76
12/4/2020 8:00:00 AM 4.95 40.91 0.158 7.37 3.44 12.88
12/4/2020 8:15:00 AM 5 41 0.158 7.44 3.37 12.97
12/4/2020 8:30:00 AM 5.05 41.09 0.159 7.44 3.62 13.04
12/4/2020 8:45:00 AM 5.11 41.198 0.158 7.45 3.41 13.09
12/4/2020 9:00:00 AM 5.17 41.306 0.158 7.55 3.4 13.16
12/4/2020 9:15:00 AM 5.22 41.396 0.158 7.57 3.37 13.18
12/4/2020 9:30:00 AM 5.27 41.486 0.158 7.61 3.33 13.19
12/4/2020 9:45:00 AM 5.34 41.612 0.158 7.63 3.39 13.22
12/4/2020 10:00:00 AM 5.42 41.756 0.158 7.66 3.36 13.24
12/4/2020 10:15:00 AM 5.58 42.044 0.158 7.69 3.38 13.26
12/4/2020 10:30:00 AM 5.67 42.206 0.157 7.74 3.42 13.23
12/4/2020 10:45:00 AM 5.84 42.512 0.157 7.75 3.34 13.24
12/4/2020 11:00:00 AM 5.96 42.728 0.157 7.81 3.42 13.21
12/4/2020 11:15:00 AM 6.05 42.89 0.157 7.8 3.3 13.15
12/4/2020 11:30:00 AM 6.1 42.98 0.157 7.76 3.37 13.12
12/4/2020 11:45:00 AM 6.07 42.926 0.157 7.77 3.26 13.05
12/4/2020 12:00:00 PM 6.05 42.89 0.157 7.71 3.27 13.01
12/4/2020 12:15:00 PM 6.01 42.818 0.157 7.66 3.34 12.94
12/4/2020 12:30:00 PM 6 42.8 0.157 7.68 3.37 12.92
12/4/2020 12:45:00 PM 5.99 42.782 0.157 7.65 3.51 12.9
12/4/2020 1:00:00 PM 5.95 42.71 0.157 7.65 3.41 12.87
12/4/2020 1:15:00 PM 5.93 42.674 0.157 7.61 3.29 12.86
12/4/2020 1:30:00 PM 5.91 42.638 0.157 7.62 3.28 12.83
12/4/2020 1:45:00 PM 5.9 42.62 0.157 7.58 3.48 12.8
12/4/2020 2:00:00 PM 5.89 42.602 0.157 7.6 3.41 12.78
12/4/2020 2:15:00 PM 5.89 42.602 0.157 7.57 3.5 12.78
12/4/2020 2:30:00 PM 5.95 42.71 0.157 7.6 3.53 12.84
12/4/2020 2:45:00 PM 5.99 42.782 0.157 7.61 3.29 12.82
12/4/2020 3:00:00 PM 6.06 42.908 0.157 7.57 3.33 12.81
12/4/2020 3:15:00 PM 6.07 42.926 0.157 7.58 3.36 12.68
12/4/2020 3:30:00 PM 6.1 42.98 0.157 7.54 3.32 12.7
12/4/2020 3:45:00 PM 6.13 43.034 0.157 7.58 3.45 12.67
12/4/2020 4:00:00 PM 6.15 43.07 0.157 7.49 3.37 12.56
12/4/2020 4:15:00 PM 6.16 43.088 0.157 7.42 3.44 12.47
12/4/2020 4:30:00 PM 6.16 43.088 0.158 7.4 3.39 12.39
12/4/2020 4:45:00 PM 6.15 43.07 0.158 7.36 3.37 12.32
12/4/2020 5:00:00 PM 6.13 43.034 0.158 7.38 3.3 12.28
12/4/2020 5:15:00 PM 6.12 43.016 0.158 7.38 3.35 12.25
12/4/2020 5:30:00 PM 6.09 42.962 0.158 7.34 3.31 12.24
12/4/2020 5:45:00 PM 6.06 42.908 0.158 7.33 3.4 12.23
12/4/2020 6:00:00 PM 6.03 42.854 0.158 7.33 3.38 12.23
12/4/2020 6:15:00 PM 5.98 42.764 0.158 7.35 3.3 12.23
12/4/2020 6:30:00 PM 5.95 42.71 0.159 7.29 3.38 12.24
12/4/2020 6:45:00 PM 5.92 42.656 0.158 7.29 3.42 12.24
12/4/2020 7:00:00 PM 5.88 42.584 0.159 7.26 3.34 12.25
12/4/2020 7:15:00 PM 5.83 42.494 0.159 7.3 3.26 12.27
12/4/2020 7:30:00 PM 5.79 42.422 0.159 7.26 3.28 12.29
12/4/2020 7:45:00 PM 5.76 42.368 0.159 7.27 3.45 12.29
12/4/2020 8:00:00 PM 5.75 42.35 0.159 7.28 3.32 12.3
12/4/2020 8:15:00 PM 5.75 42.35 0.159 7.31 3.43 12.31
12/4/2020 8:30:00 PM 5.74 42.332 0.159 7.33 3.4 12.31
12/4/2020 8:45:00 PM 5.73 42.314 0.159 7.29 3.36 12.31
12/4/2020 9:00:00 PM 5.73 42.314 0.159 7.31 3.29 12.32
12/4/2020 9:15:00 PM 5.72 42.296 0.159 7.32 3.29 12.32
12/4/2020 9:30:00 PM 5.73 42.314 0.159 7.33 3.32 12.32
12/4/2020 9:45:00 PM 5.74 42.332 0.159 7.3 3.25 12.31
12/4/2020 10:00:00 PM 5.74 42.332 0.159 7.33 3.34 12.31
12/4/2020 10:15:00 PM 5.75 42.35 0.159 7.3 3.44 12.31
12/4/2020 10:30:00 PM 5.74 42.332 0.159 7.33 3.43 12.31
12/4/2020 10:45:00 PM 5.75 42.35 0.159 7.33 3.29 12.3
12/4/2020 11:00:00 PM 5.75 42.35 0.159 7.28 3.37 12.3
12/4/2020 11:15:00 PM 5.76 42.368 0.159 7.29 3.22 12.3
12/4/2020 11:30:00 PM 5.76 42.368 0.16 7.32 3.37 12.29
12/4/2020 11:45:00 PM 5.76 42.368 0.16 7.3 3.33 12.29
12/5/2020 12:00:00 AM 5.77 42.386 0.16 7.29 3.38 12.28
12/5/2020 12:15:00 AM 5.77 42.386 0.16 7.32 3.32 12.28
12/5/2020 12:30:00 AM 5.77 42.386 0.16 7.31 3.24 12.28
12/5/2020 12:45:00 AM 5.78 42.404 0.16 7.33 3.36 12.27
12/5/2020 1:00:00 AM 5.78 42.404 0.16 7.3 3.39 12.27
12/5/2020 1:15:00 AM 5.78 42.404 0.16 7.3 3.27 12.27
12/5/2020 1:30:00 AM 5.78 42.404 0.16 7.28 3.36 12.26
12/5/2020 1:45:00 AM 5.78 42.404 0.16 7.27 3.24 12.27
12/5/2020 2:00:00 AM 5.78 42.404 0.16 7.28 3.61 12.25
12/5/2020 2:15:00 AM 5.78 42.404 0.16 7.27 3.32 12.26
12/5/2020 2:30:00 AM 5.76 42.368 0.16 7.27 3.43 12.25
12/5/2020 2:45:00 AM 5.73 42.314 0.16 7.26 3.4 12.26
12/5/2020 3:00:00 AM 5.71 42.278 0.16 7.31 3.34 12.26
12/5/2020 3:15:00 AM 5.7 42.26 0.16 7.32 3.26 12.26
12/5/2020 3:30:00 AM 5.68 42.224 0.16 7.32 3.3 12.26
12/5/2020 3:45:00 AM 5.67 42.206 0.16 7.28 3.31 12.26
12/5/2020 4:00:00 AM 5.65 42.17 0.16 7.27 3.31 12.28
12/5/2020 4:15:00 AM 5.63 42.134 0.16 7.28 3.36 12.28
12/5/2020 4:30:00 AM 5.61 42.098 0.16 7.32 3.31 12.29
12/5/2020 4:45:00 AM 5.6 42.08 0.16 7.25 3.25 12.29
12/5/2020 5:00:00 AM 5.58 42.044 0.16 7.27 3.31 12.29
12/5/2020 5:15:00 AM 5.57 42.026 0.16 7.28 3.31 12.3
12/5/2020 5:30:00 AM 5.56 42.008 0.16 7.29 3.38 12.3
12/5/2020 5:45:00 AM 5.56 42.008 0.16 7.31 3.34 12.3
12/5/2020 6:00:00 AM 5.55 41.99 0.16 7.3 3.28 12.31
12/5/2020 6:15:00 AM 5.54 41.972 0.16 7.32 3.27 12.32
12/5/2020 6:30:00 AM 5.54 41.972 0.16 7.29 3.55 12.32
12/5/2020 6:45:00 AM 5.55 41.99 0.161 7.29 3.27 12.32
12/5/2020 7:00:00 AM 5.55 41.99 0.16 7.29 3.35 12.33
12/5/2020 7:15:00 AM 5.55 41.99 0.161 7.31 3.2 12.33
12/5/2020 7:30:00 AM 5.55 41.99 0.16 7.3 3.27 12.34
12/5/2020 7:45:00 AM 5.55 41.99 0.16 7.29 3.49 12.36
12/5/2020 8:00:00 AM 5.55 41.99 0.16 7.31 3.18 12.41
12/5/2020 8:15:00 AM 5.55 41.99 0.16 7.38 3.3 12.46
12/5/2020 8:30:00 AM 5.55 41.99 0.16 7.37 3.26 12.48
12/5/2020 8:45:00 AM 5.56 42.008 0.16 7.36 3.25 12.54
12/5/2020 9:00:00 AM 5.58 42.044 0.16 7.39 3.21 12.63
12/5/2020 9:15:00 AM 5.58 42.044 0.16 7.41 3.25 12.56
12/5/2020 9:30:00 AM 5.58 42.044 0.16 7.4 3.23 12.58
12/5/2020 9:45:00 AM 5.58 42.044 0.16 7.43 3.21 12.59
12/5/2020 10:00:00 AM 5.58 42.044 0.16 7.42 3.3 12.65
12/5/2020 10:15:00 AM 5.59 42.062 0.16 7.43 3.42 12.64
12/5/2020 10:30:00 AM 5.58 42.044 0.16 7.45 3.2 12.62
12/5/2020 10:45:00 AM 5.58 42.044 0.16 7.48 3.23 12.69
12/5/2020 11:00:00 AM 5.59 42.062 0.16 7.49 3.28 12.77
12/5/2020 11:15:00 AM 5.63 42.134 0.16 7.51 3.17 12.89
12/5/2020 11:30:00 AM 5.66 42.188 0.16 7.58 3.3 12.94
12/5/2020 11:45:00 AM 5.69 42.242 0.16 7.63 3.17 12.97
12/5/2020 12:00:00 PM 5.7 42.26 0.16 7.59 3.28 12.93
12/5/2020 12:15:00 PM 5.68 42.224 0.159 7.53 3.29 12.9
12/5/2020 12:30:00 PM 5.68 42.224 0.159 7.58 3.23 12.91
12/5/2020 12:45:00 PM 5.68 42.224 0.159 7.54 3.27 12.88
12/5/2020 1:00:00 PM 5.72 42.296 0.159 7.59 3.24 13
12/5/2020 1:15:00 PM 5.75 42.35 0.159 7.67 3.18 13.01
12/5/2020 1:30:00 PM 5.73 42.314 0.159 7.6 3.18 12.97
12/5/2020 1:45:00 PM 5.75 42.35 0.159 7.67 3.27 13.02
12/5/2020 2:00:00 PM 5.73 42.314 0.159 7.6 3.28 12.91
12/5/2020 2:15:00 PM 5.71 42.278 0.159 7.55 3.28 12.86
12/5/2020 2:30:00 PM 5.68 42.224 0.159 7.53 3.25 12.82
12/5/2020 2:45:00 PM 5.68 42.224 0.159 7.57 3.26 12.9
12/5/2020 3:00:00 PM 5.67 42.206 0.159 7.59 3.26 12.92
12/5/2020 3:15:00 PM 5.64 42.152 0.159 7.57 3.26 12.86
12/5/2020 3:30:00 PM 5.59 42.062 0.159 7.56 3.26 12.86
12/5/2020 3:45:00 PM 5.54 41.972 0.159 7.52 3.31 12.81
12/5/2020 4:00:00 PM 5.47 41.846 0.159 7.43 3.15 12.74
12/5/2020 4:15:00 PM 5.43 41.774 0.159 7.45 3.22 12.69
12/5/2020 4:30:00 PM 5.39 41.702 0.16 7.44 3.34 12.61
12/5/2020 4:45:00 PM 5.38 41.684 0.16 7.37 3.59 12.55
12/5/2020 5:00:00 PM 5.37 41.666 0.16 7.39 3.3 12.5
12/5/2020 5:15:00 PM 5.36 41.648 0.16 7.33 3.2 12.49
12/5/2020 5:30:00 PM 5.34 41.612 0.16 7.29 3.23 12.47
12/5/2020 5:45:00 PM 5.32 41.576 0.16 7.3 3.12 12.47
12/5/2020 6:00:00 PM 5.31 41.558 0.16 7.35 3.25 12.47
12/5/2020 6:15:00 PM 5.27 41.486 0.16 7.33 3.27 12.47
12/5/2020 6:30:00 PM 5.22 41.396 0.16 7.3 3.23 12.47
12/5/2020 6:45:00 PM 5.15 41.27 0.16 7.29 3.17 12.49
12/5/2020 7:00:00 PM 5.13 41.234 0.16 7.32 3.18 12.49
12/5/2020 7:15:00 PM 5.11 41.198 0.16 7.31 3.38 12.49
12/5/2020 7:30:00 PM 5.09 41.162 0.161 7.33 3.2 12.5
12/5/2020 7:45:00 PM 5.07 41.126 0.161 7.33 3.26 12.51
12/5/2020 8:00:00 PM 5.05 41.09 0.16 7.31 3.27 12.51
12/5/2020 8:15:00 PM 5.05 41.09 0.16 7.32 3.22 12.52
12/5/2020 8:30:00 PM 5.03 41.054 0.161 7.35 3.26 12.53
12/5/2020 8:45:00 PM 5.02 41.036 0.161 7.35 3.23 12.52
12/5/2020 9:00:00 PM 5.01 41.018 0.161 7.36 3.28 12.53
12/5/2020 9:15:00 PM 5.01 41.018 0.161 7.33 3.26 12.53
12/5/2020 9:30:00 PM 4.98 40.964 0.161 7.29 3.3 12.54
12/5/2020 9:45:00 PM 4.97 40.946 0.161 7.33 3.35 12.53
12/5/2020 10:00:00 PM 4.95 40.91 0.161 7.3 3.32 12.54
12/5/2020 10:15:00 PM 4.94 40.892 0.161 7.34 3.16 12.55
12/5/2020 10:30:00 PM 4.8 40.64 0.161 7.29 3.31 12.56
12/5/2020 10:45:00 PM 4.78 40.604 0.161 7.28 3.33 12.58
12/5/2020 11:00:00 PM 4.8 40.64 0.161 7.33 3.35 12.58
12/5/2020 11:15:00 PM 4.78 40.604 0.161 7.26 3.28 12.59
12/5/2020 11:30:00 PM 4.76 40.568 0.161 7.33 3.26 12.59
12/5/2020 11:45:00 PM 4.74 40.532 0.161 7.26 3.47 12.61
12/6/2020 12:00:00 AM 4.73 40.514 0.161 7.29 3.24 12.61
12/6/2020 12:15:00 AM 4.69 40.442 0.161 7.32 3.29 12.62
12/6/2020 12:30:00 AM 4.66 40.388 0.161 7.29 3.18 12.63
12/6/2020 12:45:00 AM 4.63 40.334 0.161 7.31 3.14 12.64
12/6/2020 1:00:00 AM 4.61 40.298 0.161 7.29 3.18 12.65
12/6/2020 1:15:00 AM 4.58 40.244 0.161 7.29 3.17 12.66
12/6/2020 1:30:00 AM 4.56 40.208 0.161 7.31 3.22 12.67
12/6/2020 1:45:00 AM 4.54 40.172 0.161 7.3 3.24 12.67
12/6/2020 2:00:00 AM 4.52 40.136 0.161 7.31 3.26 12.68
12/6/2020 2:15:00 AM 4.5 40.1 0.161 7.25 3.42 12.7
12/6/2020 2:30:00 AM 4.47 40.046 0.161 7.23 3.25 12.71
12/6/2020 2:45:00 AM 4.45 40.01 0.161 7.25 6.5 12.71
12/6/2020 3:00:00 AM 4.43 39.974 0.161 7.26 3.32 12.72
12/6/2020 3:15:00 AM 4.39 39.902 0.161 7.26 3.24 12.73
12/6/2020 3:30:00 AM 4.37 39.866 0.161 7.32 3.24 12.74
12/6/2020 3:45:00 AM 4.35 39.83 0.161 7.27 3.15 12.74
12/6/2020 4:00:00 AM 4.31 39.758 0.161 7.32 3.23 12.75
12/6/2020 4:15:00 AM 4.27 39.686 0.161 7.31 3.25 12.76
12/6/2020 4:30:00 AM 4.25 39.65 0.161 7.29 3.4 12.78
12/6/2020 4:45:00 AM 4.21 39.578 0.161 7.29 3.19 12.79
12/6/2020 5:00:00 AM 4.18 39.524 0.161 7.25 3.33 12.8
12/6/2020 5:15:00 AM 4.15 39.47 0.161 7.28 3.23 12.81
12/6/2020 5:30:00 AM 4.12 39.416 0.161 7.25 3.3 12.83
12/6/2020 5:45:00 AM 4.1 39.38 0.161 7.3 3.39 12.82
12/6/2020 6:00:00 AM 4.07 39.326 0.161 7.27 3.29 12.84
12/6/2020 6:15:00 AM 4.04 39.272 0.161 7.27 3.17 12.85
12/6/2020 6:30:00 AM 4.01 39.218 0.161 7.25 3.26 12.86
12/6/2020 6:45:00 AM 3.99 39.182 0.161 7.25 3.27 12.87
12/6/2020 7:00:00 AM 3.96 39.128 0.162 7.25 3.21 12.88
12/6/2020 7:15:00 AM 3.93 39.074 0.162 7.24 3.08 12.9
12/6/2020 7:30:00 AM 3.88 38.984 0.161 7.31 3.26 12.94
12/6/2020 7:45:00 AM 3.85 38.93 0.161 7.3 3.25 12.98
12/6/2020 8:00:00 AM 3.83 38.894 0.161 7.29 3.23 13.06
12/6/2020 8:15:00 AM 3.78 38.804 0.161 7.33 3.14 13.18
12/6/2020 8:30:00 AM 3.77 38.786 0.161 7.32 3.16 13.22
12/6/2020 8:45:00 AM 3.76 38.768 0.161 7.35 3.34 13.3
12/6/2020 9:00:00 AM 3.76 38.768 0.161 7.43 3.11 13.36
12/6/2020 9:15:00 AM 3.77 38.786 0.161 7.41 3.2 13.46
12/6/2020 9:30:00 AM 3.78 38.804 0.161 7.46 3.17 13.51
12/6/2020 9:45:00 AM 3.78 38.804 0.161 7.47 3.2 13.56
12/6/2020 10:00:00 AM 3.79 38.822 0.16 7.5 3.34 13.61
12/6/2020 10:15:00 AM 3.81 38.858 0.16 7.53 3.19 13.65
12/6/2020 10:30:00 AM 3.84 38.912 0.16 7.6 3.22 13.69
12/6/2020 10:45:00 AM 3.86 38.948 0.16 7.62 3.31 13.71
12/6/2020 11:00:00 AM 3.89 39.002 0.16 7.61 3.22 13.73
12/6/2020 11:15:00 AM 3.92 39.056 0.159 7.64 3.22 13.74
12/6/2020 11:30:00 AM 3.96 39.128 0.159 7.68 3.17 13.75
12/6/2020 11:45:00 AM 3.99 39.182 0.159 7.71 3.24 13.74
12/6/2020 12:00:00 PM 4.03 39.254 0.159 7.72 3.16 13.74
12/6/2020 12:15:00 PM 4.04 39.272 0.159 7.73 3.21 13.73
12/6/2020 12:30:00 PM 4.07 39.326 0.159 7.75 3.2 13.75
12/6/2020 12:45:00 PM 4.12 39.416 0.159 7.79 3.29 13.76
12/6/2020 1:00:00 PM 4.15 39.47 0.159 7.79 3.21 13.74
12/6/2020 1:15:00 PM 4.18 39.524 0.158 7.78 3.29 13.74
12/6/2020 1:30:00 PM 4.21 39.578 0.158 7.8 3.19 13.73
12/6/2020 1:45:00 PM 4.23 39.614 0.158 7.79 3.19 13.7
12/6/2020 2:00:00 PM 4.21 39.578 0.158 7.75 3.26 13.67
12/6/2020 2:15:00 PM 4.24 39.632 0.158 7.79 3.3 13.68
12/6/2020 2:30:00 PM 4.26 39.668 0.158 7.75 3.18 13.66
12/6/2020 2:45:00 PM 4.24 39.632 0.158 7.71 3.16 13.6
12/6/2020 3:00:00 PM 4.25 39.65 0.158 7.76 3.29 13.6
12/6/2020 3:15:00 PM 4.24 39.632 0.158 7.72 3.15 13.56
12/6/2020 3:30:00 PM 4.22 39.596 0.158 7.69 3.23 13.52
12/6/2020 3:45:00 PM 4.17 39.506 0.158 7.62 3.2 13.4
12/6/2020 4:00:00 PM 4.11 39.398 0.158 7.57 3.19 13.34
12/6/2020 4:15:00 PM 4.05 39.29 0.159 7.5 3.17 13.26
12/6/2020 4:30:00 PM 4.03 39.254 0.159 7.47 3.05 13.18
12/6/2020 4:45:00 PM 3.98 39.164 0.159 7.43 3.16 13.11
12/6/2020 5:00:00 PM 3.98 39.164 0.159 7.42 3.32 13.06
12/6/2020 5:15:00 PM 3.97 39.146 0.159 7.41 3.25 13.02
12/6/2020 5:30:00 PM 3.96 39.128 0.159 7.39 3.24 13
12/6/2020 5:45:00 PM 3.94 39.092 0.159 7.38 3.23 12.98
12/6/2020 6:00:00 PM 3.93 39.074 0.16 7.38 3.29 12.98
12/6/2020 6:15:00 PM 3.91 39.038 0.16 7.34 3.25 12.97
12/6/2020 6:30:00 PM 3.89 39.002 0.159 7.35 3.25 12.97
12/6/2020 6:45:00 PM 3.88 38.984 0.16 7.37 3.21 12.98
12/6/2020 7:00:00 PM 3.86 38.948 0.16 7.36 3.19 12.97
12/6/2020 7:15:00 PM 3.84 38.912 0.16 7.35 3.24 12.97
12/6/2020 7:30:00 PM 3.81 38.858 0.16 7.29 3.31 12.98
12/6/2020 7:45:00 PM 3.78 38.804 0.16 7.33 3.29 12.99
12/6/2020 8:00:00 PM 3.75 38.75 0.16 7.33 3.18 13
12/6/2020 8:15:00 PM 3.73 38.714 0.16 7.33 3.33 13
12/6/2020 8:30:00 PM 3.7 38.66 0.16 7.33 3.58 13.01
12/6/2020 8:45:00 PM 3.68 38.624 0.16 7.33 3.2 13.02
12/6/2020 9:00:00 PM 3.64 38.552 0.16 7.32 3.33 13.03
12/6/2020 9:15:00 PM 3.62 38.516 0.16 7.32 3.2 13.04
12/6/2020 9:30:00 PM 3.59 38.462 0.16 7.33 3.19 13.05
12/6/2020 9:45:00 PM 3.57 38.426 0.16 7.32 3.17 13.05
12/6/2020 10:00:00 PM 3.56 38.408 0.161 7.34 3.21 13.06
12/6/2020 10:15:00 PM 3.55 38.39 0.161 7.27 3.3 13.06
12/6/2020 10:30:00 PM 3.51 38.318 0.161 7.31 3.07 13.07
12/6/2020 10:45:00 PM 3.48 38.264 0.161 7.31 3.15 13.08
12/6/2020 11:00:00 PM 3.46 38.228 0.161 7.35 3.12 13.09
12/6/2020 11:15:00 PM 3.43 38.174 0.161 7.33 3.18 13.1
12/6/2020 11:30:00 PM 3.39 38.102 0.161 7.33 3.18 13.1
12/6/2020 11:45:00 PM 3.37 38.066 0.161 7.3 3.23 13.11
12/7/2020 12:00:00 AM 3.35 38.03 0.161 7.29 3.11 13.13
12/7/2020 12:15:00 AM 3.32 37.976 0.161 7.27 3.17 13.12
12/7/2020 12:30:00 AM 3.31 37.958 0.161 7.27 3.58 13.14
12/7/2020 12:45:00 AM 3.29 37.922 0.161 7.33 3.1 13.12
12/7/2020 1:00:00 AM 3.29 37.922 0.161 7.28 3.19 13.14
12/7/2020 1:15:00 AM 3.28 37.904 0.161 7.28 3.18 13.14
12/7/2020 1:30:00 AM 3.28 37.904 0.161 7.27 3.21 13.13
12/7/2020 1:45:00 AM 3.26 37.868 0.162 7.31 3.17 13.14
12/7/2020 2:00:00 AM 3.26 37.868 0.162 7.31 3.17 13.14
12/7/2020 2:15:00 AM 3.25 37.85 0.162 7.28 3.13 13.15
12/7/2020 2:30:00 AM 3.25 37.85 0.162 7.27 3.07 13.15
12/7/2020 2:45:00 AM 3.24 37.832 0.162 7.29 3.19 13.15
12/7/2020 3:00:00 AM 3.24 37.832 0.162 7.3 3.14 13.15
12/7/2020 3:15:00 AM 3.24 37.832 0.162 7.31 3.11 13.14
12/7/2020 3:30:00 AM 3.23 37.814 0.162 7.3 3.17 13.15
12/7/2020 3:45:00 AM 3.23 37.814 0.162 7.32 3.21 13.15
12/7/2020 4:00:00 AM 3.22 37.796 0.162 7.31 3.18 13.14
12/7/2020 4:15:00 AM 3.21 37.778 0.162 7.27 3.19 13.15
12/7/2020 4:30:00 AM 3.2 37.76 0.162 7.26 3.23 13.15
12/7/2020 4:45:00 AM 3.21 37.778 0.162 7.3 3.15 13.16
12/7/2020 5:00:00 AM 3.21 37.778 0.162 7.3 3.07 13.16
12/7/2020 5:15:00 AM 3.2 37.76 0.162 7.31 3.41 13.15
12/7/2020 5:30:00 AM 3.2 37.76 0.162 7.27 3.26 13.15
12/7/2020 5:45:00 AM 3.19 37.742 0.162 7.28 3.13 13.16
12/7/2020 6:00:00 AM 3.18 37.724 0.162 7.31 3.21 13.15
12/7/2020 6:15:00 AM 3.18 37.724 0.162 7.3 3.22 13.16
12/7/2020 6:30:00 AM 3.19 37.742 0.162 7.3 3.25 13.16
12/7/2020 6:45:00 AM 3.18 37.724 0.162 7.29 3.22 13.16
12/7/2020 7:00:00 AM 3.18 37.724 0.162 7.29 3.14 13.16
12/7/2020 7:15:00 AM 3.18 37.724 0.162 7.29 3.27 13.16
12/7/2020 7:30:00 AM 3.18 37.724 0.162 7.35 3.16 13.19
12/7/2020 7:45:00 AM 3.18 37.724 0.162 7.34 4.2 13.24
12/7/2020 8:00:00 AM 3.18 37.724 0.162 7.37 3.19 13.3
12/7/2020 8:15:00 AM 3.19 37.742 0.162 7.4 3.22 13.39
12/7/2020 8:30:00 AM 3.21 37.778 0.162 7.41 3.32 13.45
12/7/2020 8:45:00 AM 3.23 37.814 0.162 7.42 3.39 13.54
12/7/2020 9:00:00 AM 3.25 37.85 0.162 7.48 3.45 13.62
12/7/2020 9:15:00 AM 3.27 37.886 0.162 7.48 3.43 13.7
12/7/2020 9:30:00 AM 3.26 37.868 0.162 7.49 3.28 13.65
12/7/2020 9:45:00 AM 3.3 37.94 0.162 7.57 3.28 13.76
12/7/2020 10:00:00 AM 3.37 38.066 0.161 7.65 3.33 13.86
12/7/2020 10:15:00 AM 3.4 38.12 0.161 7.59 3.41 13.86
12/7/2020 10:30:00 AM 3.4 38.12 0.161 7.67 3.38 13.86
12/7/2020 10:45:00 AM 3.42 38.156 0.161 7.66 3.44 13.88
12/7/2020 11:00:00 AM 3.48 38.264 0.161 7.65 3.46 13.93
12/7/2020 11:15:00 AM 3.57 38.426 0.161 7.72 3.44 13.96
12/7/2020 11:30:00 AM 3.64 38.552 0.161 7.79 3.4 13.97
12/7/2020 11:45:00 AM 3.71 38.678 0.16 7.83 3.41 13.97
12/7/2020 12:00:00 PM 3.79 38.822 0.16 7.83 3.42 13.97
12/7/2020 12:15:00 PM 3.86 38.948 0.16 7.8 3.24 13.96
12/7/2020 12:30:00 PM 3.9 39.02 0.16 7.87 3.34 13.94
12/7/2020 12:45:00 PM 3.94 39.092 0.16 7.88 3.3 13.92
12/7/2020 1:00:00 PM 3.97 39.146 0.16 7.82 3.38 13.9
12/7/2020 1:15:00 PM 3.98 39.164 0.16 7.88 3.23 13.88
12/7/2020 1:30:00 PM 3.98 39.164 0.16 7.82 3.3 13.84
12/7/2020 1:45:00 PM 3.99 39.182 0.16 7.88 3.34 13.84
12/7/2020 2:00:00 PM 4 39.2 0.16 7.84 3.33 13.82
12/7/2020 2:15:00 PM 3.99 39.182 0.16 7.86 3.47 13.81
12/7/2020 2:30:00 PM 3.98 39.164 0.16 7.82 3.32 13.79
12/7/2020 2:45:00 PM 3.95 39.11 0.16 7.88 3.79 13.77
12/7/2020 3:00:00 PM 3.95 39.11 0.16 7.85 3.33 13.73
12/7/2020 3:15:00 PM 3.91 39.038 0.16 7.81 3.27 13.66
12/7/2020 3:30:00 PM 3.89 39.002 0.16 7.75 3.31 13.64
12/7/2020 3:45:00 PM 3.87 38.966 0.16 7.76 3.37 13.59
12/7/2020 4:00:00 PM 3.83 38.894 0.16 7.69 3.31 13.48
12/7/2020 4:15:00 PM 3.78 38.804 0.16 7.63 3.32 13.38
12/7/2020 4:30:00 PM 3.76 38.768 0.161 7.58 3.35 13.28
12/7/2020 4:45:00 PM 3.73 38.714 0.161 7.52 3.28 13.18
12/7/2020 5:00:00 PM 3.71 38.678 0.161 7.49 3.28 13.12
12/7/2020 5:15:00 PM 3.69 38.642 0.161 7.46 3.32 13.09
12/7/2020 5:30:00 PM 3.64 38.552 0.161 7.45 3.3 13.06
12/7/2020 5:45:00 PM 3.63 38.534 0.162 7.39 3.27 13.05
12/7/2020 6:00:00 PM 3.58 38.444 0.162 7.43 3.39 13.05
12/7/2020 6:15:00 PM 3.53 38.354 0.162 7.41 3.24 13.04
12/7/2020 6:30:00 PM 3.49 38.282 0.162 7.36 3.27 13.05
12/7/2020 6:45:00 PM 3.46 38.228 0.162 7.33 3.2 13.05
12/7/2020 7:00:00 PM 3.44 38.192 0.162 7.33 3.18 13.05
12/7/2020 7:15:00 PM 3.42 38.156 0.162 7.29 3.28 13.06
12/7/2020 7:30:00 PM 3.4 38.12 0.162 7.33 3.26 13.06
12/7/2020 7:45:00 PM 3.38 38.084 0.163 7.29 3.05 13.06
12/7/2020 8:00:00 PM 3.37 38.066 0.163 7.26 3.19 13.06
12/7/2020 8:15:00 PM 3.33 37.994 0.163 7.26 3.13 13.07
12/7/2020 8:30:00 PM 3.32 37.976 0.163 7.33 3.12 13.07
12/7/2020 8:45:00 PM 3.31 37.958 0.163 7.27 3.15 13.08
12/7/2020 9:00:00 PM 3.29 37.922 0.163 7.25 3.15 13.09
12/7/2020 9:15:00 PM 3.27 37.886 0.163 7.35 3.15 13.1
12/7/2020 9:30:00 PM 3.25 37.85 0.163 7.34 3.22 13.1
12/7/2020 9:45:00 PM 3.22 37.796 0.163 7.33 3.19 13.11
12/7/2020 10:00:00 PM 3.22 37.796 0.163 7.34 3.16 13.12
12/7/2020 10:15:00 PM 3.2 37.76 0.163 7.34 3.4 13.12
12/7/2020 10:30:00 PM 3.17 37.706 0.163 7.34 3.46 13.13
12/7/2020 10:45:00 PM 3.15 37.67 0.163 7.33 3.61 13.14
12/7/2020 11:00:00 PM 3.13 37.634 0.164 7.27 3.53 13.15
12/7/2020 11:15:00 PM 3.14 37.652 0.163 7.33 4.31 13.14
12/7/2020 11:30:00 PM 3.13 37.634 0.163 7.34 4.24 13.15
12/7/2020 11:45:00 PM 3.13 37.634 0.163 7.32 3.61 13.14
12/8/2020 12:00:00 AM 3.14 37.652 0.163 7.3 3.34 13.15
12/8/2020 12:15:00 AM 3.13 37.634 0.164 7.25 3.22 13.15
12/8/2020 12:30:00 AM 3.09 37.562 0.163 7.33 3.26 13.15
12/8/2020 12:45:00 AM 3.08 37.544 0.163 7.32 3.26 13.16
12/8/2020 1:00:00 AM 3.08 37.544 0.163 7.31 3.15 13.17
12/8/2020 1:15:00 AM 3.06 37.508 0.163 7.27 3.17 13.16
12/8/2020 1:30:00 AM 3.06 37.508 0.163 7.33 3.08 13.17
12/8/2020 1:45:00 AM 3.05 37.49 0.164 7.3 3.11 13.17
12/8/2020 2:00:00 AM 3.04 37.472 0.163 7.29 3.04 13.18
12/8/2020 2:15:00 AM 3.04 37.472 0.164 7.27 3.16 13.18
12/8/2020 2:30:00 AM 3.04 37.472 0.164 7.35 3.13 13.18
12/8/2020 2:45:00 AM 3.03 37.454 0.164 7.29 3.21 13.18
12/8/2020 3:00:00 AM 3.03 37.454 0.164 7.27 3.23 13.17
12/8/2020 3:15:00 AM 3.04 37.472 0.164 7.33 3.2 13.18
12/8/2020 3:30:00 AM 3.03 37.454 0.164 7.32 3.14 13.18
12/8/2020 3:45:00 AM 3.01 37.418 0.164 7.28 3.17 13.18
12/8/2020 4:00:00 AM 3.01 37.418 0.164 7.27 3.02 13.19
12/8/2020 4:15:00 AM 2.98 37.364 0.164 7.33 3.18 13.19
12/8/2020 4:30:00 AM 2.98 37.364 0.164 7.33 3.23 13.19
12/8/2020 4:45:00 AM 2.97 37.346 0.164 7.26 3.19 13.19
12/8/2020 5:00:00 AM 2.94 37.292 0.164 7.3 3.19 13.19
12/8/2020 5:15:00 AM 2.93 37.274 0.164 7.28 3.12 13.2
12/8/2020 5:30:00 AM 2.92 37.256 0.164 7.25 3.15 13.2
12/8/2020 5:45:00 AM 2.9 37.22 0.164 7.34 3.17 13.21
12/8/2020 6:00:00 AM 2.9 37.22 0.164 7.27 3.12 13.2
12/8/2020 6:15:00 AM 2.88 37.184 0.165 7.29 3.07 13.22
12/8/2020 6:30:00 AM 2.87 37.166 0.165 7.31 3.2 13.22
12/8/2020 6:45:00 AM 2.86 37.148 0.164 7.28 3.12 13.22
12/8/2020 7:00:00 AM 2.84 37.112 0.165 7.35 3.19 13.24
12/8/2020 7:15:00 AM 2.83 37.094 0.164 7.36 3.1 13.25
12/8/2020 7:30:00 AM 2.81 37.058 0.164 7.36 3.14 13.28
12/8/2020 7:45:00 AM 2.8 37.04 0.164 7.37 3.12 13.32
12/8/2020 8:00:00 AM 2.79 37.022 0.164 7.39 3.22 13.4
12/8/2020 8:15:00 AM 2.79 37.022 0.164 7.37 3.1 13.48
12/8/2020 8:30:00 AM 2.78 37.004 0.164 7.43 3.14 13.55
12/8/2020 8:45:00 AM 2.79 37.022 0.164 7.47 3.06 13.65
12/8/2020 9:00:00 AM 2.81 37.058 0.164 7.5 3.09 13.73
12/8/2020 9:15:00 AM 2.81 37.058 0.164 7.52 3.09 13.83
12/8/2020 9:30:00 AM 2.84 37.112 0.164 7.59 3.17 13.92
12/8/2020 9:45:00 AM 2.89 37.202 0.164 7.66 3.1 14.03
12/8/2020 10:00:00 AM 2.97 37.346 0.164 7.7 3.24 14.09
12/8/2020 10:15:00 AM 3.01 37.418 0.164 7.72 3.12 14.1
12/8/2020 10:30:00 AM 3.03 37.454 0.163 7.7 3.14 14.13
12/8/2020 10:45:00 AM 3.03 37.454 0.163 7.7 3.1 14.15
12/8/2020 11:00:00 AM 3.13 37.634 0.163 7.72 3.02 14.18
12/8/2020 11:15:00 AM 3.17 37.706 0.163 7.79 3.12 14.16
12/8/2020 11:30:00 AM 3.19 37.742 0.163 7.74 3.09 14.15
12/8/2020 11:45:00 AM 3.2 37.76 0.163 7.8 3.12 14.13
12/8/2020 12:00:00 PM 3.2 37.76 0.163 7.79 3.09 14.08
12/8/2020 12:15:00 PM 3.16 37.688 0.163 7.77 3.01 14.04
12/8/2020 12:30:00 PM 3.12 37.616 0.163 7.71 3.01 14.01
12/8/2020 12:45:00 PM 3.08 37.544 0.163 7.75 3.12 14
12/8/2020 1:00:00 PM 3.05 37.49 0.162 7.69 3.13 13.98
12/8/2020 1:15:00 PM 3.01 37.418 0.163 7.74 3.11 13.97
12/8/2020 1:30:00 PM 2.98 37.364 0.163 7.69 3.22 13.94
12/8/2020 1:45:00 PM 2.95 37.31 0.163 7.67 3.07 13.92
12/8/2020 2:00:00 PM 2.93 37.274 0.163 7.61 3.01 13.9
12/8/2020 2:15:00 PM 2.91 37.238 0.163 7.63 3.03 13.88
12/8/2020 2:30:00 PM 2.88 37.184 0.163 7.59 3.1 13.87
12/8/2020 2:45:00 PM 2.86 37.148 0.163 7.62 3.11 13.85
12/8/2020 3:00:00 PM 2.83 37.094 0.163 7.57 3.08 13.82
12/8/2020 3:15:00 PM 2.81 37.058 0.163 7.53 2.98 13.8
12/8/2020 3:30:00 PM 2.78 37.004 0.163 7.52 3.07 13.78
12/8/2020 3:45:00 PM 2.76 36.968 0.163 7.52 3.08 13.74
12/8/2020 4:00:00 PM 2.74 36.932 0.163 7.54 3.12 13.71
12/8/2020 4:15:00 PM 2.72 36.896 0.163 7.52 3.15 13.66
12/8/2020 4:30:00 PM 2.7 36.86 0.163 7.43 3.09 13.6
12/8/2020 4:45:00 PM 2.67 36.806 0.163 7.41 3.09 13.53
12/8/2020 5:00:00 PM 2.64 36.752 0.163 7.35 2.99 13.48
12/8/2020 5:15:00 PM 2.62 36.716 0.163 7.38 3.07 13.46
12/8/2020 5:30:00 PM 2.59 36.662 0.163 7.4 3.21 13.45
12/8/2020 5:45:00 PM 2.57 36.626 0.163 7.38 3.07 13.43
12/8/2020 6:00:00 PM 2.55 36.59 0.163 7.36 3.17 13.43
12/8/2020 6:15:00 PM 2.52 36.536 0.163 7.35 3.08 13.43
12/8/2020 6:30:00 PM 2.49 36.482 0.163 7.35 3.2 13.43
12/8/2020 6:45:00 PM 2.46 36.428 0.164 7.35 2.97 13.44
12/8/2020 7:00:00 PM 2.44 36.392 0.164 7.36 3.1 13.43
12/8/2020 7:15:00 PM 2.43 36.374 0.164 7.36 3.05 13.43
12/8/2020 7:30:00 PM 2.41 36.338 0.164 7.34 3.2 13.44
12/8/2020 7:45:00 PM 2.39 36.302 0.164 7.33 3.26 13.45
12/8/2020 8:00:00 PM 2.37 36.266 0.164 7.36 3.32 13.45
12/8/2020 8:15:00 PM 2.33 36.194 0.164 7.36 3.26 13.47
12/8/2020 8:30:00 PM 2.29 36.122 0.164 7.35 3.17 13.48
12/8/2020 8:45:00 PM 2.25 36.05 0.164 7.35 3.18 13.49
12/8/2020 9:00:00 PM 2.21 35.978 0.165 7.28 3.19 13.51
12/8/2020 9:15:00 PM 2.17 35.906 0.164 7.28 3.1 13.53
12/8/2020 9:30:00 PM 2.13 35.834 0.165 7.33 3.06 13.55
12/8/2020 9:45:00 PM 2.09 35.762 0.165 7.28 3.07 13.55
12/8/2020 10:00:00 PM 2.09 35.762 0.165 7.36 3.09 13.57
12/8/2020 10:15:00 PM 2.05 35.69 0.165 7.31 3.18 13.58
12/8/2020 10:30:00 PM 2.03 35.654 0.165 7.33 3.06 13.59
12/8/2020 10:45:00 PM 2.03 35.654 0.165 7.27 3.06 13.6
12/8/2020 11:00:00 PM 2.04 35.672 0.165 7.24 3.07 13.6
12/8/2020 11:15:00 PM 2.04 35.672 0.165 7.33 3.13 13.6
12/8/2020 11:30:00 PM 2.04 35.672 0.165 7.29 3.17 13.6
12/8/2020 11:45:00 PM 2.05 35.69 0.165 7.29 3.03 13.6
12/9/2020 12:00:00 AM 2.05 35.69 0.165 7.26 3.11 13.6
12/9/2020 12:15:00 AM 2.04 35.672 0.165 7.33 3.07 13.6
12/9/2020 12:30:00 AM 2 35.6 0.165 7.28 3.1 13.61
12/9/2020 12:45:00 AM 2 35.6 0.165 7.33 3.14 13.61
12/9/2020 1:00:00 AM 2 35.6 0.165 7.35 3.17 13.61
12/9/2020 1:15:00 AM 2.01 35.618 0.165 7.31 3.09 13.6
12/9/2020 1:30:00 AM 2 35.6 0.165 7.27 3.12 13.6
12/9/2020 1:45:00 AM 2.01 35.618 0.165 7.35 3.11 13.6
12/9/2020 2:00:00 AM 2.02 35.636 0.165 7.35 3.11 13.6
12/9/2020 2:15:00 AM 2.03 35.654 0.165 7.32 2.99 13.59
12/9/2020 2:30:00 AM 2.03 35.654 0.165 7.25 3.08 13.59
12/9/2020 2:45:00 AM 2.02 35.636 0.165 7.31 3.21 13.58
12/9/2020 3:00:00 AM 2.03 35.654 0.165 7.33 3.19 13.58
12/9/2020 3:15:00 AM 2.03 35.654 0.166 7.28 3.24 13.57
12/9/2020 3:30:00 AM 2.03 35.654 0.166 7.28 3.33 13.57
12/9/2020 3:45:00 AM 2.04 35.672 0.166 7.28 3.27 13.56
12/9/2020 4:00:00 AM 2.05 35.69 0.165 7.37 3.53 13.55
12/9/2020 4:15:00 AM 2.07 35.726 0.166 7.36 3.46 13.54
12/9/2020 4:30:00 AM 2.08 35.744 0.166 7.36 3.33 13.53
12/9/2020 4:45:00 AM 2.08 35.744 0.166 7.31 3.33 13.54
12/9/2020 5:00:00 AM 2.09 35.762 0.166 7.36 3.38 13.52
12/9/2020 5:15:00 AM 2.1 35.78 0.166 7.34 3.35 13.52
12/9/2020 5:30:00 AM 2.11 35.798 0.166 7.35 3.24 13.53
12/9/2020 5:45:00 AM 2.12 35.816 0.166 7.34 3.32 13.51
12/9/2020 6:00:00 AM 2.13 35.834 0.166 7.31 3.35 13.5
12/9/2020 6:15:00 AM 2.16 35.888 0.166 7.33 3.43 13.47
12/9/2020 6:30:00 AM 2.17 35.906 0.166 7.35 3.31 13.47
12/9/2020 6:45:00 AM 2.18 35.924 0.166 7.29 3.36 13.49
12/9/2020 7:00:00 AM 2.2 35.96 0.166 7.36 3.47 13.46
12/9/2020 7:15:00 AM 2.22 35.996 0.166 7.36 3.32 13.45
12/9/2020 7:30:00 AM 2.24 36.032 0.166 7.32 3.4 13.47
12/9/2020 7:45:00 AM 2.27 36.086 0.167 7.33 3.43 13.44
12/9/2020 8:00:00 AM 2.25 36.05 0.166 7.33 3.39 13.48
12/9/2020 8:15:00 AM 2.08 35.744 0.166 7.33 3.36 13.53
12/9/2020 8:30:00 AM 1.85 35.33 0.166 7.31 3.3 13.6
12/9/2020 8:45:00 AM 1.76 35.168 0.165 7.36 3.42 13.63
12/9/2020 9:00:00 AM 1.64 34.952 0.165 7.39 3.54 13.75
12/9/2020 9:15:00 AM 1.58 34.844 0.165 7.38 3.36 13.82
12/9/2020 9:30:00 AM 1.51 34.718 0.165 7.37 3.39 13.93
12/9/2020 9:45:00 AM 1.55 34.79 0.164 7.45 3.4 14
12/9/2020 10:00:00 AM 1.62 34.916 0.164 7.43 3.47 14.07
12/9/2020 10:15:00 AM 1.59 34.862 0.164 7.44 3.47 14.15
12/9/2020 10:30:00 AM 1.58 34.844 0.163 7.48 3.33 14.28
12/9/2020 10:45:00 AM 1.65 34.97 0.163 7.56 3.31 14.36
12/9/2020 11:00:00 AM 1.74 35.132 0.163 7.55 3.23 14.38
12/9/2020 11:15:00 AM 1.79 35.222 0.163 7.56 3.37 14.36
12/9/2020 11:30:00 AM 1.8 35.24 0.163 7.57 3.27 14.38
12/9/2020 11:45:00 AM 1.81 35.258 0.162 7.62 3.41 14.45
12/9/2020 12:00:00 PM 1.88 35.384 0.162 7.65 3.47 14.46
12/9/2020 12:15:00 PM 1.98 35.564 0.162 7.65 3.38 14.46
12/9/2020 12:30:00 PM 2.06 35.708 0.162 7.66 3.39 14.43
12/9/2020 12:45:00 PM 2.12 35.816 0.162 7.65 3.26 14.39
12/9/2020 1:00:00 PM 2.19 35.942 0.162 7.75 3.32 14.38
12/9/2020 1:15:00 PM 2.27 36.086 0.162 7.73 3.62 14.34
12/9/2020 1:30:00 PM 2.33 36.194 0.162 7.74 3.49 14.31
12/9/2020 1:45:00 PM 2.41 36.338 0.162 7.73 3.5 14.33
12/9/2020 2:00:00 PM 2.46 36.428 0.162 7.79 3.4 14.32
12/9/2020 2:15:00 PM 2.53 36.554 0.162 7.76 3.42 14.21
12/9/2020 2:30:00 PM 2.59 36.662 0.162 7.77 3.47 14.21
12/9/2020 2:45:00 PM 2.63 36.734 0.162 7.65 3.42 14.05
12/9/2020 3:00:00 PM 2.66 36.788 0.162 7.63 3.26 13.98
12/9/2020 3:15:00 PM 2.69 36.842 0.162 7.57 3.43 13.89
12/9/2020 3:30:00 PM 2.72 36.896 0.162 7.6 3.46 13.81
12/9/2020 3:45:00 PM 2.75 36.95 0.162 7.56 3.41 13.71
12/9/2020 4:00:00 PM 2.77 36.986 0.162 7.49 3.36 13.64
12/9/2020 4:15:00 PM 2.8 37.04 0.163 7.46 3.39 13.56
12/9/2020 4:30:00 PM 2.82 37.076 0.163 7.49 3.4 13.48
12/9/2020 4:45:00 PM 2.85 37.13 0.163 7.44 3.36 13.39
12/9/2020 5:00:00 PM 2.87 37.166 0.163 7.46 3.35 13.38
12/9/2020 5:15:00 PM 2.89 37.202 0.163 7.43 3.48 13.33
12/9/2020 5:30:00 PM 2.91 37.238 0.164 7.42 3.47 13.29
12/9/2020 5:45:00 PM 2.93 37.274 0.164 7.38 3.66 13.28
12/9/2020 6:00:00 PM 2.95 37.31 0.164 7.41 3.37 13.26
12/9/2020 6:15:00 PM 2.97 37.346 0.164 7.36 3.38 13.23
12/9/2020 6:30:00 PM 2.99 37.382 0.164 7.35 3.5 13.2
12/9/2020 6:45:00 PM 3.01 37.418 0.164 7.41 3.38 13.22
12/9/2020 7:00:00 PM 3.03 37.454 0.164 7.39 3.45 13.19
12/9/2020 7:15:00 PM 3.04 37.472 0.164 7.35 3.49 13.18
12/9/2020 7:30:00 PM 3.06 37.508 0.165 7.39 3.62 13.15
12/9/2020 7:45:00 PM 3.07 37.526 0.165 7.38 3.37 13.13
12/9/2020 8:00:00 PM 3.08 37.544 0.165 7.38 3.48 13.14
12/9/2020 8:15:00 PM 3.1 37.58 0.165 7.33 3.41 13.15
12/9/2020 8:30:00 PM 3.11 37.598 0.165 7.38 3.4 13.13
12/9/2020 8:45:00 PM 3.12 37.616 0.165 7.34 3.46 13.12
12/9/2020 9:00:00 PM 3.14 37.652 0.165 7.37 3.54 13.11
12/9/2020 9:15:00 PM 3.15 37.67 0.165 7.38 3.42 13.12
12/9/2020 9:30:00 PM 3.16 37.688 0.165 7.32 3.48 13.14
12/9/2020 9:45:00 PM 3.17 37.706 0.165 7.37 3.49 13.12
12/9/2020 10:00:00 PM 3.17 37.706 0.165 7.33 3.49 13.14
12/9/2020 10:15:00 PM 3.18 37.724 0.165 7.37 3.5 13.09
12/9/2020 10:30:00 PM 3.19 37.742 0.165 7.32 3.44 13.12
12/9/2020 10:45:00 PM 3.2 37.76 0.165 7.35 3.59 13.12
12/9/2020 11:00:00 PM 3.2 37.76 0.165 7.36 3.37 13.12
12/9/2020 11:15:00 PM 3.21 37.778 0.165 7.32 3.38 13.11
12/9/2020 11:30:00 PM 3.22 37.796 0.166 7.32 3.53 13.12
12/9/2020 11:45:00 PM 3.23 37.814 0.166 7.31 3.53 13.14
12/10/2020 12:00:00 AM 3.23 37.814 0.166 7.3 3.44 13.12
12/10/2020 12:15:00 AM 3.24 37.832 0.166 7.36 3.44 13.13
12/10/2020 12:30:00 AM 3.26 37.868 0.166 7.31 3.59 13.11
12/10/2020 12:45:00 AM 3.26 37.868 0.166 7.34 3.46 13.12
12/10/2020 1:00:00 AM 3.27 37.886 0.166 7.36 3.63 13.12
12/10/2020 1:15:00 AM 3.28 37.904 0.166 7.31 3.5 13.12
12/10/2020 1:30:00 AM 3.28 37.904 0.166 7.3 3.63 13.12
12/10/2020 1:45:00 AM 3.29 37.922 0.166 7.32 3.62 13.13
12/10/2020 2:00:00 AM 3.3 37.94 0.166 7.31 3.63 13.12
12/10/2020 2:15:00 AM 3.3 37.94 0.166 7.37 3.55 13.12
12/10/2020 2:30:00 AM 3.31 37.958 0.166 7.36 3.7 13.12
12/10/2020 2:45:00 AM 3.32 37.976 0.166 7.31 3.67 13.12
12/10/2020 3:00:00 AM 3.31 37.958 0.166 7.35 3.67 13.1
12/10/2020 3:15:00 AM 3.31 37.958 0.165 7.3 3.61 13.13
12/10/2020 3:30:00 AM 3.32 37.976 0.165 7.29 3.67 13.12
12/10/2020 3:45:00 AM 3.33 37.994 0.165 7.29 3.57 13.12
12/10/2020 4:00:00 AM 3.34 38.012 0.165 7.35 3.52 13.13
12/10/2020 4:15:00 AM 3.34 38.012 0.165 7.31 3.62 13.13
12/10/2020 4:30:00 AM 3.35 38.03 0.165 7.34 3.64 13.12
12/10/2020 4:45:00 AM 3.36 38.048 0.165 7.35 3.56 13.12
12/10/2020 5:00:00 AM 3.36 38.048 0.165 7.33 3.67 13.13
12/10/2020 5:15:00 AM 3.37 38.066 0.165 7.31 3.54 13.12
12/10/2020 5:30:00 AM 3.38 38.084 0.165 7.35 3.71 13.12
12/10/2020 5:45:00 AM 3.39 38.102 0.165 7.34 3.57 13.12
12/10/2020 6:00:00 AM 3.4 38.12 0.165 7.31 3.6 13.11
12/10/2020 6:15:00 AM 3.4 38.12 0.165 7.3 3.45 13.13
12/10/2020 6:30:00 AM 3.41 38.138 0.165 7.35 3.63 13.12
12/10/2020 6:45:00 AM 3.42 38.156 0.165 7.32 3.49 13.12
12/10/2020 7:00:00 AM 3.42 38.156 0.165 7.35 3.35 13.12
12/10/2020 7:15:00 AM 3.43 38.174 0.165 7.32 3.34 13.11
12/10/2020 7:30:00 AM 3.44 38.192 0.165 7.36 3.54 13.13
12/10/2020 7:45:00 AM 3.45 38.21 0.165 7.35 3.53 13.2
12/10/2020 8:00:00 AM 3.46 38.228 0.165 7.41 3.45 13.32
12/10/2020 8:15:00 AM 3.49 38.282 0.165 7.44 3.53 13.47
12/10/2020 8:30:00 AM 3.52 38.336 0.164 7.46 3.54 13.59
12/10/2020 8:45:00 AM 3.55 38.39 0.164 7.52 3.42 13.69
12/10/2020 9:00:00 AM 3.62 38.516 0.164 7.58 3.35 13.8
12/10/2020 9:15:00 AM 3.77 38.786 0.164 7.66 3.43 13.91
12/10/2020 9:30:00 AM 3.81 38.858 0.164 7.67 3.57 13.91
12/10/2020 9:45:00 AM 3.94 39.092 0.164 7.72 3.48 13.99
12/10/2020 10:00:00 AM 4.01 39.218 0.164 7.76 3.36 14.01
12/10/2020 10:15:00 AM 4.09 39.362 0.163 7.81 3.52 14.02
12/10/2020 10:30:00 AM 4.18 39.524 0.163 7.83 3.47 14.04
12/10/2020 10:45:00 AM 4.25 39.65 0.163 7.88 3.48 14.04
12/10/2020 11:00:00 AM 4.3 39.74 0.163 7.87 3.39 14.04
12/10/2020 11:15:00 AM 4.36 39.848 0.163 7.86 3.42 14.02
12/10/2020 11:30:00 AM 4.41 39.938 0.163 7.93 3.79 14.01
12/10/2020 11:45:00 AM 4.46 40.028 0.164 7.91 3.42 13.98
12/10/2020 12:00:00 PM 4.51 40.118 0.163 7.9 3.39 13.97
12/10/2020 12:15:00 PM 4.56 40.208 0.163 7.96 3.53 13.96
12/10/2020 12:30:00 PM 4.62 40.316 0.163 7.93 3.51 13.96
12/10/2020 12:45:00 PM 4.67 40.406 0.163 7.96 3.59 13.95
12/10/2020 1:00:00 PM 4.75 40.55 0.163 7.96 3.55 13.94
12/10/2020 1:15:00 PM 4.82 40.676 0.163 8.02 3.55 13.93
12/10/2020 1:30:00 PM 4.87 40.766 0.162 8 3.6 13.9
12/10/2020 1:45:00 PM 4.91 40.838 0.162 7.98 3.6 13.85
12/10/2020 2:00:00 PM 4.93 40.874 0.162 7.99 3.5 13.83
12/10/2020 2:15:00 PM 4.86 40.748 0.162 7.88 3.57 13.69
12/10/2020 2:30:00 PM 4.8 40.64 0.162 7.8 3.5 13.58
12/10/2020 2:45:00 PM 4.75 40.55 0.162 7.75 3.5 13.53
12/10/2020 3:00:00 PM 4.71 40.478 0.162 7.77 3.6 13.47
12/10/2020 3:15:00 PM 4.66 40.388 0.162 7.69 3.42 13.42
12/10/2020 3:30:00 PM 4.62 40.316 0.163 7.67 3.46 13.37
12/10/2020 3:45:00 PM 4.57 40.226 0.163 7.6 3.64 13.31
12/10/2020 4:00:00 PM 4.52 40.136 0.163 7.57 3.33 13.27
12/10/2020 4:15:00 PM 4.48 40.064 0.163 7.58 3.3 13.21
12/10/2020 4:30:00 PM 4.42 39.956 0.163 7.51 3.29 13.14
12/10/2020 4:45:00 PM 4.36 39.848 0.164 7.46 3.56 13.07
12/10/2020 5:00:00 PM 4.3 39.74 0.164 7.42 3.38 13
12/10/2020 5:15:00 PM 4.23 39.614 0.164 7.42 3.57 13
12/10/2020 5:30:00 PM 4.18 39.524 0.164 7.42 3.5 12.97
12/10/2020 5:45:00 PM 4.11 39.398 0.164 7.42 3.49 12.97
12/10/2020 6:00:00 PM 4.06 39.308 0.165 7.37 3.36 12.98
12/10/2020 6:15:00 PM 3.99 39.182 0.165 7.36 3.5 12.98
12/10/2020 6:30:00 PM 3.92 39.056 0.165 7.38 3.52 12.98
12/10/2020 6:45:00 PM 3.87 38.966 0.165 7.36 3.44 12.99
12/10/2020 7:00:00 PM 3.81 38.858 0.165 7.35 3.44 13.02
12/10/2020 7:15:00 PM 3.75 38.75 0.166 7.32 3.59 13.03
12/10/2020 7:30:00 PM 3.7 38.66 0.166 7.29 3.41 13.04
12/10/2020 7:45:00 PM 3.64 38.552 0.166 7.33 3.59 13.06
12/10/2020 8:00:00 PM 3.57 38.426 0.166 7.35 3.72 13.08
12/10/2020 8:15:00 PM 3.53 38.354 0.166 7.32 3.38 13.1
12/10/2020 8:30:00 PM 3.48 38.264 0.166 7.32 3.38 13.13
12/10/2020 8:45:00 PM 3.41 38.138 0.166 7.31 3.72 13.13
12/10/2020 9:00:00 PM 3.36 38.048 0.166 7.31 3.72 13.16
12/10/2020 9:15:00 PM 3.31 37.958 0.167 7.28 3.61 13.18
12/10/2020 9:30:00 PM 3.28 37.904 0.167 7.3 3.46 13.19
12/10/2020 9:45:00 PM 3.24 37.832 0.167 7.35 3.58 13.21
12/10/2020 10:00:00 PM 3.23 37.814 0.167 7.36 3.38 13.2
12/10/2020 10:15:00 PM 3.21 37.778 0.167 7.31 3.29 13.23
12/10/2020 10:30:00 PM 3.18 37.724 0.167 7.27 3.43 13.24
12/10/2020 10:45:00 PM 3.14 37.652 0.167 7.34 3.51 13.22
12/10/2020 11:00:00 PM 3.1 37.58 0.167 7.36 3.32 13.28
12/10/2020 11:15:00 PM 3.06 37.508 0.167 7.35 3.44 13.25
12/10/2020 11:30:00 PM 3 37.4 0.167 7.26 3.55 13.29
12/10/2020 11:45:00 PM 2.96 37.328 0.167 7.34 3.72 13.3
12/11/2020 12:00:00 AM 2.91 37.238 0.167 7.33 3.56 13.34
12/11/2020 12:15:00 AM 2.87 37.166 0.167 7.35 3.59 13.34
12/11/2020 12:30:00 AM 2.86 37.148 0.167 7.29 3.44 13.35
12/11/2020 12:45:00 AM 2.83 37.094 0.167 7.33 3.57 13.33
12/11/2020 1:00:00 AM 2.78 37.004 0.167 7.32 3.41 13.38
12/11/2020 1:15:00 AM 2.75 36.95 0.167 7.33 3.39 13.39
12/11/2020 1:30:00 AM 2.73 36.914 0.168 7.29 3.34 13.39
12/11/2020 1:45:00 AM 2.67 36.806 0.168 7.31 3.6 13.42
12/11/2020 2:00:00 AM 2.66 36.788 0.168 7.32 3.53 13.42
12/11/2020 2:15:00 AM 2.63 36.734 0.167 7.32 4.59 13.41
12/11/2020 2:30:00 AM 2.58 36.644 0.168 7.35 4.11 13.44
12/11/2020 2:45:00 AM 2.54 36.572 0.168 7.3 3.84 13.44
12/11/2020 3:00:00 AM 2.52 36.536 0.168 7.34 3.5 13.45
12/11/2020 3:15:00 AM 2.47 36.446 0.168 7.32 3.83 13.47
12/11/2020 3:30:00 AM 2.46 36.428 0.168 7.34 3.5 13.5
12/11/2020 3:45:00 AM 2.42 36.356 0.168 7.3 3.41 13.51
12/11/2020 4:00:00 AM 2.42 36.356 0.168 7.29 3.52 13.51
12/11/2020 4:15:00 AM 2.37 36.266 0.168 7.34 3.36 13.53
12/11/2020 4:30:00 AM 2.34 36.212 0.168 7.33 3.53 13.52
12/11/2020 4:45:00 AM 2.33 36.194 0.168 7.35 3.28 13.55
12/11/2020 5:00:00 AM 2.3 36.14 0.168 7.34 3.56 13.54
12/11/2020 5:15:00 AM 2.29 36.122 0.168 7.34 3.34 13.56
12/11/2020 5:30:00 AM 2.26 36.068 0.168 7.34 3.38 13.57
12/11/2020 5:45:00 AM 2.24 36.032 0.168 7.33 3.6 13.56
12/11/2020 6:00:00 AM 2.23 36.014 0.168 7.26 3.43 13.57
12/11/2020 6:15:00 AM 2.21 35.978 0.168 7.28 3.37 13.58
12/11/2020 6:30:00 AM 2.18 35.924 0.168 7.34 3.44 13.6
12/11/2020 6:45:00 AM 2.17 35.906 0.168 7.3 3.49 13.59
12/11/2020 7:00:00 AM 2.14 35.852 0.168 7.35 3.78 13.62
12/11/2020 7:15:00 AM 2.15 35.87 0.168 7.34 3.32 13.64
12/11/2020 7:30:00 AM 2.14 35.852 0.168 7.3 3.51 13.65
12/11/2020 7:45:00 AM 2.14 35.852 0.168 7.33 3.5 13.71
12/11/2020 8:00:00 AM 2.15 35.87 0.168 7.4 3.39 13.85
12/11/2020 8:15:00 AM 2.17 35.906 0.168 7.38 3.45 13.93
12/11/2020 8:30:00 AM 2.22 35.996 0.168 7.44 3.37 13.98
12/11/2020 8:45:00 AM 2.25 36.05 0.167 7.41 3.36 14.07
12/11/2020 9:00:00 AM 2.33 36.194 0.167 7.52 3.41 14.18
12/11/2020 9:15:00 AM 2.47 36.446 0.167 7.58 3.61 14.28
12/11/2020 9:30:00 AM 2.59 36.662 0.167 7.56 3.45 14.34
12/11/2020 9:45:00 AM 2.72 36.896 0.167 7.62 3.42 14.36
12/11/2020 10:00:00 AM 2.8 37.04 0.167 7.61 3.31 14.38
12/11/2020 10:15:00 AM 2.89 37.202 0.166 7.73 3.5 14.39
12/11/2020 10:30:00 AM 2.99 37.382 0.166 7.73 3.6 14.39
12/11/2020 10:45:00 AM 3.1 37.58 0.166 7.75 3.48 14.37
12/11/2020 11:00:00 AM 3.23 37.814 0.166 7.72 3.42 14.35
12/11/2020 11:15:00 AM 3.38 38.084 0.166 7.75 3.43 14.35
12/11/2020 11:30:00 AM 3.43 38.174 0.166 7.81 3.33 14.3
12/11/2020 11:45:00 AM 3.51 38.318 0.166 7.76 3.53 14.29
12/11/2020 12:00:00 PM 3.58 38.444 0.165 7.76 3.46 14.27
12/11/2020 12:15:00 PM 3.58 38.444 0.165 7.8 3.55 14.19
12/11/2020 12:30:00 PM 3.61 38.498 0.165 7.8 3.34 14.19
12/11/2020 12:45:00 PM 3.68 38.624 0.165 7.81 3.31 14.19
12/11/2020 1:00:00 PM 3.71 38.678 0.165 7.82 3.59 14.13
12/11/2020 1:15:00 PM 3.74 38.732 0.165 7.74 3.59 14.12
12/11/2020 1:30:00 PM 3.75 38.75 0.165 7.79 3.61 14.02
12/11/2020 1:45:00 PM 3.76 38.768 0.165 7.69 3.35 13.95
12/11/2020 2:00:00 PM 3.78 38.804 0.165 7.74 3.52 13.92
12/11/2020 2:15:00 PM 3.8 38.84 0.165 7.68 3.32 13.88
12/11/2020 2:30:00 PM 3.84 38.912 0.165 7.67 3.37 13.9
12/11/2020 2:45:00 PM 3.93 39.074 0.165 7.78 3.65 13.94
12/11/2020 3:00:00 PM 3.98 39.164 0.165 7.76 3.47 13.84
12/11/2020 3:15:00 PM 3.98 39.164 0.165 7.68 3.56 13.77
12/11/2020 3:30:00 PM 3.98 39.164 0.165 7.68 3.45 13.71
12/11/2020 3:45:00 PM 3.99 39.182 0.165 7.59 3.51 13.63
12/11/2020 4:00:00 PM 3.99 39.182 0.165 7.62 3.61 13.54
12/11/2020 4:15:00 PM 3.99 39.182 0.165 7.58 3.63 13.44
12/11/2020 4:30:00 PM 3.98 39.164 0.165 7.48 3.36 13.34
12/11/2020 4:45:00 PM 3.96 39.128 0.165 7.48 3.43 13.22
12/11/2020 5:00:00 PM 3.95 39.11 0.165 7.45 3.39 13.16
12/11/2020 5:15:00 PM 3.94 39.092 0.165 7.43 3.43 13.12
12/11/2020 5:30:00 PM 3.93 39.074 0.166 7.39 3.63 13.08
12/11/2020 5:45:00 PM 3.92 39.056 0.165 7.34 3.29 13.05
12/11/2020 6:00:00 PM 3.92 39.056 0.165 7.36 3.62 13.01
12/11/2020 6:15:00 PM 3.9 39.02 0.166 7.34 3.32 13.03
12/11/2020 6:30:00 PM 3.89 39.002 0.165 7.38 3.69 12.98
12/11/2020 6:45:00 PM 3.88 38.984 0.166 7.38 3.59 12.97
12/11/2020 7:00:00 PM 3.86 38.948 0.166 7.37 3.74 12.96
12/11/2020 7:15:00 PM 3.84 38.912 0.166 7.3 3.45 12.96
12/11/2020 7:30:00 PM 3.82 38.876 0.166 7.29 3.53 12.97
12/11/2020 7:45:00 PM 3.8 38.84 0.166 7.29 3.47 12.97
12/11/2020 8:00:00 PM 3.77 38.786 0.166 7.3 3.43 13
12/11/2020 8:15:00 PM 3.74 38.732 0.166 7.27 4.21 13
12/11/2020 8:30:00 PM 3.7 38.66 0.166 7.31 3.52 13.01
12/11/2020 8:45:00 PM 3.67 38.606 0.166 7.34 3.57 13.03
12/11/2020 9:00:00 PM 3.66 38.588 0.166 7.33 3.49 13
12/11/2020 9:15:00 PM 3.64 38.552 0.166 7.27 3.48 13.03
12/11/2020 9:30:00 PM 3.6 38.48 0.167 7.31 3.47 13.06
12/11/2020 9:45:00 PM 3.58 38.444 0.167 7.34 3.42 13.04
12/11/2020 10:00:00 PM 3.57 38.426 0.167 7.32 3.34 13.06
12/11/2020 10:15:00 PM 3.56 38.408 0.167 7.3 3.36 13.05
12/11/2020 10:30:00 PM 3.55 38.39 0.167 7.31 3.49 13.08
12/11/2020 10:45:00 PM 3.54 38.372 0.167 7.29 3.47 13.07
12/11/2020 11:00:00 PM 3.52 38.336 0.167 7.27 3.44 13.08
12/11/2020 11:15:00 PM 3.51 38.318 0.167 7.33 3.42 13.08
12/11/2020 11:30:00 PM 3.49 38.282 0.167 7.27 3.43 13.09
12/11/2020 11:45:00 PM 3.46 38.228 0.167 7.27 3.49 13.09
12/12/2020 12:00:00 AM 3.43 38.174 0.167 7.32 3.38 13.1
12/12/2020 12:15:00 AM 3.41 38.138 0.167 7.28 3.38 13.11
12/12/2020 12:30:00 AM 3.39 38.102 0.167 7.29 3.71 13.11
12/12/2020 12:45:00 AM 3.37 38.066 0.167 7.26 3.49 13.12
12/12/2020 1:00:00 AM 3.35 38.03 0.167 7.32 3.46 13.11
12/12/2020 1:15:00 AM 3.33 37.994 0.167 7.33 3.64 13.13
12/12/2020 1:30:00 AM 3.3 37.94 0.168 7.27 3.35 13.17
12/12/2020 1:45:00 AM 3.27 37.886 0.167 7.32 3.52 13.15
12/12/2020 2:00:00 AM 3.25 37.85 0.167 7.31 3.42 13.15
12/12/2020 2:15:00 AM 3.23 37.814 0.167 7.33 3.4 13.2
12/12/2020 2:30:00 AM 3.22 37.796 0.167 7.3 3.45 13.19
12/12/2020 2:45:00 AM 3.22 37.796 0.168 7.27 3.42 13.2
12/12/2020 3:00:00 AM 3.21 37.778 0.167 7.31 3.61 13.22
12/12/2020 3:15:00 AM 3.21 37.778 0.168 7.29 3.45 13.18
12/12/2020 3:30:00 AM 3.2 37.76 0.167 7.32 3.5 13.22
12/12/2020 3:45:00 AM 3.2 37.76 0.168 7.27 3.41 13.19
12/12/2020 4:00:00 AM 3.18 37.724 0.168 7.25 3.41 13.18
12/12/2020 4:15:00 AM 3.16 37.688 0.168 7.25 3.51 13.21
12/12/2020 4:30:00 AM 3.16 37.688 0.167 7.32 3.48 13.22
12/12/2020 4:45:00 AM 3.15 37.67 0.167 7.27 3.48 13.21
12/12/2020 5:00:00 AM 3.12 37.616 0.168 7.26 3.59 13.23
12/12/2020 5:15:00 AM 3.09 37.562 0.168 7.27 3.57 13.22
12/12/2020 5:30:00 AM 3.1 37.58 0.168 7.27 3.46 13.23
12/12/2020 5:45:00 AM 3.11 37.598 0.167 7.25 3.55 13.2
12/12/2020 6:00:00 AM 3.07 37.526 0.168 7.3 3.72 13.25
12/12/2020 6:15:00 AM 3.07 37.526 0.168 7.29 3.55 13.21
12/12/2020 6:30:00 AM 3.07 37.526 0.168 7.29 3.56 13.26
12/12/2020 6:45:00 AM 3.08 37.544 0.168 7.32 3.61 13.23
12/12/2020 7:00:00 AM 3.08 37.544 0.168 7.3 3.62 13.27
12/12/2020 7:15:00 AM 3.08 37.544 0.168 7.28 3.52 13.25
12/12/2020 7:30:00 AM 3.12 37.616 0.168 7.28 3.49 13.25
12/12/2020 7:45:00 AM 3.13 37.634 0.168 7.28 3.46 13.3
12/12/2020 8:00:00 AM 3.14 37.652 0.168 7.36 3.6 13.32
12/12/2020 8:15:00 AM 3.16 37.688 0.167 7.35 3.58 13.42
12/12/2020 8:30:00 AM 3.19 37.742 0.167 7.4 3.58 13.49
12/12/2020 8:45:00 AM 3.23 37.814 0.167 7.42 3.5 13.57
12/12/2020 9:00:00 AM 3.26 37.868 0.167 7.41 3.45 13.58
12/12/2020 9:15:00 AM 3.3 37.94 0.167 7.48 3.46 13.7
12/12/2020 9:30:00 AM 3.37 38.066 0.167 7.48 3.48 13.85
12/12/2020 9:45:00 AM 3.43 38.174 0.166 7.54 3.5 13.91
12/12/2020 10:00:00 AM 3.52 38.336 0.166 7.63 3.47 13.95
12/12/2020 10:15:00 AM 3.58 38.444 0.166 7.64 3.54 14.01
12/12/2020 10:30:00 AM 3.64 38.552 0.166 7.67 3.42 14.01
12/12/2020 10:45:00 AM 3.71 38.678 0.166 7.68 3.32 14.01
12/12/2020 11:00:00 AM 3.79 38.822 0.166 7.71 3.37 14.01
12/12/2020 11:15:00 AM 3.85 38.93 0.166 7.74 3.63 13.98
12/12/2020 11:30:00 AM 3.91 39.038 0.166 7.69 3.47 13.87
12/12/2020 11:45:00 AM 3.97 39.146 0.165 7.72 3.43 13.85
12/12/2020 12:00:00 PM 4.03 39.254 0.165 7.7 3.52 13.85
12/12/2020 12:15:00 PM 4.13 39.434 0.165 7.75 3.48 13.88
12/12/2020 12:30:00 PM 4.32 39.776 0.165 7.83 3.5 13.96
12/12/2020 12:45:00 PM 4.46 40.028 0.165 7.88 3.51 13.97
12/12/2020 1:00:00 PM 4.65 40.37 0.164 7.93 3.42 13.98
12/12/2020 1:15:00 PM 4.76 40.568 0.164 7.96 3.44 13.95
12/12/2020 1:30:00 PM 4.87 40.766 0.164 7.98 3.46 13.91
12/12/2020 1:45:00 PM 5.02 41.036 0.164 7.99 3.53 13.86
12/12/2020 2:00:00 PM 5.13 41.234 0.164 8.03 3.6 13.84
12/12/2020 2:15:00 PM 5.2 41.36 0.164 8.01 3.58 13.76
12/12/2020 2:30:00 PM 5.26 41.468 0.164 7.99 3.39 13.76
12/12/2020 2:45:00 PM 5.33 41.594 0.164 8.05 3.37 13.69
12/12/2020 3:00:00 PM 5.37 41.666 0.164 7.99 3.42 13.63
12/12/2020 3:15:00 PM 5.41 41.738 0.164 7.95 3.51 13.53
12/12/2020 3:30:00 PM 5.44 41.792 0.164 7.86 3.49 13.41
12/12/2020 3:45:00 PM 5.45 41.81 0.164 7.82 3.43 13.3
12/12/2020 4:00:00 PM 5.44 41.792 0.164 7.76 3.43 13.19
12/12/2020 4:15:00 PM 5.46 41.828 0.164 7.74 3.59 13.06
12/12/2020 4:30:00 PM 5.45 41.81 0.164 7.66 3.55 12.91
12/12/2020 4:45:00 PM 5.45 41.81 0.164 7.57 3.59 12.75
12/12/2020 5:00:00 PM 5.45 41.81 0.164 7.51 3.45 12.66
12/12/2020 5:15:00 PM 5.43 41.774 0.164 7.46 3.45 12.57
12/12/2020 5:30:00 PM 5.42 41.756 0.165 7.47 3.5 12.51
12/12/2020 5:45:00 PM 5.42 41.756 0.165 7.48 3.53 12.48
12/12/2020 6:00:00 PM 5.42 41.756 0.165 7.4 3.35 12.45
12/12/2020 6:15:00 PM 5.42 41.756 0.165 7.4 3.44 12.39
12/12/2020 6:30:00 PM 5.44 41.792 0.165 7.38 3.4 12.41
12/12/2020 6:45:00 PM 5.45 41.81 0.165 7.38 3.6 12.38
12/12/2020 7:00:00 PM 5.47 41.846 0.165 7.39 3.59 12.35
12/12/2020 7:15:00 PM 5.48 41.864 0.166 7.38 3.51 12.37
12/12/2020 7:30:00 PM 5.49 41.882 0.166 7.33 3.41 12.3
12/12/2020 7:45:00 PM 5.51 41.918 0.166 7.35 3.54 12.29
12/12/2020 8:00:00 PM 5.52 41.936 0.166 7.33 3.47 12.31
12/12/2020 8:15:00 PM 5.54 41.972 0.166 7.4 3.55 12.33
12/12/2020 8:30:00 PM 5.54 41.972 0.166 7.36 3.56 12.3
12/12/2020 8:45:00 PM 5.55 41.99 0.166 7.4 3.38 12.3
12/12/2020 9:00:00 PM 5.56 42.008 0.166 7.34 3.54 12.27
12/12/2020 9:15:00 PM 5.57 42.026 0.166 7.32 3.46 12.26
12/12/2020 9:30:00 PM 5.58 42.044 0.166 7.33 3.67 12.24
12/12/2020 9:45:00 PM 5.61 42.098 0.166 7.37 3.61 12.3
12/12/2020 10:00:00 PM 5.61 42.098 0.166 7.39 3.42 12.26
12/12/2020 10:15:00 PM 5.62 42.116 0.166 7.32 3.71 12.26
12/12/2020 10:30:00 PM 5.62 42.116 0.166 7.37 3.57 12.24
12/12/2020 10:45:00 PM 5.64 42.152 0.166 7.38 3.38 12.24
12/12/2020 11:00:00 PM 5.65 42.17 0.167 7.37 3.56 12.21
12/12/2020 11:15:00 PM 5.67 42.206 0.166 7.32 3.46 12.22
12/12/2020 11:30:00 PM 5.7 42.26 0.167 7.37 3.65 12.18
12/12/2020 11:45:00 PM 5.73 42.314 0.166 7.3 3.68 12.21
12/13/2020 12:00:00 AM 5.72 42.296 0.166 7.38 3.34 12.23
12/13/2020 12:15:00 AM 5.73 42.314 0.166 7.37 3.39 12.14
12/13/2020 12:30:00 AM 5.75 42.35 0.167 7.37 3.46 12.19
12/13/2020 12:45:00 AM 5.75 42.35 0.167 7.36 3.41 12.13
12/13/2020 1:00:00 AM 5.74 42.332 0.167 7.37 3.54 12.18
12/13/2020 1:15:00 AM 5.71 42.278 0.167 7.37 3.57 12.17
12/13/2020 1:30:00 AM 5.7 42.26 0.167 7.37 3.61 12.19
12/13/2020 1:45:00 AM 5.69 42.242 0.167 7.35 3.46 12.18
12/13/2020 2:00:00 AM 5.67 42.206 0.167 7.36 3.45 12.19
12/13/2020 2:15:00 AM 5.67 42.206 0.167 7.36 3.46 12.19
12/13/2020 2:30:00 AM 5.67 42.206 0.167 7.35 3.55 12.19
12/13/2020 2:45:00 AM 5.66 42.188 0.167 7.37 3.47 12.19
12/13/2020 3:00:00 AM 5.66 42.188 0.167 7.37 3.49 12.19
12/13/2020 3:15:00 AM 5.65 42.17 0.167 7.31 3.53 12.2
12/13/2020 3:30:00 AM 5.65 42.17 0.167 7.29 3.4 12.21
12/13/2020 3:45:00 AM 5.65 42.17 0.167 7.35 3.28 12.21
12/13/2020 4:00:00 AM 5.64 42.152 0.167 7.31 3.4 12.2
12/13/2020 4:15:00 AM 5.61 42.098 0.167 7.31 3.34 12.22
12/13/2020 4:30:00 AM 5.58 42.044 0.167 7.34 3.41 12.19
12/13/2020 4:45:00 AM 5.55 41.99 0.167 7.31 3.51 12.23
12/13/2020 5:00:00 AM 5.51 41.918 0.167 7.27 3.57 12.26
12/13/2020 5:15:00 AM 5.48 41.864 0.167 7.29 3.46 12.23
12/13/2020 5:30:00 AM 5.45 41.81 0.167 7.34 3.6 12.27
12/13/2020 5:45:00 AM 5.42 41.756 0.167 7.33 3.6 12.27
12/13/2020 6:00:00 AM 5.38 41.684 0.167 7.29 3.47 12.27
12/13/2020 6:15:00 AM 5.35 41.63 0.167 7.28 3.37 12.3
12/13/2020 6:30:00 AM 5.31 41.558 0.167 7.26 3.56 12.27
12/13/2020 6:45:00 AM 5.27 41.486 0.167 7.35 3.51 12.3
12/13/2020 7:00:00 AM 5.23 41.414 0.167 7.32 3.43 12.33
12/13/2020 7:15:00 AM 5.19 41.342 0.167 7.3 3.45 12.34
12/13/2020 7:30:00 AM 5.17 41.306 0.167 7.33 3.4 12.42
12/13/2020 7:45:00 AM 5.18 41.324 0.167 7.35 3.65 12.53
12/13/2020 8:00:00 AM 5.2 41.36 0.167 7.34 3.33 12.59
12/13/2020 8:15:00 AM 5.24 41.432 0.167 7.42 3.48 12.68
12/13/2020 8:30:00 AM 5.27 41.486 0.167 7.42 3.44 12.8
12/13/2020 8:45:00 AM 5.29 41.522 0.167 7.54 3.62 12.91
12/13/2020 9:00:00 AM 5.34 41.612 0.166 7.59 3.65 13.02
12/13/2020 9:15:00 AM 5.46 41.828 0.166 7.67 3.65 13.21
12/13/2020 9:30:00 AM 5.57 42.026 0.166 7.65 3.41 13.26
12/13/2020 9:45:00 AM 5.62 42.116 0.166 7.73 3.49 13.25
12/13/2020 10:00:00 AM 5.63 42.134 0.166 7.71 3.63 13.28
12/13/2020 10:15:00 AM 5.68 42.224 0.166 7.76 3.65 13.35
12/13/2020 10:30:00 AM 5.73 42.314 0.166 7.79 3.45 13.39
12/13/2020 10:45:00 AM 5.77 42.386 0.165 7.87 3.55 13.38
12/13/2020 11:00:00 AM 5.87 42.566 0.165 7.94 3.48 13.49
12/13/2020 11:15:00 AM 6.05 42.89 0.165 7.97 3.54 13.55
12/13/2020 11:30:00 AM 6.09 42.962 0.165 8.05 3.37 13.55
12/13/2020 11:45:00 AM 6.15 43.07 0.164 8.07 3.45 13.54
12/13/2020 12:00:00 PM 6.2 43.16 0.164 8.04 3.43 13.52
12/13/2020 12:15:00 PM 6.26 43.268 0.164 8.08 3.58 13.53
12/13/2020 12:30:00 PM 6.31 43.358 0.164 8.14 3.49 13.5
12/13/2020 12:45:00 PM 6.36 43.448 0.164 8.16 3.55 13.49
12/13/2020 1:00:00 PM 6.4 43.52 0.163 8.16 3.62 13.45
12/13/2020 1:15:00 PM 6.44 43.592 0.163 8.1 3.53 13.44
12/13/2020 1:30:00 PM 6.47 43.646 0.163 8.09 3.48 13.39
12/13/2020 1:45:00 PM 6.48 43.664 0.163 8.1 3.48 13.3
12/13/2020 2:00:00 PM 6.52 43.736 0.163 8.09 3.56 13.32
12/13/2020 2:15:00 PM 6.52 43.736 0.163 8.02 3.46 13.2
12/13/2020 2:30:00 PM 6.5 43.7 0.163 7.93 3.62 13.09
12/13/2020 2:45:00 PM 6.49 43.682 0.164 7.86 3.62 12.99
12/13/2020 3:00:00 PM 6.47 43.646 0.163 7.83 3.54 12.88
12/13/2020 3:15:00 PM 6.44 43.592 0.164 7.73 3.46 12.76
12/13/2020 3:30:00 PM 6.43 43.574 0.164 7.65 3.37 12.68
12/13/2020 3:45:00 PM 6.41 43.538 0.164 7.63 3.42 12.63
12/13/2020 4:00:00 PM 6.39 43.502 0.164 7.63 3.66 12.53
12/13/2020 4:15:00 PM 6.37 43.466 0.164 7.55 3.51 12.43
12/13/2020 4:30:00 PM 6.35 43.43 0.164 7.54 3.43 12.35
12/13/2020 4:45:00 PM 6.32 43.376 0.165 7.53 3.51 12.3
12/13/2020 5:00:00 PM 6.29 43.322 0.165 7.44 3.57 12.25
12/13/2020 5:15:00 PM 6.26 43.268 0.165 7.43 3.58 12.22
12/13/2020 5:30:00 PM 6.23 43.214 0.165 7.44 3.48 12.18
12/13/2020 5:45:00 PM 6.2 43.16 0.165 7.47 3.53 12.18
12/13/2020 6:00:00 PM 6.16 43.088 0.165 7.45 3.43 12.19
12/13/2020 6:15:00 PM 6.13 43.034 0.166 7.4 3.25 12.18
12/13/2020 6:30:00 PM 6.1 42.98 0.166 7.37 3.37 12.21
12/13/2020 6:45:00 PM 6.05 42.89 0.166 7.25 6.22 12.25
12/13/2020 7:00:00 PM 6.02 42.836 0.165 7.23 4.67 12.26
12/13/2020 7:15:00 PM 5.97 42.746 0.165 7.28 4.46 12.29
12/13/2020 7:30:00 PM 5.93 42.674 0.164 7.31 4.03 12.3
12/13/2020 7:45:00 PM 5.89 42.602 0.163 7.29 4.59 12.34
12/13/2020 8:00:00 PM 5.84 42.512 0.162 7.25 3.8 12.36
12/13/2020 8:15:00 PM 5.81 42.458 0.162 7.32 3.63 12.38
12/13/2020 8:30:00 PM 5.77 42.386 0.161 7.22 3.86 12.4
12/13/2020 8:45:00 PM 5.75 42.35 0.161 7.26 3.48 12.41
12/13/2020 9:00:00 PM 5.72 42.296 0.161 7.23 3.53 12.41
12/13/2020 9:15:00 PM 5.68 42.224 0.161 7.27 3.41 12.43
12/13/2020 9:30:00 PM 5.64 42.152 0.161 7.27 3.47 12.43
12/13/2020 9:45:00 PM 5.62 42.116 0.161 7.26 3.39 12.44
12/13/2020 10:00:00 PM 5.59 42.062 0.161 7.29 3.37 12.45
12/13/2020 10:15:00 PM 5.57 42.026 0.161 7.29 3.26 12.46
12/13/2020 10:30:00 PM 5.55 41.99 0.161 7.29 3.43 12.47
12/13/2020 10:45:00 PM 5.53 41.954 0.161 7.25 3.37 12.47
12/13/2020 11:00:00 PM 5.5 41.9 0.161 7.25 3.46 12.48
12/13/2020 11:15:00 PM 5.48 41.864 0.161 7.26 3.4 12.49
12/13/2020 11:30:00 PM 5.46 41.828 0.161 7.25 3.29 12.49
12/13/2020 11:45:00 PM 5.44 41.792 0.161 7.22 3.36 12.49
12/14/2020 12:00:00 AM 5.42 41.756 0.16 7.27 3.36 12.5
12/14/2020 12:15:00 AM 5.4 41.72 0.16 7.23 3.35 12.5
12/14/2020 12:30:00 AM 5.38 41.684 0.16 7.26 3.3 12.51
12/14/2020 12:45:00 AM 5.35 41.63 0.16 7.27 3.21 12.52
12/14/2020 1:00:00 AM 5.33 41.594 0.16 7.22 3.26 12.52
12/14/2020 1:15:00 AM 5.32 41.576 0.16 7.28 3.36 12.52
12/14/2020 1:30:00 AM 5.3 41.54 0.16 7.28 3.33 12.53
12/14/2020 1:45:00 AM 5.28 41.504 0.16 7.26 3.23 12.53
12/14/2020 2:00:00 AM 5.26 41.468 0.16 7.29 3.37 12.54
12/14/2020 2:15:00 AM 5.25 41.45 0.16 7.3 3.43 12.54
12/14/2020 2:30:00 AM 5.23 41.414 0.16 7.27 3.38 12.54
12/14/2020 2:45:00 AM 5.21 41.378 0.159 7.23 3.35 12.54
12/14/2020 3:00:00 AM 5.19 41.342 0.159 7.21 3.41 12.55
12/14/2020 3:15:00 AM 5.17 41.306 0.16 7.22 3.25 12.56
12/14/2020 3:30:00 AM 5.15 41.27 0.159 7.26 3.74 12.55
12/14/2020 3:45:00 AM 5.13 41.234 0.159 7.24 3.44 12.55
12/14/2020 4:00:00 AM 5.12 41.216 0.16 7.27 3.36 12.56
12/14/2020 4:15:00 AM 5.11 41.198 0.159 7.26 3.31 12.56
12/14/2020 4:30:00 AM 5.09 41.162 0.159 7.23 3.27 12.56
12/14/2020 4:45:00 AM 5.08 41.144 0.159 7.28 3.33 12.58
12/14/2020 5:00:00 AM 5.07 41.126 0.159 7.28 3.11 12.58
12/14/2020 5:15:00 AM 5.06 41.108 0.159 7.29 3.38 12.58
12/14/2020 5:30:00 AM 5.05 41.09 0.159 7.28 3.27 12.59
12/14/2020 5:45:00 AM 5.04 41.072 0.159 7.21 3.26 12.58
12/14/2020 6:00:00 AM 5.03 41.054 0.159 7.24 3.34 12.58
12/14/2020 6:15:00 AM 5.01 41.018 0.159 7.2 3.38 12.58
12/14/2020 6:30:00 AM 4.99 40.982 0.159 7.28 3.26 12.6
12/14/2020 6:45:00 AM 4.96 40.928 0.159 7.21 3.32 12.59
12/14/2020 7:00:00 AM 4.91 40.838 0.159 7.26 3.35 12.61
12/14/2020 7:15:00 AM 4.86 40.748 0.159 7.22 3.34 12.61
12/14/2020 7:30:00 AM 4.8 40.64 0.159 7.2 3.67 12.64
12/14/2020 7:45:00 AM 4.72 40.496 0.159 7.28 3.75 12.66
12/14/2020 8:00:00 AM 4.65 40.37 0.159 7.23 3.91 12.7
12/14/2020 8:15:00 AM 4.61 40.298 0.159 7.25 3.99 12.75
12/14/2020 8:30:00 AM 4.59 40.262 0.159 7.24 3.78 12.81
12/14/2020 8:45:00 AM 4.57 40.226 0.159 7.32 3.88 12.87
12/14/2020 9:00:00 AM 4.57 40.226 0.158 7.29 3.68 12.95
12/14/2020 9:15:00 AM 4.57 40.226 0.158 7.3 3.52 12.98
12/14/2020 9:30:00 AM 4.58 40.244 0.158 7.36 3.41 13.07
12/14/2020 9:45:00 AM 4.59 40.262 0.158 7.35 3.54 13.11
12/14/2020 10:00:00 AM 4.61 40.298 0.158 7.47 3.43 13.17
12/14/2020 10:15:00 AM 4.6 40.28 0.158 7.42 156.34 13.18
12/14/2020 10:30:00 AM 4.59 40.262 0.158 7.47 3.17 13.24
12/14/2020 10:45:00 AM 4.61 40.298 0.157 7.47 3.04 13.27
12/14/2020 11:00:00 AM 4.63 40.334 0.157 7.48 3 13.29
12/14/2020 11:15:00 AM 4.65 40.37 0.157 7.52 3.11 13.29
12/14/2020 11:30:00 AM 4.68 40.424 0.157 7.51 3.06 13.33
12/14/2020 11:45:00 AM 4.69 40.442 0.158 7.49 2.92 13.29
12/14/2020 12:00:00 PM 4.71 40.478 0.157 7.54 3.2 13.32
12/14/2020 12:15:00 PM 4.74 40.532 0.157 7.58 3.08 13.35
12/14/2020 12:30:00 PM 4.77 40.586 0.158 7.61 3.11 13.32
12/14/2020 12:45:00 PM 4.8 40.64 0.157 7.63 2.96 13.36
12/14/2020 1:00:00 PM 4.83 40.694 0.157 7.62 2.94 13.37
12/14/2020 1:15:00 PM 4.85 40.73 0.157 7.69 3.09 13.38
12/14/2020 1:30:00 PM 4.86 40.748 0.158 7.66 3.06 13.26
12/14/2020 1:45:00 PM 4.87 40.766 0.158 7.67 3.02 13.28
12/14/2020 2:00:00 PM 4.9 40.82 0.157 7.7 3.41 13.27
12/14/2020 2:15:00 PM 4.91 40.838 0.158 7.65 3.01 13.24
12/14/2020 2:30:00 PM 4.91 40.838 0.158 7.59 3.23 13.22
12/14/2020 2:45:00 PM 4.93 40.874 0.158 7.54 2.99 13.2
12/14/2020 3:00:00 PM 4.95 40.91 0.158 7.65 3.09 13.23
12/14/2020 3:15:00 PM 4.97 40.946 0.158 7.63 3.12 13.23
12/14/2020 3:30:00 PM 4.96 40.928 0.158 7.62 3.11 13.1
12/14/2020 3:45:00 PM 4.96 40.928 0.158 7.58 3.08 13.11
12/14/2020 4:00:00 PM 4.96 40.928 0.158 7.59 3.17 13.02
12/14/2020 4:15:00 PM 4.95 40.91 0.158 7.52 3.02 12.91
12/14/2020 4:30:00 PM 4.91 40.838 0.158 7.47 3.15 12.87
12/14/2020 4:45:00 PM 4.89 40.802 0.158 7.38 3.07 12.79
12/14/2020 5:00:00 PM 4.88 40.784 0.158 7.38 3.08 12.74
12/14/2020 5:15:00 PM 4.86 40.748 0.158 7.36 3.15 12.71
12/14/2020 5:30:00 PM 4.82 40.676 0.159 7.42 3.29 12.71
12/14/2020 5:45:00 PM 4.75 40.55 0.159 7.36 3.08 12.7
12/14/2020 6:00:00 PM 4.7 40.46 0.159 7.33 3.06 12.7
12/14/2020 6:15:00 PM 4.66 40.388 0.158 7.27 3.07 12.7
12/14/2020 6:30:00 PM 4.62 40.316 0.159 7.31 3.06 12.71
12/14/2020 6:45:00 PM 4.56 40.208 0.159 7.35 3.11 12.73
12/14/2020 7:00:00 PM 4.51 40.118 0.16 7.33 3.09 12.73
12/14/2020 7:15:00 PM 4.5 40.1 0.16 7.32 3.12 12.74
12/14/2020 7:30:00 PM 4.43 39.974 0.16 7.34 2.99 12.77
12/14/2020 7:45:00 PM 4.41 39.938 0.16 7.34 3.14 12.78
12/14/2020 8:00:00 PM 4.35 39.83 0.16 7.36 3.11 12.8
12/14/2020 8:15:00 PM 4.3 39.74 0.16 7.35 3.08 12.82
12/14/2020 8:30:00 PM 4.23 39.614 0.16 7.33 3.09 12.85
12/14/2020 8:45:00 PM 4.18 39.524 0.16 7.27 3.08 12.86
12/14/2020 9:00:00 PM 4.14 39.452 0.16 7.26 3.07 12.88
12/14/2020 9:15:00 PM 4.07 39.326 0.16 7.33 3.16 12.91
12/14/2020 9:30:00 PM 3.97 39.146 0.16 7.26 3.06 12.94
12/14/2020 9:45:00 PM 3.9 39.02 0.161 7.31 3.23 12.96
12/14/2020 10:00:00 PM 3.81 38.858 0.161 7.28 3.14 13
12/14/2020 10:15:00 PM 3.73 38.714 0.161 7.31 3.06 13.02
12/14/2020 10:30:00 PM 3.66 38.588 0.161 7.3 3.04 13.05
12/14/2020 10:45:00 PM 3.6 38.48 0.161 7.27 3.02 13.08
12/14/2020 11:00:00 PM 3.54 38.372 0.161 7.27 3.12 13.1
12/14/2020 11:15:00 PM 3.49 38.282 0.161 7.33 3.13 13.12
12/14/2020 11:30:00 PM 3.42 38.156 0.161 7.24 3.02 13.15
12/14/2020 11:45:00 PM 3.37 38.066 0.161 7.3 3.02 13.17
12/15/2020 12:00:00 AM 3.35 38.03 0.161 7.35 3.07 13.19
12/15/2020 12:15:00 AM 3.3 37.94 0.161 7.33 3.12 13.2
12/15/2020 12:30:00 AM 3.25 37.85 0.161 7.36 3.15 13.23
12/15/2020 12:45:00 AM 3.2 37.76 0.161 7.35 3.13 13.25
12/15/2020 1:00:00 AM 3.14 37.652 0.161 7.33 3.04 13.27
12/15/2020 1:15:00 AM 3.1 37.58 0.161 7.29 3.01 13.29
12/15/2020 1:30:00 AM 3.08 37.544 0.162 7.31 3.01 13.3
12/15/2020 1:45:00 AM 3.06 37.508 0.162 7.36 3.05 13.32
12/15/2020 2:00:00 AM 3.02 37.436 0.162 7.34 3.04 13.33
12/15/2020 2:15:00 AM 2.98 37.364 0.162 7.33 3.03 13.35
12/15/2020 2:30:00 AM 2.95 37.31 0.162 7.33 3.11 13.37
12/15/2020 2:45:00 AM 2.92 37.256 0.162 7.33 3.09 13.38
12/15/2020 3:00:00 AM 2.88 37.184 0.162 7.26 3.07 13.4
12/15/2020 3:15:00 AM 2.83 37.094 0.162 7.25 3.07 13.42
12/15/2020 3:30:00 AM 2.79 37.022 0.162 7.29 3.15 13.44
12/15/2020 3:45:00 AM 2.8 37.04 0.162 7.28 3.04 13.45
12/15/2020 4:00:00 AM 2.75 36.95 0.162 7.24 3.11 13.47
12/15/2020 4:15:00 AM 2.72 36.896 0.162 7.29 3.09 13.48
12/15/2020 4:30:00 AM 2.68 36.824 0.162 7.32 3.2 13.49
12/15/2020 4:45:00 AM 2.65 36.77 0.162 7.23 3.08 13.51
12/15/2020 5:00:00 AM 2.61 36.698 0.161 7.3 3.14 13.53
12/15/2020 5:15:00 AM 2.57 36.626 0.161 7.26 3.12 13.55
12/15/2020 5:30:00 AM 2.53 36.554 0.161 7.3 3.13 13.57
12/15/2020 5:45:00 AM 2.5 36.5 0.161 7.26 3.26 13.59
12/15/2020 6:00:00 AM 2.47 36.446 0.161 7.27 3.58 13.61
12/15/2020 6:15:00 AM 2.44 36.392 0.161 7.26 3.58 13.62
12/15/2020 6:30:00 AM 2.4 36.32 0.161 7.21 3.17 13.64
12/15/2020 6:45:00 AM 2.37 36.266 0.161 7.32 3.15 13.66
12/15/2020 7:00:00 AM 2.33 36.194 0.161 7.24 3.14 13.67
12/15/2020 7:15:00 AM 2.3 36.14 0.161 7.31 3.2 13.69
12/15/2020 7:30:00 AM 2.29 36.122 0.161 7.26 3.08 13.73
12/15/2020 7:45:00 AM 2.28 36.104 0.161 7.28 3.08 13.82
12/15/2020 8:00:00 AM 2.28 36.104 0.161 7.37 3.01 13.91
12/15/2020 8:15:00 AM 2.25 36.05 0.161 7.35 3.08 13.98
12/15/2020 8:30:00 AM 2.24 36.032 0.161 7.35 3.09 14.08
12/15/2020 8:45:00 AM 2.31 36.158 0.161 7.39 3.09 14.2
12/15/2020 9:00:00 AM 2.34 36.212 0.161 7.4 3.07 14.24
12/15/2020 9:15:00 AM 2.37 36.266 0.161 7.48 3.14 14.31
12/15/2020 9:30:00 AM 2.44 36.392 0.161 7.51 3.12 14.36
12/15/2020 9:45:00 AM 2.49 36.482 0.161 7.55 3.16 14.41
12/15/2020 10:00:00 AM 2.52 36.536 0.161 7.57 3.01 14.43
12/15/2020 10:15:00 AM 2.52 36.536 0.16 7.56 3.1 14.44
12/15/2020 10:30:00 AM 2.54 36.572 0.16 7.68 3.05 14.46
12/15/2020 10:45:00 AM 2.61 36.698 0.16 7.63 3.08 14.48
12/15/2020 11:00:00 AM 2.7 36.86 0.16 7.71 3.07 14.5
12/15/2020 11:15:00 AM 2.73 36.914 0.16 7.68 3.05 14.51
12/15/2020 11:30:00 AM 2.82 37.076 0.16 7.73 3.06 14.52
12/15/2020 11:45:00 AM 2.76 36.968 0.16 7.67 3.02 14.48
12/15/2020 12:00:00 PM 2.75 36.95 0.16 7.68 3.07 14.49
12/15/2020 12:15:00 PM 2.82 37.076 0.16 7.71 3.07 14.52
12/15/2020 12:30:00 PM 2.8 37.04 0.16 7.79 3.09 14.47
12/15/2020 12:45:00 PM 2.82 37.076 0.16 7.73 3.04 14.47
12/15/2020 1:00:00 PM 2.86 37.148 0.159 7.83 3.06 14.48
12/15/2020 1:15:00 PM 2.9 37.22 0.159 7.85 3.08 14.5
12/15/2020 1:30:00 PM 2.96 37.328 0.159 7.8 3.04 14.51
12/15/2020 1:45:00 PM 3.03 37.454 0.159 7.8 2.97 14.47
12/15/2020 2:00:00 PM 3.03 37.454 0.159 7.85 2.98 14.41
12/15/2020 2:15:00 PM 3.05 37.49 0.159 7.81 3.05 14.41
12/15/2020 2:30:00 PM 3.06 37.508 0.159 7.85 3.03 14.38
12/15/2020 2:45:00 PM 3.06 37.508 0.159 7.79 3.06 14.38
12/15/2020 3:00:00 PM 3.05 37.49 0.159 7.84 3.02 14.38
12/15/2020 3:15:00 PM 3.02 37.436 0.159 7.76 3.08 14.31
12/15/2020 3:30:00 PM 3.01 37.418 0.159 7.71 2.99 14.24
12/15/2020 3:45:00 PM 2.98 37.364 0.159 7.67 2.97 14.14
12/15/2020 4:00:00 PM 2.96 37.328 0.16 7.62 2.94 14.03
12/15/2020 4:15:00 PM 2.93 37.274 0.16 7.49 3.02 13.93
12/15/2020 4:30:00 PM 2.88 37.184 0.16 7.44 3.01 13.87
12/15/2020 4:45:00 PM 2.81 37.058 0.16 7.41 2.93 13.8
12/15/2020 5:00:00 PM 2.76 36.968 0.161 7.37 3.1 13.75
12/15/2020 5:15:00 PM 2.71 36.878 0.161 7.35 3.08 13.72
12/15/2020 5:30:00 PM 2.66 36.788 0.161 7.34 3.09 13.7
12/15/2020 5:45:00 PM 2.63 36.734 0.161 7.33 2.98 13.69
12/15/2020 6:00:00 PM 2.59 36.662 0.161 7.34 2.97 13.68
12/15/2020 6:15:00 PM 2.55 36.59 0.161 7.38 2.96 13.69
12/15/2020 6:30:00 PM 2.52 36.536 0.161 7.37 3.04 13.69
12/15/2020 6:45:00 PM 2.48 36.464 0.161 7.32 3.14 13.69
12/15/2020 7:00:00 PM 2.44 36.392 0.162 7.33 3.05 13.7
12/15/2020 7:15:00 PM 2.4 36.32 0.162 7.37 3.13 13.71
12/15/2020 7:30:00 PM 2.36 36.248 0.162 7.36 3.03 13.72
12/15/2020 7:45:00 PM 2.32 36.176 0.162 7.35 3.02 13.73
12/15/2020 8:00:00 PM 2.27 36.086 0.161 7.34 3.04 13.75
12/15/2020 8:15:00 PM 2.22 35.996 0.161 7.34 3.1 13.77
12/15/2020 8:30:00 PM 2.17 35.906 0.162 7.32 3.02 13.78
12/15/2020 8:45:00 PM 2.13 35.834 0.162 7.27 3.12 13.81
12/15/2020 9:00:00 PM 2.07 35.726 0.162 7.3 3 13.82
12/15/2020 9:15:00 PM 2.02 35.636 0.161 7.26 3.12 13.84
12/15/2020 9:30:00 PM 1.97 35.546 0.162 7.25 3.18 13.86
12/15/2020 9:45:00 PM 1.94 35.492 0.162 7.29 3.13 13.88
12/15/2020 10:00:00 PM 1.89 35.402 0.162 7.33 3.14 13.9
12/15/2020 10:15:00 PM 1.85 35.33 0.162 7.33 3.24 13.92
12/15/2020 10:30:00 PM 1.81 35.258 0.162 7.33 3.08 13.93
12/15/2020 10:45:00 PM 1.77 35.186 0.163 7.35 2.99 13.95
12/15/2020 11:00:00 PM 1.73 35.114 0.162 7.35 3.06 13.95
12/15/2020 11:15:00 PM 1.68 35.024 0.162 7.35 3.06 13.98
12/15/2020 11:30:00 PM 1.65 34.97 0.163 7.34 3.1 13.99
12/15/2020 11:45:00 PM 1.61 34.898 0.163 7.3 3.1 14
12/16/2020 12:00:00 AM 1.58 34.844 0.163 7.35 3.08 14.02
12/16/2020 12:15:00 AM 1.56 34.808 0.163 7.28 2.96 14.02
12/16/2020 12:30:00 AM 1.54 34.772 0.163 7.34 3.06 14.03
12/16/2020 12:45:00 AM 1.51 34.718 0.163 7.34 3.01 14.04
12/16/2020 1:00:00 AM 1.46 34.628 0.163 7.28 3.09 14.06
12/16/2020 1:15:00 AM 1.42 34.556 0.163 7.34 3.09 14.07
12/16/2020 1:30:00 AM 1.38 34.484 0.164 7.33 2.94 14.09
12/16/2020 1:45:00 AM 1.36 34.448 0.164 7.33 3.06 14.09
12/16/2020 2:00:00 AM 1.31 34.358 0.164 7.32 3.1 14.12
12/16/2020 2:15:00 AM 1.28 34.304 0.164 7.29 3.03 14.12
12/16/2020 2:30:00 AM 1.23 34.214 0.164 7.35 3.14 14.13
12/16/2020 2:45:00 AM 1.18 34.124 0.164 7.32 3.01 14.15
12/16/2020 3:00:00 AM 1.14 34.052 0.164 7.35 3.14 14.17
12/16/2020 3:15:00 AM 1.15 34.07 0.164 7.28 3.27 14.16
12/16/2020 3:30:00 AM 1.16 34.088 0.164 7.35 3.04 14.16
12/16/2020 3:45:00 AM 1.13 34.034 0.165 7.31 3.09 14.14
12/16/2020 4:00:00 AM 1.14 34.052 0.165 7.39 3.1 14.17
12/16/2020 4:15:00 AM 1.11 33.998 0.165 7.39 2.91 14.17
12/16/2020 4:30:00 AM 1.07 33.926 0.165 7.33 3.03 14.18
12/16/2020 4:45:00 AM 1.04 33.872 0.165 7.39 3.03 14.2
12/16/2020 5:00:00 AM 1.01 33.818 0.165 7.31 3.06 14.19
12/16/2020 5:15:00 AM 1.01 33.818 0.165 7.35 3.15 14.2
12/16/2020 5:30:00 AM 0.99 33.782 0.165 7.38 2.93 14.21
12/16/2020 5:45:00 AM 0.99 33.782 0.165 7.37 2.99 14.2
12/16/2020 6:00:00 AM 0.99 33.782 0.165 7.37 3.1 14.21
12/16/2020 6:15:00 AM 1.01 33.818 0.165 7.3 3.07 14.2
12/16/2020 6:30:00 AM 0.97 33.746 0.165 7.38 3.16 14.22
12/16/2020 6:45:00 AM 0.98 33.764 0.165 7.31 3.03 14.22
12/16/2020 7:00:00 AM 0.97 33.746 0.165 7.28 3.06 14.21
12/16/2020 7:15:00 AM 0.98 33.764 0.165 7.38 3.1 14.21
12/16/2020 7:30:00 AM 0.97 33.746 0.165 7.3 3.17 14.24
12/16/2020 7:45:00 AM 0.97 33.746 0.166 7.31 3.08 14.29
12/16/2020 8:00:00 AM 0.98 33.764 0.165 7.42 3.07 14.37
12/16/2020 8:15:00 AM 0.99 33.782 0.165 7.36 3.07 14.47
12/16/2020 8:30:00 AM 1.03 33.854 0.165 7.46 3.05 14.56
12/16/2020 8:45:00 AM 1.05 33.89 0.165 7.48 3 14.52
12/16/2020 9:00:00 AM 1.07 33.926 0.165 7.43 3 14.59
12/16/2020 9:15:00 AM 1.09 33.962 0.165 7.51 2.95 14.66
12/16/2020 9:30:00 AM 1.11 33.998 0.165 7.46 2.95 14.69
12/16/2020 9:45:00 AM 1.14 34.052 0.165 7.54 3.04 14.74
12/16/2020 10:00:00 AM 1.18 34.124 0.165 7.52 3 14.79
12/16/2020 10:15:00 AM 1.23 34.214 0.165 7.57 3.01 14.9
12/16/2020 10:30:00 AM 1.28 34.304 0.165 7.63 3.04 14.91
12/16/2020 10:45:00 AM 1.33 34.394 0.165 7.62 2.93 14.94
12/16/2020 11:00:00 AM 1.33 34.394 0.165 7.61 3.06 14.88
12/16/2020 11:15:00 AM 1.36 34.448 0.165 7.67 3.04 14.87
12/16/2020 11:30:00 AM 1.37 34.466 0.165 7.6 2.99 14.83
12/16/2020 11:45:00 AM 1.38 34.484 0.165 7.59 3.35 14.82
12/16/2020 12:00:00 PM 1.41 34.538 0.164 7.6 3.03 14.83
12/16/2020 12:15:00 PM 1.42 34.556 0.164 7.66 3 14.78
12/16/2020 12:30:00 PM 1.45 34.61 0.164 7.68 3.14 14.8
12/16/2020 12:45:00 PM 1.44 34.592 0.164 7.63 3.12 14.81
12/16/2020 1:00:00 PM 1.45 34.61 0.164 7.71 3.06 14.82
12/16/2020 1:15:00 PM 1.51 34.718 0.164 7.67 3.08 14.84
12/16/2020 1:30:00 PM 1.51 34.718 0.164 7.71 2.94 14.77
12/16/2020 1:45:00 PM 1.5 34.7 0.164 7.65 3.03 14.67
12/16/2020 2:00:00 PM 1.49 34.682 0.164 7.66 2.99 14.62
12/16/2020 2:15:00 PM 1.47 34.646 0.164 7.58 3.03 14.61
12/16/2020 2:30:00 PM 1.46 34.628 0.164 7.57 3.08 14.57
12/16/2020 2:45:00 PM 1.43 34.574 0.164 7.61 3.02 14.54
12/16/2020 3:00:00 PM 1.36 34.448 0.164 7.55 3.03 14.49
12/16/2020 3:15:00 PM 1.29 34.322 0.164 7.52 3.04 14.46
12/16/2020 3:30:00 PM 1.27 34.286 0.164 7.56 3.06 14.42
12/16/2020 3:45:00 PM 1.23 34.214 0.164 7.53 3.08 14.35
12/16/2020 4:00:00 PM 1.17 34.106 0.164 7.52 2.97 14.33
12/16/2020 4:15:00 PM 0.99 33.782 0.164 7.45 3.07 14.28
12/16/2020 4:30:00 PM 0.85 33.53 0.164 7.42 3.16 14.28
12/16/2020 4:45:00 PM 0.72 33.296 0.163 7.46 3.05 14.29
12/16/2020 5:00:00 PM 0.65 33.17 0.163 7.46 3.03 14.28
12/16/2020 5:15:00 PM 0.53 32.954 0.163 7.44 3.16 14.3
12/16/2020 5:30:00 PM 0.39 32.702 0.163 7.43 3.16 14.34
12/16/2020 5:45:00 PM 0.21 32.378 0.162 7.42 3.22 14.39
12/16/2020 6:00:00 PM 0.14 32.252 0.163 7.41 3.07 14.43
12/16/2020 6:15:00 PM 0.07 32.126 0.162 7.41 3.49 14.44
12/16/2020 6:30:00 PM -0.03 31.946 0.162 7.34 3.73 14.5
12/16/2020 6:45:00 PM -0.03 31.946 0.162 7.36 3.6 14.52
12/16/2020 7:00:00 PM -0.03 31.946 0.162 7.41 3.69 14.53
12/16/2020 7:15:00 PM -0.02 31.964 0.162 7.34 3.7 14.55
12/16/2020 7:30:00 PM -0.01 31.982 0.162 7.34 3.57 14.49
12/16/2020 7:45:00 PM 0.03 32.054 0.162 7.32 3.64 14.47
12/16/2020 8:00:00 PM 0.04 32.072 0.162 7.38 3.58 14.46
12/16/2020 8:15:00 PM 0.06 32.108 0.162 7.32 3.47 14.36
12/16/2020 8:30:00 PM 0.05 32.09 0.162 7.37 3.63 14.36
12/16/2020 8:45:00 PM 0.07 32.126 0.162 7.29 3.32 14.35
12/16/2020 9:00:00 PM 0.08 32.144 0.162 7.36 3.57 14.31
12/16/2020 9:15:00 PM 0.09 32.162 0.162 7.26 3.42 14.29
12/16/2020 9:30:00 PM 0.07 32.126 0.162 7.35 3.53 14.24
12/16/2020 9:45:00 PM 0.1 32.18 0.162 7.3 3.38 14.24
12/16/2020 10:00:00 PM 0.11 32.198 0.163 7.24 3.31 14.2
12/16/2020 10:15:00 PM 0.12 32.216 0.162 7.33 3.31 14.22
12/16/2020 10:30:00 PM 0.12 32.216 0.163 7.25 3.42 14.18
12/16/2020 10:45:00 PM 0.13 32.234 0.163 7.26 3.24 14.13
12/16/2020 11:00:00 PM 0.16 32.288 0.163 7.22 3.17 14.07
12/16/2020 11:15:00 PM 0.15 32.27 0.163 7.19 3.2 14.08
12/16/2020 11:30:00 PM 0.13 32.234 0.163 7.3 3.1 13.98
12/16/2020 11:45:00 PM 0.12 32.216 0.164 7.2 3.11 13.96
12/17/2020 12:00:00 AM 0.13 32.234 0.164 7.3 3.12 13.95
12/17/2020 12:15:00 AM 0.14 32.252 0.164 7.21 3.09 13.91
12/17/2020 12:30:00 AM 0.13 32.234 0.164 7.2 3.15 13.88
12/17/2020 12:45:00 AM 0.14 32.252 0.164 7.18 3.07 13.8
12/17/2020 1:00:00 AM 0.16 32.288 0.164 7.28 3.13 13.8
12/17/2020 1:15:00 AM 0.17 32.306 0.165 7.21 3.07 13.79
12/17/2020 1:30:00 AM 0.18 32.324 0.165 7.17 3.09 13.76
12/17/2020 1:45:00 AM 0.17 32.306 0.165 7.27 3.14 13.78
12/17/2020 2:00:00 AM 0.16 32.288 0.166 7.18 3.12 13.62
12/17/2020 2:15:00 AM 0.15 32.27 0.166 7.27 3.09 13.78
12/17/2020 2:30:00 AM 0.17 32.306 0.166 7.26 3.08 13.71
12/17/2020 2:45:00 AM 0.16 32.288 0.166 7.17 3.02 13.62
12/17/2020 3:00:00 AM 0.16 32.288 0.167 7.15 3.02 13.65
12/17/2020 3:15:00 AM 0.15 32.27 0.168 7.24 3.13 13.67
12/17/2020 3:30:00 AM 0.13 32.234 0.168 7.18 3.09 13.78
12/17/2020 3:45:00 AM 0.13 32.234 0.17 7.25 3.06 13.61
12/17/2020 4:00:00 AM 0.12 32.216 0.17 7.25 3.13 13.68
12/17/2020 4:15:00 AM 0.12 32.216 0.171 7.24 3.13 13.6
12/17/2020 4:30:00 AM 0.13 32.234 0.171 7.23 3.03 13.53
12/17/2020 4:45:00 AM 0.14 32.252 0.171 7.23 3.09 13.46
12/17/2020 5:00:00 AM 0.16 32.288 0.171 7.22 3.09 13.42
12/17/2020 5:15:00 AM 0.17 32.306 0.171 7.14 3.11 13.43
12/17/2020 5:30:00 AM 0.23 32.414 0.171 7.14 3.06 13.3
12/17/2020 5:45:00 AM 0.27 32.486 0.172 7.23 3.18 13.53
12/17/2020 6:00:00 AM 0.33 32.594 0.172 7.23 3.1 13.66
12/17/2020 6:15:00 AM 0.3 32.54 0.173 7.24 3.09 13.67
12/17/2020 6:30:00 AM 0.26 32.468 0.173 7.24 3.14 13.7
12/17/2020 6:45:00 AM 0.27 32.486 0.173 7.24 3.13 13.73
12/17/2020 7:00:00 AM 0.24 32.432 0.173 7.23 3.16 13.74
12/17/2020 7:15:00 AM 0.25 32.45 0.173 7.15 3.2 13.74
12/17/2020 7:30:00 AM 0.22 32.396 0.173 7.13 3.14 13.8
12/17/2020 7:45:00 AM 0.24 32.432 0.174 7.14 3.29 13.81
12/17/2020 8:00:00 AM 0.22 32.396 0.174 7.23 3.16 13.81
12/17/2020 8:15:00 AM 0.25 32.45 0.174 7.15 3.17 13.83
12/17/2020 8:30:00 AM 0.25 32.45 0.174 7.24 3.14 13.89
12/17/2020 8:45:00 AM 0.27 32.486 0.175 7.25 3.14 13.98
12/17/2020 9:00:00 AM 0.28 32.504 0.174 7.26 3.14 14.08
12/17/2020 9:15:00 AM 0.32 32.576 0.174 7.28 3.16 14.13
12/17/2020 9:30:00 AM 0.28 32.504 0.174 7.23 3.14 14.21
12/17/2020 9:45:00 AM 0.24 32.432 0.173 7.22 3.18 14.33
12/17/2020 10:00:00 AM 0.24 32.432 0.173 7.3 3.18 14.41
12/17/2020 10:15:00 AM 0.23 32.414 0.173 7.29 3.16 14.48
12/17/2020 10:30:00 AM 0.23 32.414 0.172 7.22 3.25 14.47
12/17/2020 10:45:00 AM 0.23 32.414 0.171 7.26 3.24 14.57
12/17/2020 11:00:00 AM 0.24 32.432 0.17 7.36 3.32 14.59
12/17/2020 11:15:00 AM 0.23 32.414 0.169 7.31 3.25 14.71
12/17/2020 11:30:00 AM 0.22 32.396 0.169 7.41 3.14 14.76
12/17/2020 11:45:00 AM 0.22 32.396 0.168 7.35 3.22 14.79
12/17/2020 12:00:00 PM 0.23 32.414 0.167 7.42 3.27 14.81
12/17/2020 12:15:00 PM 0.22 32.396 0.166 7.35 3.15 14.85
12/17/2020 12:30:00 PM 0.23 32.414 0.166 7.36 3.22 14.82
12/17/2020 12:45:00 PM 0.22 32.396 0.165 7.37 3.25 14.89
12/17/2020 1:00:00 PM 0.22 32.396 0.165 7.46 3.26 14.94
12/17/2020 1:15:00 PM 0.23 32.414 0.164 7.47 3.26 14.95
12/17/2020 1:30:00 PM 0.2 32.36 0.164 7.41 3.18 14.96
12/17/2020 1:45:00 PM 0.19 32.342 0.163 7.46 3.22 14.98
12/17/2020 2:00:00 PM 0.18 32.324 0.163 7.44 3.23 14.96
12/17/2020 2:15:00 PM 0.19 32.342 0.162 7.43 3.12 14.95
12/17/2020 2:30:00 PM 0.19 32.342 0.162 7.45 3.2 14.97
12/17/2020 2:45:00 PM 0.19 32.342 0.162 7.48 3.17 14.99
12/17/2020 3:00:00 PM 0.2 32.36 0.162 7.49 3.19 14.97
12/17/2020 3:15:00 PM 0.22 32.396 0.162 7.48 3.22 14.94
12/17/2020 3:30:00 PM 0.16 32.288 0.162 7.48 3.36 14.93
12/17/2020 3:45:00 PM 0 32 0.163 7.43 10.01 14.81
12/17/2020 4:00:00 PM -0.01 31.982 0.16 7.38 7.51 14.72
12/17/2020 4:15:00 PM -0.03 31.946 0.157 7.26 6.29 14.75
12/17/2020 4:30:00 PM 0 32 0.157 7.32 4.92 14.66
12/17/2020 4:45:00 PM -0.03 31.946 0.157 7.22 5.27 14.6
12/17/2020 5:00:00 PM -0.04 31.928 0.157 7.3 4.98 14.63
12/17/2020 5:15:00 PM -0.04 31.928 0.157 7.19 5.02 14.65
12/17/2020 5:30:00 PM -0.04 31.928 0.157 7.28 4.92 14.64
12/17/2020 5:45:00 PM -0.04 31.928 0.156 7.19 4.79 14.63
12/17/2020 6:00:00 PM -0.05 31.91 0.157 7.18 4.5 14.62
12/17/2020 6:15:00 PM -0.05 31.91 0.156 7.27 4.57 14.62
12/17/2020 6:30:00 PM -0.05 31.91 0.156 7.27 4.41 14.63
12/17/2020 6:45:00 PM -0.05 31.91 0.156 7.24 4.28 14.63
12/17/2020 7:00:00 PM -0.04 31.928 0.146 7.24 4.2 14.62
12/17/2020 7:15:00 PM -0.04 31.928 0.155 7.25 4.33 14.61
12/17/2020 7:30:00 PM -0.02 31.964 0.155 7.22 4.38 14.58
12/17/2020 7:45:00 PM 0 32 0.155 7.19 4.11 14.55
12/17/2020 8:00:00 PM 0.01 32.018 0.154 7.23 3.94 14.55
12/17/2020 8:15:00 PM 0.02 32.036 0.154 7.22 4.1 14.54
12/17/2020 8:30:00 PM 0.02 32.036 0.154 7.22 4.08 14.54
12/17/2020 8:45:00 PM 0.03 32.054 0.154 7.21 4.03 14.53
12/17/2020 9:00:00 PM 0.01 32.018 0.144 7.21 4.05 14.53
12/17/2020 9:15:00 PM -0.01 31.982 0.153 7.22 4.71 14.61
12/17/2020 9:30:00 PM -0.02 31.964 0.143 7.22 4.67 14.63
12/17/2020 9:45:00 PM -0.02 31.964 0.143 7.22 4.81 14.62
12/17/2020 10:00:00 PM -0.03 31.946 0.143 7.22 5.04 14.65
12/17/2020 10:15:00 PM -0.04 31.928 0.142 7.22 5.28 14.66
12/17/2020 10:30:00 PM -0.02 31.964 0.143 7.19 4.12 14.64
12/17/2020 10:45:00 PM -0.03 31.946 0.142 7.14 4.34 14.64
12/17/2020 11:00:00 PM -0.05 31.91 0.142 7.2 4.42 14.67
12/17/2020 11:15:00 PM -0.05 31.91 0.141 7.22 4.66 14.67
12/17/2020 11:30:00 PM -0.04 31.928 0.141 7.21 4.55 14.67
12/17/2020 11:45:00 PM -0.05 31.91 0.141 7.13 4.99 14.68
12/18/2020 12:00:00 AM -0.05 31.91 0.141 7.12 4.67 14.68
12/18/2020 12:15:00 AM -0.05 31.91 0.141 7.1 4.55 14.68
12/18/2020 12:30:00 AM -0.03 31.946 0.141 7.21 4.23 14.66
12/18/2020 12:45:00 AM -0.03 31.946 0.14 7.17 4.38 14.67
12/18/2020 1:00:00 AM -0.03 31.946 0.14 7.22 4.6 14.67
12/18/2020 1:15:00 AM -0.03 31.946 0.14 7.13 4.78 14.66
12/18/2020 1:30:00 AM -0.03 31.946 0.14 7.22 4.51 14.67
12/18/2020 1:45:00 AM -0.03 31.946 0.14 7.2 4.62 14.67
12/18/2020 2:00:00 AM -0.03 31.946 0.14 7.21 4.86 14.68
12/18/2020 2:15:00 AM -0.03 31.946 0.139 7.17 4.77 14.68
12/18/2020 2:30:00 AM -0.03 31.946 0.14 7.21 4.68 14.68
12/18/2020 2:45:00 AM -0.03 31.946 0.139 7.19 4.71 14.69
12/18/2020 3:00:00 AM -0.03 31.946 0.139 7.16 4.92 14.71
12/18/2020 3:15:00 AM -0.03 31.946 0.139 7.21 5.19 14.71
12/18/2020 3:30:00 AM -0.04 31.928 0.139 7.14 6.42 14.72
12/18/2020 3:45:00 AM -0.04 31.928 0.139 7.19 6.21 14.73
12/18/2020 4:00:00 AM -0.04 31.928 0.138 7.13 5.29 14.73
12/18/2020 4:15:00 AM -0.03 31.946 0.138 7.22 5.07 14.72
12/18/2020 4:30:00 AM -0.03 31.946 0.138 7.14 4.89 14.7
12/18/2020 4:45:00 AM -0.03 31.946 0.138 7.19 5.13 14.71
12/18/2020 5:00:00 AM -0.04 31.928 0.138 7.12 4.87 14.73
12/18/2020 5:15:00 AM -0.04 31.928 0.138 7.1 4.79 14.73
12/18/2020 5:30:00 AM -0.04 31.928 0.138 7.13 4.79 14.72
12/18/2020 5:45:00 AM -0.04 31.928 0.138 7.14 4.85 14.73
12/18/2020 6:00:00 AM -0.04 31.928 0.138 7.23 4.93 14.73
12/18/2020 6:15:00 AM -0.03 31.946 0.138 7.22 5.3 14.71
12/18/2020 6:30:00 AM -0.03 31.946 0.138 7.21 6.33 14.73
12/18/2020 6:45:00 AM -0.03 31.946 0.138 7.21 5.78 14.73
12/18/2020 7:00:00 AM -0.02 31.964 0.138 7.15 5.4 14.75
12/18/2020 7:15:00 AM -0.03 31.946 0.138 7.21 5.18 14.76
12/18/2020 7:30:00 AM -0.04 31.928 0.137 7.14 5.52 14.75
12/18/2020 7:45:00 AM -0.04 31.928 0.137 7.13 5.19 14.77
12/18/2020 8:00:00 AM -0.04 31.928 0.138 7.15 4.72 14.77
12/18/2020 8:15:00 AM -0.02 31.964 0.137 7.15 4.69 14.73
12/18/2020 8:30:00 AM -0.03 31.946 0.137 7.22 4.93 14.79
12/18/2020 8:45:00 AM -0.02 31.964 0.138 7.24 4.71 14.81
12/18/2020 9:00:00 AM -0.02 31.964 0.137 7.16 4.71 14.83
12/18/2020 9:15:00 AM -0.02 31.964 0.137 7.26 4.93 14.86
12/18/2020 9:30:00 AM -0.02 31.964 0.137 7.18 4.82 14.9
12/18/2020 9:45:00 AM -0.03 31.946 0.137 7.18 4.98 14.92
12/18/2020 10:00:00 AM -0.01 31.982 0.137 7.22 4.53 14.93
12/18/2020 10:15:00 AM -0.02 31.964 0.137 7.27 4.76 14.97
12/18/2020 10:30:00 AM -0.02 31.964 0.137 7.31 5.36 14.98
12/18/2020 10:45:00 AM -0.02 31.964 0.137 7.32 5.22 14.99
12/18/2020 11:00:00 AM -0.02 31.964 0.136 7.25 4.73 14.99
12/18/2020 11:15:00 AM -0.02 31.964 0.136 7.29 4.8 15
12/18/2020 11:30:00 AM -0.02 31.964 0.136 7.26 4.88 15.01
12/18/2020 11:45:00 AM -0.02 31.964 0.136 7.25 5.24 15.01
12/18/2020 12:00:00 PM -0.01 31.982 0.136 7.3 5.21 14.99
12/18/2020 12:15:00 PM -0.02 31.964 0.136 7.31 5.58 15
12/18/2020 12:30:00 PM -0.02 31.964 0.136 7.24 5.13 15
12/18/2020 12:45:00 PM -0.01 31.982 0.136 7.32 5.09 15
12/18/2020 1:00:00 PM -0.01 31.982 0.136 7.26 5.11 15
12/18/2020 1:15:00 PM -0.02 31.964 0.136 7.22 5.07 15
12/18/2020 1:30:00 PM -0.02 31.964 0.136 7.33 4.87 15
12/18/2020 1:45:00 PM -0.01 31.982 0.136 7.26 4.92 15
12/18/2020 2:00:00 PM -0.01 31.982 0.136 7.35 5.04 15
12/18/2020 2:15:00 PM -0.01 31.982 0.136 7.33 5.55 15.01
12/18/2020 2:30:00 PM -0.01 31.982 0.136 7.28 5.32 15
12/18/2020 2:45:00 PM -0.01 31.982 0.135 7.27 5.28 15
12/18/2020 3:00:00 PM -0.01 31.982 0.136 7.27 5.08 15
12/18/2020 3:15:00 PM -0.01 31.982 0.135 7.31 5.45 15
12/18/2020 3:30:00 PM -0.01 31.982 0.135 7.28 5.66 14.99
12/18/2020 3:45:00 PM -0.01 31.982 0.135 7.27 5.69 14.99
12/18/2020 4:00:00 PM -0.02 31.964 0.136 7.25 5.58 14.97
12/18/2020 4:15:00 PM -0.02 31.964 0.136 7.26 5.56 14.95
12/18/2020 4:30:00 PM -0.03 31.946 0.136 7.32 5.18 14.93
12/18/2020 4:45:00 PM -0.03 31.946 0.136 7.31 5.96 14.91
12/18/2020 5:00:00 PM -0.04 31.928 0.136 7.25 5.59 14.88
12/18/2020 5:15:00 PM -0.04 31.928 0.137 7.24 5.48 14.87
12/18/2020 5:30:00 PM -0.04 31.928 0.137 7.23 5.21 14.87
12/18/2020 5:45:00 PM -0.05 31.91 0.137 7.23 5.1 14.86
12/18/2020 6:00:00 PM -0.05 31.91 0.137 7.21 5.2 14.86
12/18/2020 6:15:00 PM -0.05 31.91 0.137 7.19 4.89 14.87
12/18/2020 6:30:00 PM -0.05 31.91 0.137 7.2 4.73 14.87
12/18/2020 6:45:00 PM -0.05 31.91 0.138 7.23 4.44 14.87
12/18/2020 7:00:00 PM -0.05 31.91 0.138 7.22 4.32 14.88
12/18/2020 7:15:00 PM -0.05 31.91 0.138 7.26 4.22 14.89
12/18/2020 7:30:00 PM -0.06 31.892 0.138 7.2 4.2 14.9
12/18/2020 7:45:00 PM -0.06 31.892 0.138 7.27 4.31 14.9
12/18/2020 8:00:00 PM -0.06 31.892 0.138 7.21 4.07 14.9
12/18/2020 8:15:00 PM -0.06 31.892 0.139 7.21 4.16 14.91
12/18/2020 8:30:00 PM -0.06 31.892 0.139 7.25 4.09 14.92
12/18/2020 8:45:00 PM -0.06 31.892 0.14 7.27 4.02 14.91
12/18/2020 9:00:00 PM -0.06 31.892 0.14 7.21 4.03 14.92
12/18/2020 9:15:00 PM -0.05 31.91 0.14 7.22 4.19 14.91
12/18/2020 9:30:00 PM -0.06 31.892 0.14 7.23 4.05 14.91
12/18/2020 9:45:00 PM -0.06 31.892 0.141 7.26 4.17 14.91
12/18/2020 10:00:00 PM -0.06 31.892 0.14 7.21 4.19 14.92
12/18/2020 10:15:00 PM -0.06 31.892 0.141 7.21 3.99 14.92
12/18/2020 10:30:00 PM -0.06 31.892 0.141 7.21 3.97 14.92
12/18/2020 10:45:00 PM -0.06 31.892 0.141 7.22 3.98 14.92
12/18/2020 11:00:00 PM -0.06 31.892 0.141 7.2 4.24 14.91
12/18/2020 11:15:00 PM -0.06 31.892 0.142 7.26 3.97 14.91
12/18/2020 11:30:00 PM -0.06 31.892 0.142 7.22 3.96 14.91
12/18/2020 11:45:00 PM -0.06 31.892 0.151 7.26 3.98 14.91
12/19/2020 12:00:00 AM -0.05 31.91 0.143 7.23 3.89 14.9
12/19/2020 12:15:00 AM -0.06 31.892 0.143 7.2 3.93 14.9
12/19/2020 12:30:00 AM -0.06 31.892 0.152 7.2 3.97 14.9
12/19/2020 12:45:00 AM -0.06 31.892 0.144 7.23 4.28 14.9
12/19/2020 1:00:00 AM -0.05 31.91 0.152 7.21 4.07 14.89
12/19/2020 1:15:00 AM -0.05 31.91 0.152 7.22 3.98 14.88
12/19/2020 1:30:00 AM -0.05 31.91 0.152 7.24 3.92 14.88
12/19/2020 1:45:00 AM -0.05 31.91 0.152 7.2 3.96 14.88
12/19/2020 2:00:00 AM -0.05 31.91 0.153 7.18 3.95 14.88
12/19/2020 2:15:00 AM -0.05 31.91 0.153 7.22 3.95 14.87
12/19/2020 2:30:00 AM -0.05 31.91 0.153 7.19 4.01 14.87
12/19/2020 2:45:00 AM -0.05 31.91 0.153 7.18 3.91 14.87
12/19/2020 3:00:00 AM -0.05 31.91 0.153 7.17 3.86 14.88
12/19/2020 3:15:00 AM -0.05 31.91 0.153 7.2 3.97 14.87
12/19/2020 3:30:00 AM -0.05 31.91 0.154 7.24 3.88 14.87
12/19/2020 3:45:00 AM -0.05 31.91 0.154 7.17 3.94 14.87
12/19/2020 4:00:00 AM -0.05 31.91 0.145 7.22 3.97 14.87
12/19/2020 4:15:00 AM -0.05 31.91 0.145 7.19 3.89 14.86
12/19/2020 4:30:00 AM -0.05 31.91 0.154 7.17 3.87 14.86
12/19/2020 4:45:00 AM -0.05 31.91 0.146 7.17 3.84 14.86
12/19/2020 5:00:00 AM -0.05 31.91 0.155 7.18 3.91 14.86
12/19/2020 5:15:00 AM -0.05 31.91 0.155 7.18 3.82 14.84
12/19/2020 5:30:00 AM -0.05 31.91 0.156 7.18 3.76 14.85
12/19/2020 5:45:00 AM -0.04 31.928 0.146 7.21 3.88 14.85
12/19/2020 6:00:00 AM -0.04 31.928 0.156 7.2 3.75 14.85
12/19/2020 6:15:00 AM -0.04 31.928 0.156 7.2 3.9 14.84
12/19/2020 6:30:00 AM -0.05 31.91 0.156 7.23 3.79 14.84
12/19/2020 6:45:00 AM -0.04 31.928 0.156 7.17 3.76 14.83
12/19/2020 7:00:00 AM -0.05 31.91 0.156 7.23 3.78 14.83
12/19/2020 7:15:00 AM -0.05 31.91 0.156 7.18 3.74 14.83
12/19/2020 7:30:00 AM -0.04 31.928 0.156 7.23 3.77 14.82
12/19/2020 7:45:00 AM -0.04 31.928 0.156 7.19 3.83 14.83
12/19/2020 8:00:00 AM -0.04 31.928 0.156 7.24 3.67 14.84
12/19/2020 8:15:00 AM -0.04 31.928 0.157 7.24 3.72 14.86
12/19/2020 8:30:00 AM -0.04 31.928 0.148 7.18 3.75 14.9
12/19/2020 8:45:00 AM -0.04 31.928 0.157 7.21 4.3 14.92
12/19/2020 9:00:00 AM -0.03 31.946 0.157 7.26 4.62 14.95
12/19/2020 9:15:00 AM -0.03 31.946 0.157 7.22 3.75 14.98
12/19/2020 9:30:00 AM -0.02 31.964 0.156 7.22 3.96 15.01
12/19/2020 9:45:00 AM -0.01 31.982 0.157 7.23 3.88 15.03
12/19/2020 10:00:00 AM -0.01 31.982 0.156 7.25 3.92 15.05
12/19/2020 10:15:00 AM 0 32 0.156 7.26 3.91 15.06
12/19/2020 10:30:00 AM 0 32 0.156 7.31 3.86 15.08
12/19/2020 10:45:00 AM 0 32 0.156 7.3 4.16 15.09
12/19/2020 11:00:00 AM 0 32 0.156 7.25 4.04 15.09
12/19/2020 11:15:00 AM 0.02 32.036 0.156 7.3 3.81 15.09
12/19/2020 11:30:00 AM 0.01 32.018 0.155 7.3 3.97 15.12
12/19/2020 11:45:00 AM 0.02 32.036 0.155 7.25 3.74 15.12
12/19/2020 12:00:00 PM 0.02 32.036 0.155 7.33 3.9 15.14
12/19/2020 12:15:00 PM 0.02 32.036 0.146 7.27 3.86 15.14
12/19/2020 12:30:00 PM 0.02 32.036 0.154 7.33 3.91 15.14
12/19/2020 12:45:00 PM 0.01 32.018 0.146 7.3 4.07 15.14
12/19/2020 1:00:00 PM 0.01 32.018 0.154 7.3 3.99 15.14
12/19/2020 1:15:00 PM 0.01 32.018 0.145 7.31 3.96 15.13
12/19/2020 1:30:00 PM 0 32 0.153 7.33 4.11 15.12
12/19/2020 1:45:00 PM 0 32 0.144 7.3 4.51 15.12
12/19/2020 2:00:00 PM 0.01 32.018 0.153 7.33 4.02 15.11
12/19/2020 2:15:00 PM 0.01 32.018 0.153 7.35 3.9 15.11
12/19/2020 2:30:00 PM 0.01 32.018 0.144 7.31 4.05 15.1
12/19/2020 2:45:00 PM 0 32 0.144 7.31 4.16 15.08
12/19/2020 3:00:00 PM 0 32 0.143 7.28 4.1 15.08
12/19/2020 3:15:00 PM 0 32 0.152 7.36 4.07 15.07
12/19/2020 3:30:00 PM -0.01 31.982 0.143 7.34 4.09 15.05
12/19/2020 3:45:00 PM -0.01 31.982 0.152 7.35 4.05 15.03
12/19/2020 4:00:00 PM -0.01 31.982 0.143 7.28 4.18 15.02
12/19/2020 4:15:00 PM -0.01 31.982 0.152 7.31 3.88 14.99
12/19/2020 4:30:00 PM -0.01 31.982 0.152 7.26 3.95 14.94
12/19/2020 4:45:00 PM -0.02 31.964 0.152 7.32 3.91 14.92
12/19/2020 5:00:00 PM -0.02 31.964 0.152 7.25 4.02 14.89
12/19/2020 5:15:00 PM -0.02 31.964 0.152 7.23 3.88 14.86
12/19/2020 5:30:00 PM -0.02 31.964 0.144 7.21 4.05 14.85
12/19/2020 5:45:00 PM -0.02 31.964 0.144 7.21 4.04 14.83
12/19/2020 6:00:00 PM -0.03 31.946 0.145 7.21 3.95 14.82
12/19/2020 6:15:00 PM -0.03 31.946 0.153 7.23 4.07 14.81
12/19/2020 6:30:00 PM -0.02 31.964 0.144 7.23 4.03 14.8
12/19/2020 6:45:00 PM -0.02 31.964 0.153 7.22 4.04 14.79
12/19/2020 7:00:00 PM -0.02 31.964 0.153 7.28 3.87 14.78
12/19/2020 7:15:00 PM -0.02 31.964 0.153 7.21 3.84 14.78
12/19/2020 7:30:00 PM -0.01 31.982 0.153 7.27 3.87 14.77
12/19/2020 7:45:00 PM -0.02 31.964 0.154 7.27 3.92 14.76
12/19/2020 8:00:00 PM -0.02 31.964 0.154 7.27 3.95 14.76
12/19/2020 8:15:00 PM -0.02 31.964 0.154 7.28 4.06 14.76
12/19/2020 8:30:00 PM -0.02 31.964 0.154 7.27 3.94 14.75
12/19/2020 8:45:00 PM -0.02 31.964 0.154 7.27 3.94 14.75
12/19/2020 9:00:00 PM -0.02 31.964 0.154 7.27 4.09 14.75
12/19/2020 9:15:00 PM -0.02 31.964 0.154 7.23 4.08 14.75
12/19/2020 9:30:00 PM -0.02 31.964 0.154 7.2 4.06 14.74
12/19/2020 9:45:00 PM -0.02 31.964 0.145 7.22 3.88 14.75
12/19/2020 10:00:00 PM -0.02 31.964 0.145 7.19 3.95 14.74
12/19/2020 10:15:00 PM -0.02 31.964 0.145 7.19 3.95 14.74
12/19/2020 10:30:00 PM -0.02 31.964 0.145 7.23 4.14 14.74
12/19/2020 10:45:00 PM -0.02 31.964 0.154 7.2 3.96 14.74
12/19/2020 11:00:00 PM -0.01 31.982 0.145 7.19 4.01 14.74
12/19/2020 11:15:00 PM -0.01 31.982 0.145 7.19 3.9 14.73
12/19/2020 11:30:00 PM -0.01 31.982 0.145 7.2 3.85 14.73
12/19/2020 11:45:00 PM 0 32 0.145 7.2 4.23 14.72
12/20/2020 12:00:00 AM 0 32 0.154 7.2 4.04 14.72
12/20/2020 12:15:00 AM 0 32 0.145 7.18 4.14 14.72
12/20/2020 12:30:00 AM 0 32 0.154 7.2 4.01 14.71
12/20/2020 12:45:00 AM 0 32 0.154 7.22 4.09 14.71
12/20/2020 1:00:00 AM 0 32 0.146 7.19 4.11 14.69
12/20/2020 1:15:00 AM 0 32 0.154 7.27 4.21 14.69
12/20/2020 1:30:00 AM 0.01 32.018 0.145 7.2 4.15 14.68
12/20/2020 1:45:00 AM 0.01 32.018 0.154 7.27 4.2 14.68
12/20/2020 2:00:00 AM 0.01 32.018 0.145 7.23 4.1 14.68
12/20/2020 2:15:00 AM 0.02 32.036 0.145 7.2 4.33 14.66
12/20/2020 2:30:00 AM 0.02 32.036 0.154 7.19 4.02 14.67
12/20/2020 2:45:00 AM 0.02 32.036 0.154 7.27 4.11 14.67
12/20/2020 3:00:00 AM 0.02 32.036 0.145 7.2 4.43 14.66
12/20/2020 3:15:00 AM 0.03 32.054 0.145 7.2 4.31 14.66
12/20/2020 3:30:00 AM 0.03 32.054 0.144 7.21 4.3 14.66
12/20/2020 3:45:00 AM 0.03 32.054 0.153 7.27 4.48 14.65
12/20/2020 4:00:00 AM 0.03 32.054 0.144 7.2 4.52 14.65
12/20/2020 4:15:00 AM 0.03 32.054 0.145 7.21 4.54 14.64
12/20/2020 4:30:00 AM 0.04 32.072 0.153 7.19 4.47 14.64
12/20/2020 4:45:00 AM 0.04 32.072 0.144 7.19 4.36 14.63
12/20/2020 5:00:00 AM 0.05 32.09 0.144 7.27 4.35 14.62
12/20/2020 5:15:00 AM 0.06 32.108 0.144 7.21 4.28 14.63
12/20/2020 5:30:00 AM 0.06 32.108 0.153 7.21 4.23 14.62
12/20/2020 5:45:00 AM 0.07 32.126 0.144 7.21 4.03 14.62
12/20/2020 6:00:00 AM 0.08 32.144 0.144 7.2 4.1 14.62
12/20/2020 6:15:00 AM 0.08 32.144 0.153 7.27 4.01 14.61
12/20/2020 6:30:00 AM 0.09 32.162 0.153 7.24 4.07 14.6
12/20/2020 6:45:00 AM 0.1 32.18 0.144 7.2 4.1 14.6
12/20/2020 7:00:00 AM 0.11 32.198 0.153 7.29 3.99 14.6
12/20/2020 7:15:00 AM 0.11 32.198 0.153 7.29 3.98 14.59
12/20/2020 7:30:00 AM 0.12 32.216 0.153 7.22 4.04 14.59
12/20/2020 7:45:00 AM 0.12 32.216 0.153 7.21 4.05 14.59
12/20/2020 8:00:00 AM 0.13 32.234 0.153 7.27 4 14.6
12/20/2020 8:15:00 AM 0.14 32.252 0.153 7.29 3.95 14.6
12/20/2020 8:30:00 AM 0.15 32.27 0.153 7.24 3.94 14.61
12/20/2020 8:45:00 AM 0.16 32.288 0.144 7.26 3.86 14.64
12/20/2020 9:00:00 AM 0.18 32.324 0.153 7.33 3.91 14.67
12/20/2020 9:15:00 AM 0.2 32.36 0.153 7.27 3.83 14.7
12/20/2020 9:30:00 AM 0.2 32.36 0.152 7.34 3.94 14.72
12/20/2020 9:45:00 AM 0.21 32.378 0.152 7.3 3.79 14.73
12/20/2020 10:00:00 AM 0.23 32.414 0.152 7.31 3.89 14.73
12/20/2020 10:15:00 AM 0.23 32.414 0.143 7.35 3.91 14.74
12/20/2020 10:30:00 AM 0.24 32.432 0.152 7.32 3.89 14.74
12/20/2020 10:45:00 AM 0.26 32.468 0.152 7.38 3.87 14.74
12/20/2020 11:00:00 AM 0.27 32.486 0.143 7.33 4.01 14.75
12/20/2020 11:15:00 AM 0.29 32.522 0.152 7.37 4.06 14.74
12/20/2020 11:30:00 AM 0.32 32.576 0.151 7.39 4.05 14.74
12/20/2020 11:45:00 AM 0.34 32.612 0.144 7.37 4.02 14.74
12/20/2020 12:00:00 PM 0.36 32.648 0.151 7.41 3.85 14.7
12/20/2020 12:15:00 PM 0.38 32.684 0.151 7.37 3.93 14.69
12/20/2020 12:30:00 PM 0.4 32.72 0.142 7.39 3.91 14.68
12/20/2020 12:45:00 PM 0.44 32.792 0.151 7.35 3.83 14.66
12/20/2020 1:00:00 PM 0.47 32.846 0.151 7.42 3.83 14.65
12/20/2020 1:15:00 PM 0.5 32.9 0.151 7.4 3.82 14.65
12/20/2020 1:30:00 PM 0.54 32.972 0.151 7.36 3.81 14.62
12/20/2020 1:45:00 PM 0.56 33.008 0.151 7.41 3.95 14.59
12/20/2020 2:00:00 PM 0.55 32.99 0.142 7.35 3.91 14.57
12/20/2020 2:15:00 PM 0.57 33.026 0.151 7.41 3.84 14.56
12/20/2020 2:30:00 PM 0.6 33.08 0.151 7.38 3.76 14.57
12/20/2020 2:45:00 PM 0.62 33.116 0.143 7.4 3.81 14.55
12/20/2020 3:00:00 PM 0.64 33.152 0.151 7.35 3.8 14.53
12/20/2020 3:15:00 PM 0.66 33.188 0.151 7.41 3.84 14.5
12/20/2020 3:30:00 PM 0.66 33.188 0.142 7.35 3.88 14.48
12/20/2020 3:45:00 PM 0.67 33.206 0.151 7.32 3.83 14.46
12/20/2020 4:00:00 PM 0.68 33.224 0.151 7.39 3.78 14.44
12/20/2020 4:15:00 PM 0.69 33.242 0.151 7.32 3.76 14.4
12/20/2020 4:30:00 PM 0.69 33.242 0.151 7.3 3.96 14.38
12/20/2020 4:45:00 PM 0.68 33.224 0.151 7.31 3.93 14.33
12/20/2020 5:00:00 PM 0.68 33.224 0.142 7.31 3.74 14.32
12/20/2020 5:15:00 PM 0.7 33.26 0.151 7.36 3.88 14.3
12/20/2020 5:30:00 PM 0.71 33.278 0.151 7.28 3.84 14.28
12/20/2020 5:45:00 PM 0.72 33.296 0.151 7.28 3.84 14.27
12/20/2020 6:00:00 PM 0.73 33.314 0.151 7.34 3.84 14.26
12/20/2020 6:15:00 PM 0.74 33.332 0.142 7.29 3.86 14.25
12/20/2020 6:30:00 PM 0.74 33.332 0.151 7.34 3.8 14.24
12/20/2020 6:45:00 PM 0.75 33.35 0.151 7.27 3.77 14.23
12/20/2020 7:00:00 PM 0.76 33.368 0.151 7.25 3.74 14.23
12/20/2020 7:15:00 PM 0.77 33.386 0.151 7.25 3.81 14.22
12/20/2020 7:30:00 PM 0.78 33.404 0.152 7.24 3.73 14.22
12/20/2020 7:45:00 PM 0.78 33.404 0.151 7.25 3.81 14.21
12/20/2020 8:00:00 PM 0.78 33.404 0.152 7.3 3.73 14.21
12/20/2020 8:15:00 PM 0.79 33.422 0.151 7.32 3.77 14.21
12/20/2020 8:30:00 PM 0.8 33.44 0.151 7.25 3.91 14.2
12/20/2020 8:45:00 PM 0.8 33.44 0.152 7.26 3.86 14.2
12/20/2020 9:00:00 PM 0.79 33.422 0.151 7.25 3.86 14.2
12/20/2020 9:15:00 PM 0.79 33.422 0.151 7.26 3.88 14.19
12/20/2020 9:30:00 PM 0.81 33.458 0.152 7.29 3.82 14.19
12/20/2020 9:45:00 PM 0.83 33.494 0.152 7.31 3.83 14.19
12/20/2020 10:00:00 PM 0.84 33.512 0.152 7.29 3.81 14.18
12/20/2020 10:15:00 PM 0.85 33.53 0.152 7.26 3.78 14.18
12/20/2020 10:30:00 PM 0.86 33.548 0.152 7.24 3.74 14.18
12/20/2020 10:45:00 PM 0.87 33.566 0.143 7.23 3.86 14.17
12/20/2020 11:00:00 PM 0.88 33.584 0.152 7.25 3.9 14.16
12/20/2020 11:15:00 PM 0.89 33.602 0.151 7.23 3.89 14.16
12/20/2020 11:30:00 PM 0.9 33.62 0.142 7.26 3.8 14.15
12/20/2020 11:45:00 PM 0.91 33.638 0.152 7.32 3.85 14.15
12/21/2020 12:00:00 AM 0.92 33.656 0.152 7.31 3.77 14.15
12/21/2020 12:15:00 AM 0.93 33.674 0.152 7.27 3.76 14.14
12/21/2020 12:30:00 AM 0.94 33.692 0.152 7.26 3.78 14.13
12/21/2020 12:45:00 AM 0.95 33.71 0.152 7.31 3.79 14.13
12/21/2020 1:00:00 AM 0.96 33.728 0.143 7.26 4.04 14.12
12/21/2020 1:15:00 AM 0.94 33.692 0.152 7.25 3.76 14.12
12/21/2020 1:30:00 AM 0.95 33.71 0.152 7.31 3.87 14.12
12/21/2020 1:45:00 AM 0.96 33.728 0.152 7.3 3.67 14.11
12/21/2020 2:00:00 AM 0.96 33.728 0.152 7.3 3.73 14.11
12/21/2020 2:15:00 AM 0.98 33.764 0.152 7.28 3.86 14.11
12/21/2020 2:30:00 AM 0.99 33.782 0.152 7.26 3.75 14.1
12/21/2020 2:45:00 AM 0.99 33.782 0.151 7.27 3.8 14.1
12/21/2020 3:00:00 AM 0.99 33.782 0.152 7.31 3.88 14.1
12/21/2020 3:15:00 AM 1 33.8 0.152 7.25 3.7 14.1
12/21/2020 3:30:00 AM 1 33.8 0.152 7.3 3.82 14.09
12/21/2020 3:45:00 AM 0.99 33.782 0.152 7.25 3.78 14.1
12/21/2020 4:00:00 AM 1 33.8 0.152 7.3 3.8 14.1
12/21/2020 4:15:00 AM 0.99 33.782 0.152 7.29 3.81 14.09
12/21/2020 4:30:00 AM 0.99 33.782 0.152 7.24 3.72 14.1
12/21/2020 4:45:00 AM 0.99 33.782 0.152 7.25 3.9 14.09
12/21/2020 5:00:00 AM 0.99 33.782 0.152 7.3 3.75 14.09
12/21/2020 5:15:00 AM 0.97 33.746 0.152 7.26 3.74 14.09
12/21/2020 5:30:00 AM 0.94 33.692 0.144 7.24 3.82 14.1
12/21/2020 5:45:00 AM 0.92 33.656 0.152 7.23 3.76 14.11
12/21/2020 6:00:00 AM 0.89 33.602 0.152 7.23 3.76 14.12
12/21/2020 6:15:00 AM 0.86 33.548 0.152 7.23 3.77 14.13
12/21/2020 6:30:00 AM 0.84 33.512 0.143 7.22 3.83 14.15
12/21/2020 6:45:00 AM 0.84 33.512 0.152 7.3 3.76 14.15
12/21/2020 7:00:00 AM 0.84 33.512 0.152 7.24 3.76 14.15
12/21/2020 7:15:00 AM 0.84 33.512 0.143 7.22 3.62 14.16
12/21/2020 7:30:00 AM 0.84 33.512 0.152 7.24 3.99 14.17
12/21/2020 7:45:00 AM 0.84 33.512 0.152 7.24 3.88 14.18
12/21/2020 8:00:00 AM 0.83 33.494 0.152 7.31 3.77 14.22
12/21/2020 8:15:00 AM 0.83 33.494 0.152 7.26 3.77 14.25
12/21/2020 8:30:00 AM 0.83 33.494 0.152 7.32 3.8 14.3
12/21/2020 8:45:00 AM 0.83 33.494 0.152 7.27 3.72 14.34
12/21/2020 9:00:00 AM 0.85 33.53 0.152 7.3 3.77 14.38
12/21/2020 9:15:00 AM 0.87 33.566 0.152 7.31 3.67 14.41
12/21/2020 9:30:00 AM 0.91 33.638 0.152 7.3 3.68 14.44
12/21/2020 9:45:00 AM 0.99 33.782 0.152 7.31 3.71 14.46
12/21/2020 10:00:00 AM 1.04 33.872 0.152 7.4 3.79 14.49
12/21/2020 10:15:00 AM 1.07 33.926 0.152 7.41 3.71 14.49
12/21/2020 10:30:00 AM 1.11 33.998 0.151 7.41 3.78 14.49
12/21/2020 10:45:00 AM 1.16 34.088 0.151 7.43 3.81 14.5
12/21/2020 11:00:00 AM 1.22 34.196 0.151 7.41 3.79 14.49
12/21/2020 11:15:00 AM 1.27 34.286 0.151 7.4 3.78 14.48
12/21/2020 11:30:00 AM 1.33 34.394 0.151 7.46 3.76 14.47
12/21/2020 11:45:00 AM 1.4 34.52 0.151 7.41 3.73 14.45
12/21/2020 12:00:00 PM 1.46 34.628 0.151 7.4 3.74 14.42
12/21/2020 12:15:00 PM 1.52 34.736 0.151 7.4 3.8 14.39
12/21/2020 12:30:00 PM 1.56 34.808 0.15 7.41 3.77 14.37
12/21/2020 12:45:00 PM 1.59 34.862 0.15 7.46 3.72 14.33
12/21/2020 1:00:00 PM 1.58 34.844 0.15 7.44 3.76 14.3
12/21/2020 1:15:00 PM 1.62 34.916 0.15 7.4 3.81 14.28
12/21/2020 1:30:00 PM 1.66 34.988 0.15 7.43 3.86 14.26
12/21/2020 1:45:00 PM 1.7 35.06 0.15 7.4 3.76 14.24
12/21/2020 2:00:00 PM 1.72 35.096 0.15 7.43 3.8 14.22
12/21/2020 2:15:00 PM 1.75 35.15 0.15 7.43 3.85 14.2
12/21/2020 2:30:00 PM 1.79 35.222 0.151 7.44 3.8 14.17
12/21/2020 2:45:00 PM 1.82 35.276 0.151 7.49 3.76 14.15
12/21/2020 3:00:00 PM 1.83 35.294 0.151 7.47 3.78 14.13
12/21/2020 3:15:00 PM 1.83 35.294 0.151 7.48 3.76 14.09
12/21/2020 3:30:00 PM 1.84 35.312 0.151 7.41 3.71 14.05
12/21/2020 3:45:00 PM 1.86 35.348 0.151 7.4 3.68 14.03
12/21/2020 4:00:00 PM 1.87 35.366 0.151 7.39 3.73 13.99
12/21/2020 4:15:00 PM 1.86 35.348 0.151 7.36 3.76 13.93
12/21/2020 4:30:00 PM 1.83 35.294 0.151 7.34 3.75 13.89
12/21/2020 4:45:00 PM 1.84 35.312 0.151 7.33 3.75 13.84
12/21/2020 5:00:00 PM 1.84 35.312 0.151 7.35 3.78 13.8
12/21/2020 5:15:00 PM 1.83 35.294 0.151 7.31 3.85 13.77
12/21/2020 5:30:00 PM 1.83 35.294 0.151 7.34 3.76 13.75
12/21/2020 5:45:00 PM 1.81 35.258 0.152 7.33 3.75 13.74
12/21/2020 6:00:00 PM 1.8 35.24 0.152 7.37 3.77 13.73
12/21/2020 6:15:00 PM 1.78 35.204 0.152 7.29 3.84 13.72
12/21/2020 6:30:00 PM 1.77 35.186 0.151 7.27 3.78 13.72
12/21/2020 6:45:00 PM 1.75 35.15 0.152 7.35 3.75 13.72
12/21/2020 7:00:00 PM 1.74 35.132 0.152 7.28 3.85 13.73
12/21/2020 7:15:00 PM 1.75 35.15 0.152 7.34 3.76 13.73
12/21/2020 7:30:00 PM 1.75 35.15 0.152 7.34 3.75 13.73
12/21/2020 7:45:00 PM 1.74 35.132 0.152 7.34 3.75 13.73
12/21/2020 8:00:00 PM 1.73 35.114 0.152 7.34 3.7 13.73
12/21/2020 8:15:00 PM 1.71 35.078 0.152 7.33 3.74 13.73
12/21/2020 8:30:00 PM 1.71 35.078 0.152 7.28 3.73 13.74
12/21/2020 8:45:00 PM 1.71 35.078 0.152 7.27 3.76 13.74
12/21/2020 9:00:00 PM 1.71 35.078 0.152 7.29 3.76 13.74
12/21/2020 9:15:00 PM 1.71 35.078 0.152 7.27 3.68 13.74
12/21/2020 9:30:00 PM 1.71 35.078 0.152 7.31 3.8 13.74
12/21/2020 9:45:00 PM 1.71 35.078 0.152 7.32 3.73 13.74
12/21/2020 10:00:00 PM 1.71 35.078 0.152 7.32 3.72 13.74
12/21/2020 10:15:00 PM 1.71 35.078 0.152 7.32 3.79 13.74
12/21/2020 10:30:00 PM 1.71 35.078 0.152 7.32 3.76 13.74
12/21/2020 10:45:00 PM 1.69 35.042 0.152 7.32 3.79 13.74
12/21/2020 11:00:00 PM 1.69 35.042 0.152 7.32 3.79 13.74
12/21/2020 11:15:00 PM 1.7 35.06 0.152 7.32 3.78 13.74
12/21/2020 11:30:00 PM 1.7 35.06 0.152 7.32 3.86 13.74
12/21/2020 11:45:00 PM 1.7 35.06 0.152 7.32 3.84 13.74
12/22/2020 12:00:00 AM 1.69 35.042 0.152 7.32 3.74 13.74
12/22/2020 12:15:00 AM 1.7 35.06 0.152 7.31 3.69 13.74
12/22/2020 12:30:00 AM 1.71 35.078 0.152 7.32 3.76 13.74
12/22/2020 12:45:00 AM 1.71 35.078 0.152 7.31 3.77 13.74
12/22/2020 1:00:00 AM 1.71 35.078 0.153 7.32 3.85 13.73
12/22/2020 1:15:00 AM 1.72 35.096 0.152 7.32 3.87 13.73
12/22/2020 1:30:00 AM 1.72 35.096 0.152 7.32 3.77 13.73
12/22/2020 1:45:00 AM 1.72 35.096 0.152 7.28 3.75 13.73
12/22/2020 2:00:00 AM 1.71 35.078 0.152 7.31 3.74 13.74
12/22/2020 2:15:00 AM 1.69 35.042 0.152 7.31 3.75 13.73
12/22/2020 2:30:00 AM 1.7 35.06 0.152 7.31 3.92 13.74
12/22/2020 2:45:00 AM 1.7 35.06 0.152 7.31 3.78 13.74
12/22/2020 3:00:00 AM 1.68 35.024 0.152 7.3 3.84 13.74
12/22/2020 3:15:00 AM 1.66 34.988 0.152 7.31 3.82 13.75
12/22/2020 3:30:00 AM 1.64 34.952 0.153 7.31 3.76 13.75
12/22/2020 3:45:00 AM 1.62 34.916 0.152 7.31 3.75 13.76
12/22/2020 4:00:00 AM 1.61 34.898 0.153 7.3 3.8 13.76
12/22/2020 4:15:00 AM 1.6 34.88 0.153 7.3 3.9 13.77
12/22/2020 4:30:00 AM 1.6 34.88 0.153 7.31 3.79 13.77
12/22/2020 4:45:00 AM 1.61 34.898 0.153 7.31 3.73 13.78
12/22/2020 5:00:00 AM 1.61 34.898 0.153 7.31 3.74 13.78
12/22/2020 5:15:00 AM 1.62 34.916 0.153 7.31 3.78 13.78
12/22/2020 5:30:00 AM 1.63 34.934 0.153 7.31 3.62 13.78
12/22/2020 5:45:00 AM 1.62 34.916 0.153 7.31 3.8 13.78
12/22/2020 6:00:00 AM 1.63 34.934 0.153 7.31 3.67 13.79
12/22/2020 6:15:00 AM 1.63 34.934 0.153 7.31 3.86 13.79
12/22/2020 6:30:00 AM 1.63 34.934 0.153 7.31 3.81 13.78
12/22/2020 6:45:00 AM 1.63 34.934 0.153 7.31 3.73 13.79
12/22/2020 7:00:00 AM 1.63 34.934 0.153 7.31 3.73 13.8
12/22/2020 7:15:00 AM 1.64 34.952 0.153 7.31 3.75 13.79
12/22/2020 7:30:00 AM 1.64 34.952 0.153 7.31 3.8 13.79
12/22/2020 7:45:00 AM 1.64 34.952 0.152 7.23 3.91 13.82
12/22/2020 8:00:00 AM 1.63 34.934 0.153 7.31 3.73 13.84
12/22/2020 8:15:00 AM 1.64 34.952 0.153 7.33 3.69 13.89
12/22/2020 8:30:00 AM 1.67 35.006 0.152 7.34 3.73 13.94
12/22/2020 8:45:00 AM 1.7 35.06 0.153 7.35 3.68 13.99
12/22/2020 9:00:00 AM 1.72 35.096 0.152 7.37 3.88 14.01
12/22/2020 9:15:00 AM 1.74 35.132 0.152 7.37 4.06 14.02
12/22/2020 9:30:00 AM 1.78 35.204 0.152 7.38 3.7 14.04
12/22/2020 9:45:00 AM 1.82 35.276 0.152 7.33 3.78 14.08
12/22/2020 10:00:00 AM 1.85 35.33 0.152 7.36 3.82 14.11
12/22/2020 10:15:00 AM 1.9 35.42 0.152 7.35 3.72 14.12
12/22/2020 10:30:00 AM 1.94 35.492 0.152 7.44 3.65 14.14
12/22/2020 10:45:00 AM 2 35.6 0.152 7.45 3.87 14.15
12/22/2020 11:00:00 AM 2.07 35.726 0.152 7.47 3.76 14.17
12/22/2020 11:15:00 AM 2.15 35.87 0.152 7.42 3.72 14.19
12/22/2020 11:30:00 AM 2.25 36.05 0.151 7.49 3.71 14.2
12/22/2020 11:45:00 AM 2.33 36.194 0.151 7.45 3.76 14.18
12/22/2020 12:00:00 PM 2.37 36.266 0.151 7.52 4.56 14.16
12/22/2020 12:15:00 PM 2.41 36.338 0.151 7.47 3.69 14.15
12/22/2020 12:30:00 PM 2.42 36.356 0.151 7.52 3.86 14.12
12/22/2020 12:45:00 PM 2.42 36.356 0.151 7.51 3.85 14.1
12/22/2020 1:00:00 PM 2.45 36.41 0.151 7.52 3.6 14.1
12/22/2020 1:15:00 PM 2.47 36.446 0.151 7.52 67.06 14.07
12/22/2020 1:30:00 PM 2.48 36.464 0.151 7.52 5.17 14.04
12/22/2020 1:45:00 PM 2.48 36.464 0.151 7.46 4.42 14.02
12/22/2020 2:00:00 PM 2.51 36.518 0.151 7.53 3.87 14.03
12/22/2020 2:15:00 PM 2.53 36.554 0.151 7.53 3.76 14.03
12/22/2020 2:30:00 PM 2.55 36.59 0.151 7.53 3.8 14.02
12/22/2020 2:45:00 PM 2.56 36.608 0.151 7.47 4.02 14
12/22/2020 3:00:00 PM 2.57 36.626 0.151 7.53 3.72 14.01
12/22/2020 3:15:00 PM 2.58 36.644 0.151 7.47 3.75 14.01
12/22/2020 3:30:00 PM 2.58 36.644 0.151 7.52 3.86 13.96
12/22/2020 3:45:00 PM 2.56 36.608 0.151 7.45 3.72 13.94
12/22/2020 4:00:00 PM 2.55 36.59 0.151 7.5 3.72 13.92
12/22/2020 4:15:00 PM 2.53 36.554 0.151 7.43 3.82 13.88
12/22/2020 4:30:00 PM 2.51 36.518 0.151 7.39 3.73 13.84
12/22/2020 4:45:00 PM 2.49 36.482 0.151 7.45 3.9 13.8
12/22/2020 5:00:00 PM 2.47 36.446 0.151 7.43 3.7 13.76
12/22/2020 5:15:00 PM 2.46 36.428 0.151 7.41 4.01 13.73
12/22/2020 5:30:00 PM 2.44 36.392 0.151 7.34 4.09 13.71
12/22/2020 5:45:00 PM 2.42 36.356 0.152 7.4 3.69 13.7
12/22/2020 6:00:00 PM 2.41 36.338 0.152 7.33 3.8 13.69
12/22/2020 6:15:00 PM 2.4 36.32 0.152 7.39 3.68 13.68
12/22/2020 6:30:00 PM 2.38 36.284 0.152 7.38 3.83 13.69
12/22/2020 6:45:00 PM 2.36 36.248 0.152 7.31 3.73 13.69
12/22/2020 7:00:00 PM 2.34 36.212 0.152 7.37 3.77 13.7
12/22/2020 7:15:00 PM 2.32 36.176 0.152 7.37 3.76 13.7
12/22/2020 7:30:00 PM 2.31 36.158 0.152 7.37 3.77 13.71
12/22/2020 7:45:00 PM 2.29 36.122 0.152 7.3 3.74 13.72
12/22/2020 8:00:00 PM 2.28 36.104 0.152 7.31 3.68 13.72
12/22/2020 8:15:00 PM 2.27 36.086 0.152 7.3 3.71 13.73
12/22/2020 8:30:00 PM 2.26 36.068 0.152 7.29 3.65 13.74
12/22/2020 8:45:00 PM 2.26 36.068 0.152 7.36 3.78 13.74
12/22/2020 9:00:00 PM 2.25 36.05 0.152 7.35 3.71 13.74
12/22/2020 9:15:00 PM 2.24 36.032 0.152 7.36 3.79 13.75
12/22/2020 9:30:00 PM 2.24 36.032 0.152 7.36 3.75 13.75
12/22/2020 9:45:00 PM 2.23 36.014 0.153 7.36 3.72 13.77
12/22/2020 10:00:00 PM 2.21 35.978 0.152 7.31 3.77 13.77
12/22/2020 10:15:00 PM 2.2 35.96 0.153 7.34 3.77 13.78
12/22/2020 10:30:00 PM 2.18 35.924 0.153 7.36 3.65 13.79
12/22/2020 10:45:00 PM 2.16 35.888 0.153 7.31 3.71 13.8
12/22/2020 11:00:00 PM 2.15 35.87 0.153 7.36 3.68 13.81
12/22/2020 11:15:00 PM 2.13 35.834 0.153 7.3 3.66 13.82
12/22/2020 11:30:00 PM 2.12 35.816 0.153 7.36 3.69 13.82
12/22/2020 11:45:00 PM 2.11 35.798 0.153 7.31 3.7 13.83
12/23/2020 12:00:00 AM 2.1 35.78 0.153 7.31 3.61 13.83
12/23/2020 12:15:00 AM 2.09 35.762 0.153 7.35 3.68 13.83
12/23/2020 12:30:00 AM 2.08 35.744 0.153 7.32 3.62 13.84
12/23/2020 12:45:00 AM 2.05 35.69 0.153 7.35 3.66 13.85
12/23/2020 1:00:00 AM 2.05 35.69 0.153 7.29 3.74 13.84
12/23/2020 1:15:00 AM 2.04 35.672 0.153 7.34 3.67 13.86
12/23/2020 1:30:00 AM 2.03 35.654 0.153 7.35 3.69 13.86
12/23/2020 1:45:00 AM 2.03 35.654 0.153 7.35 3.67 13.87
12/23/2020 2:00:00 AM 2.01 35.618 0.153 7.35 3.99 13.87
12/23/2020 2:15:00 AM 2.01 35.618 0.153 7.34 3.73 13.87
12/23/2020 2:30:00 AM 2 35.6 0.153 7.34 3.59 13.88
12/23/2020 2:45:00 AM 1.99 35.582 0.153 7.34 3.82 13.89
12/23/2020 3:00:00 AM 1.99 35.582 0.153 7.34 3.79 13.9
12/23/2020 3:15:00 AM 1.99 35.582 0.153 7.35 3.68 13.9
12/23/2020 3:30:00 AM 1.99 35.582 0.153 7.34 3.71 13.9
12/23/2020 3:45:00 AM 1.98 35.564 0.153 7.34 3.78 13.9
12/23/2020 4:00:00 AM 1.98 35.564 0.153 7.34 3.61 13.91
12/23/2020 4:15:00 AM 1.98 35.564 0.153 7.33 3.69 13.91
12/23/2020 4:30:00 AM 1.98 35.564 0.153 7.3 3.55 13.91
12/23/2020 4:45:00 AM 1.97 35.546 0.153 7.28 3.68 13.91
12/23/2020 5:00:00 AM 1.97 35.546 0.153 7.28 3.69 13.91
12/23/2020 5:15:00 AM 1.96 35.528 0.153 7.33 3.57 13.92
12/23/2020 5:30:00 AM 1.95 35.51 0.153 7.33 3.67 13.93
12/23/2020 5:45:00 AM 1.92 35.456 0.153 7.33 3.69 13.93
12/23/2020 6:00:00 AM 1.89 35.402 0.154 7.28 3.76 13.94
12/23/2020 6:15:00 AM 1.85 35.33 0.153 7.32 3.67 13.96
12/23/2020 6:30:00 AM 1.82 35.276 0.153 7.31 3.67 13.97
12/23/2020 6:45:00 AM 1.77 35.186 0.153 7.31 3.64 13.98
12/23/2020 7:00:00 AM 1.72 35.096 0.153 7.29 3.64 14
12/23/2020 7:15:00 AM 1.68 35.024 0.154 7.33 3.61 14.02
12/23/2020 7:30:00 AM 1.63 34.934 0.154 7.33 3.61 14.04
12/23/2020 7:45:00 AM 1.59 34.862 0.154 7.28 3.74 14.08
12/23/2020 8:00:00 AM 1.56 34.808 0.154 7.3 3.65 14.13
12/23/2020 8:15:00 AM 1.56 34.808 0.154 7.3 3.71 14.21
12/23/2020 8:30:00 AM 1.57 34.826 0.154 7.38 3.73 14.28
12/23/2020 8:45:00 AM 1.58 34.844 0.154 7.34 3.69 14.33
12/23/2020 9:00:00 AM 1.57 34.826 0.154 7.41 3.59 14.37
12/23/2020 9:15:00 AM 1.59 34.862 0.154 7.41 3.7 14.42
12/23/2020 9:30:00 AM 1.63 34.934 0.154 7.4 3.73 14.45
12/23/2020 9:45:00 AM 1.71 35.078 0.154 7.43 3.68 14.49
12/23/2020 10:00:00 AM 1.8 35.24 0.153 7.46 3.65 14.51
12/23/2020 10:15:00 AM 1.87 35.366 0.153 7.44 3.68 14.53
12/23/2020 10:30:00 AM 1.93 35.474 0.153 7.45 3.64 14.53
12/23/2020 10:45:00 AM 1.99 35.582 0.153 7.49 3.65 14.54
12/23/2020 11:00:00 AM 2.08 35.744 0.153 7.46 3.75 14.55
12/23/2020 11:15:00 AM 2.14 35.852 0.153 7.52 3.73 14.53
12/23/2020 11:30:00 AM 2.19 35.942 0.153 7.49 3.69 14.53
12/23/2020 11:45:00 AM 2.24 36.032 0.153 7.54 3.61 14.53
12/23/2020 12:00:00 PM 2.28 36.104 0.153 7.5 3.6 14.51
12/23/2020 12:15:00 PM 2.33 36.194 0.153 7.54 3.61 14.49
12/23/2020 12:30:00 PM 2.37 36.266 0.152 7.55 3.74 14.48
12/23/2020 12:45:00 PM 2.4 36.32 0.152 7.55 3.87 14.46
12/23/2020 1:00:00 PM 2.42 36.356 0.152 7.57 3.65 14.45
12/23/2020 1:15:00 PM 2.44 36.392 0.152 7.56 3.74 14.43
12/23/2020 1:30:00 PM 2.46 36.428 0.152 7.58 4.16 14.39
12/23/2020 1:45:00 PM 2.47 36.446 0.152 7.53 3.85 14.36
12/23/2020 2:00:00 PM 2.5 36.5 0.152 7.57 3.82 14.34
12/23/2020 2:15:00 PM 2.53 36.554 0.152 7.54 3.91 14.31
12/23/2020 2:30:00 PM 2.56 36.608 0.152 7.57 3.64 14.3
12/23/2020 2:45:00 PM 2.59 36.662 0.152 7.57 3.66 14.26
12/23/2020 3:00:00 PM 2.6 36.68 0.152 7.55 3.76 14.21
12/23/2020 3:15:00 PM 2.62 36.716 0.152 7.56 3.71 14.18
12/23/2020 3:30:00 PM 2.65 36.77 0.152 7.51 3.65 14.15
12/23/2020 3:45:00 PM 2.68 36.824 0.152 7.52 3.61 14.11
12/23/2020 4:00:00 PM 2.68 36.824 0.152 7.5 3.64 14.07
12/23/2020 4:15:00 PM 2.68 36.824 0.153 7.49 3.75 14.02
12/23/2020 4:30:00 PM 2.68 36.824 0.152 7.5 3.58 13.94
12/23/2020 4:45:00 PM 2.68 36.824 0.153 7.47 3.76 13.88
12/23/2020 5:00:00 PM 2.67 36.806 0.153 7.42 3.7 13.81
12/23/2020 5:15:00 PM 2.67 36.806 0.153 7.44 3.7 13.76
12/23/2020 5:30:00 PM 2.67 36.806 0.153 7.4 3.74 13.73
12/23/2020 5:45:00 PM 2.65 36.77 0.153 7.39 3.69 13.7
12/23/2020 6:00:00 PM 2.64 36.752 0.153 7.41 3.64 13.69
12/23/2020 6:15:00 PM 2.61 36.698 0.154 7.37 3.7 13.67
12/23/2020 6:30:00 PM 2.59 36.662 0.154 7.35 3.66 13.66
12/23/2020 6:45:00 PM 2.57 36.626 0.154 7.39 3.74 13.67
12/23/2020 7:00:00 PM 2.55 36.59 0.154 7.34 3.61 13.67
12/23/2020 7:15:00 PM 2.52 36.536 0.154 7.38 3.59 13.67
12/23/2020 7:30:00 PM 2.5 36.5 0.154 7.38 3.67 13.68
12/23/2020 7:45:00 PM 2.48 36.464 0.154 7.37 3.63 13.68
12/23/2020 8:00:00 PM 2.46 36.428 0.154 7.33 3.64 13.68
12/23/2020 8:15:00 PM 2.44 36.392 0.154 7.32 3.55 13.69
12/23/2020 8:30:00 PM 2.42 36.356 0.154 7.37 3.54 13.7
12/23/2020 8:45:00 PM 2.41 36.338 0.154 7.36 3.68 13.7
12/23/2020 9:00:00 PM 2.39 36.302 0.155 7.37 3.68 13.7
12/23/2020 9:15:00 PM 2.38 36.284 0.155 7.37 3.63 13.7
12/23/2020 9:30:00 PM 2.37 36.266 0.155 7.36 3.73 13.71
12/23/2020 9:45:00 PM 2.36 36.248 0.155 7.36 3.62 13.72
12/23/2020 10:00:00 PM 2.34 36.212 0.155 7.36 3.63 13.72
12/23/2020 10:15:00 PM 2.33 36.194 0.155 7.31 3.69 13.72
12/23/2020 10:30:00 PM 2.32 36.176 0.155 7.36 3.69 13.72
12/23/2020 10:45:00 PM 2.32 36.176 0.155 7.32 3.73 13.72
12/23/2020 11:00:00 PM 2.32 36.176 0.155 7.36 3.67 13.73
12/23/2020 11:15:00 PM 2.32 36.176 0.155 7.31 3.63 13.72
12/23/2020 11:30:00 PM 2.31 36.158 0.155 7.34 3.5 13.72
12/23/2020 11:45:00 PM 2.32 36.176 0.155 7.37 3.7 13.72
12/24/2020 12:00:00 AM 2.32 36.176 0.155 7.35 3.62 13.73
12/24/2020 12:15:00 AM 2.32 36.176 0.155 7.31 3.77 13.72
12/24/2020 12:30:00 AM 2.33 36.194 0.155 7.35 3.74 13.71
12/24/2020 12:45:00 AM 2.33 36.194 0.155 7.3 3.56 13.7
12/24/2020 1:00:00 AM 2.33 36.194 0.155 7.35 3.57 13.7
12/24/2020 1:15:00 AM 2.32 36.176 0.155 7.36 3.62 13.7
12/24/2020 1:30:00 AM 2.33 36.194 0.155 7.35 3.62 13.7
12/24/2020 1:45:00 AM 2.34 36.212 0.155 7.35 3.77 13.7
12/24/2020 2:00:00 AM 2.35 36.23 0.155 7.35 3.64 13.69
12/24/2020 2:15:00 AM 2.36 36.248 0.155 7.35 3.65 13.69
12/24/2020 2:30:00 AM 2.37 36.266 0.155 7.35 3.61 13.69
12/24/2020 2:45:00 AM 2.38 36.284 0.155 7.35 3.65 13.68
12/24/2020 3:00:00 AM 2.4 36.32 0.155 7.36 3.59 13.67
12/24/2020 3:15:00 AM 2.42 36.356 0.155 7.36 3.63 13.67
12/24/2020 3:30:00 AM 2.44 36.392 0.155 7.36 3.7 13.66
12/24/2020 3:45:00 AM 2.45 36.41 0.155 7.36 3.68 13.66
12/24/2020 4:00:00 AM 2.47 36.446 0.155 7.35 3.57 13.65
12/24/2020 4:15:00 AM 2.48 36.464 0.155 7.35 3.66 13.64
12/24/2020 4:30:00 AM 2.5 36.5 0.155 7.36 3.59 13.63
12/24/2020 4:45:00 AM 2.53 36.554 0.155 7.27 3.65 13.63
12/24/2020 5:00:00 AM 2.55 36.59 0.155 7.34 3.7 13.61
12/24/2020 5:15:00 AM 2.57 36.626 0.155 7.27 3.67 13.61
12/24/2020 5:30:00 AM 2.58 36.644 0.155 7.35 3.69 13.6
12/24/2020 5:45:00 AM 2.61 36.698 0.155 7.29 3.63 13.58
12/24/2020 6:00:00 AM 2.63 36.734 0.155 7.35 3.66 13.57
12/24/2020 6:15:00 AM 2.64 36.752 0.155 7.34 3.68 13.57
12/24/2020 6:30:00 AM 2.66 36.788 0.155 7.33 3.56 13.56
12/24/2020 6:45:00 AM 2.68 36.824 0.154 7.3 3.58 13.54
12/24/2020 7:00:00 AM 2.69 36.842 0.155 7.35 3.61 13.54
12/24/2020 7:15:00 AM 2.7 36.86 0.155 7.35 3.58 13.53
12/24/2020 7:30:00 AM 2.72 36.896 0.155 7.35 3.72 13.52
12/24/2020 7:45:00 AM 2.74 36.932 0.154 7.35 3.63 13.52
12/24/2020 8:00:00 AM 2.75 36.95 0.154 7.35 3.6 13.52
12/24/2020 8:15:00 AM 2.76 36.968 0.154 7.35 3.62 13.52
12/24/2020 8:30:00 AM 2.79 37.022 0.154 7.36 3.63 13.54
12/24/2020 8:45:00 AM 2.82 37.076 0.154 7.37 3.74 13.56
12/24/2020 9:00:00 AM 2.86 37.148 0.154 7.39 3.71 13.63
12/24/2020 9:15:00 AM 2.91 37.238 0.154 7.41 3.73 13.69
12/24/2020 9:30:00 AM 2.98 37.364 0.153 7.43 3.65 13.76
12/24/2020 9:45:00 AM 3.07 37.526 0.153 7.46 3.74 13.82
12/24/2020 10:00:00 AM 3.15 37.67 0.153 7.48 3.76 13.84
12/24/2020 10:15:00 AM 3.2 37.76 0.152 7.49 3.79 13.83
12/24/2020 10:30:00 AM 3.26 37.868 0.151 7.48 3.91 13.84
12/24/2020 10:45:00 AM 3.32 37.976 0.151 7.52 3.95 13.84
12/24/2020 11:00:00 AM 3.38 38.084 0.15 7.51 4.03 13.82
12/24/2020 11:15:00 AM 3.45 38.21 0.149 7.52 4.09 13.8
12/24/2020 11:30:00 AM 3.51 38.318 0.148 7.5 3.88 13.79
12/24/2020 11:45:00 AM 3.58 38.444 0.147 7.52 4.12 13.75
12/24/2020 12:00:00 PM 3.61 38.498 0.146 7.51 4.18 13.72
12/24/2020 12:15:00 PM 3.63 38.534 0.146 7.5 4.2 13.68
12/24/2020 12:30:00 PM 3.67 38.606 0.145 7.5 4.53 13.64
12/24/2020 12:45:00 PM 3.67 38.606 0.144 7.44 4.92 13.61
12/24/2020 1:00:00 PM 3.66 38.588 0.144 7.44 5.17 13.57
12/24/2020 1:15:00 PM 3.65 38.57 0.144 7.46 5.39 13.54
12/24/2020 1:30:00 PM 3.63 38.534 0.144 7.38 5.87 13.51
12/24/2020 1:45:00 PM 3.6 38.48 0.144 7.41 6.66 13.48
12/24/2020 2:00:00 PM 3.51 38.318 0.145 7.33 7.61 13.46
12/24/2020 2:15:00 PM 3.36 38.048 0.145 7.35 10.22 13.45
12/24/2020 2:30:00 PM 3.3 37.94 0.145 7.27 10.29 13.44
12/24/2020 2:45:00 PM 3.06 37.508 0.145 7.31 10.47 13.47
12/24/2020 3:00:00 PM 3.12 37.616 0.149 7.23 12.26 13.44
12/24/2020 3:15:00 PM 2.97 37.346 0.149 7.21 11.45 13.45
12/24/2020 3:30:00 PM 2.86 37.148 0.151 7.17 22.32 13.51
12/24/2020 3:45:00 PM 2.66 36.788 0.15 7.22 19.56 13.57
12/24/2020 4:00:00 PM 2.4 36.32 0.149 7.19 24.33 13.65
12/24/2020 4:15:00 PM 2.14 35.852 0.149 7.16 34.77 13.74
12/24/2020 4:30:00 PM 1.91 35.438 0.15 7.07 77.57 13.83
12/24/2020 4:45:00 PM 1.72 35.096 0.151 7.14 41.19 13.92
12/24/2020 5:00:00 PM 1.57 34.826 0.155 7.07 36.43 13.98
12/24/2020 5:15:00 PM 1.46 34.628 0.156 7.12 33.6 14.03
12/24/2020 5:30:00 PM 1.38 34.484 0.156 7.12 264.34 14.07
12/24/2020 5:45:00 PM 1.35 34.43 0.154 7.05 52.47 14.09
12/24/2020 6:00:00 PM 1.34 34.412 0.15 7.1 72.2 14.09
12/24/2020 6:15:00 PM 1.33 34.394 0.137 7.06 89.06 14.1
12/24/2020 6:30:00 PM 1.34 34.412 0.131 6.96 73.04 14.1
12/24/2020 6:45:00 PM 1.37 34.466 0.125 6.94 229.79 14.1
12/24/2020 7:00:00 PM 1.39 34.502 0.118 6.94 262.53 14.09
12/24/2020 7:15:00 PM 1.39 34.502 0.109 6.75 92.8 14.1
12/24/2020 7:30:00 PM 1.45 34.61 0.104 6.8 82.6 14.08
12/24/2020 7:45:00 PM 1.58 34.844 0.102 6.69 91.03 14.04
12/24/2020 8:00:00 PM 1.62 34.916 0.099 6.71 120.84 14.01
12/24/2020 8:15:00 PM 1.72 35.096 0.096 6.8 87.33 13.98
12/24/2020 8:30:00 PM 1.81 35.258 0.097 6.82 99.42 13.95
12/24/2020 8:45:00 PM 1.79 35.222 0.094 6.72 107.01 13.96
12/24/2020 9:00:00 PM 1.9 35.42 0.093 6.8 86.79 13.9
12/24/2020 9:15:00 PM 2.05 35.69 0.095 6.82 76.16 13.84
12/24/2020 9:30:00 PM 2.21 35.978 0.097 6.75 62.39 13.77
12/24/2020 9:45:00 PM 2.37 36.266 0.099 6.88 56.6 13.7
12/24/2020 10:00:00 PM 2.52 36.536 0.099 6.89 60.67 13.66
12/24/2020 10:15:00 PM 2.64 36.752 0.1 6.83 68.38 13.62
12/24/2020 10:30:00 PM 2.72 36.896 0.099 6.82 126.82 13.58
12/24/2020 10:45:00 PM 2.82 37.076 0.086 6.81 120.69 13.48
12/24/2020 11:00:00 PM 2.92 37.256 0.059 6.88 758 13.65
12/24/2020 11:15:00 PM 2.97 37.346 0.058 6.81 116.57 13.71
12/24/2020 11:30:00 PM 2.98 37.364 0.099 6.77 131.29 13.61
12/24/2020 11:45:00 PM 2.98 37.364 0.095 6.68 2264.53 13.71
12/25/2020 12:00:00 AM 3.04 37.472 0.094 6.78 1372.34 13.64
12/25/2020 12:15:00 AM 3.13 37.634 0.057 6.82 1572.3 13.69
12/25/2020 12:30:00 AM 3.21 37.778 0.055 6.8 433.14 13.7
12/25/2020 12:45:00 AM 3.27 37.886 0.073 6.81 975.66 13.79
12/25/2020 1:00:00 AM 3.31 37.958 0.095 6.82 141.78 13.74
12/25/2020 1:15:00 AM 3.33 37.994 0.094 6.81 91.54 13.7
12/25/2020 1:30:00 AM 3.33 37.994 0.094 6.82 97.52 13.72
12/25/2020 1:45:00 AM 3.35 38.03 0.094 6.83 96.89 13.71
12/25/2020 2:00:00 AM 3.49 38.282 0.091 6.84 105.92 13.52
12/25/2020 2:15:00 AM 3.58 38.444 0.048 6.78 1990.17 13.41
12/25/2020 2:30:00 AM 3.53 38.354 0.043 6.69 535.78 13.39
12/25/2020 2:45:00 AM 3.47 38.246 0.041 6.65 842.23 13.16
12/25/2020 3:00:00 AM 3.44 38.192 0.039 6.65 265.96 13.11
12/25/2020 3:15:00 AM 3.43 38.174 0.038 6.64 389.72 13.23
12/25/2020 3:30:00 AM 3.36 38.048 0.039 6.61 301.1 13.21
12/25/2020 3:45:00 AM 3.28 37.904 0.04 6.54 239.02 13.37
12/25/2020 4:00:00 AM 3.24 37.832 0.041 6.57 37.51 13.46
12/25/2020 4:15:00 AM 3.19 37.742 0.041 6.56 55.01 13.41
12/25/2020 4:30:00 AM 3.09 37.562 0.042 6.6 71.49 13.48
12/25/2020 4:45:00 AM 3.03 37.454 0.042 6.6 68.09 13.45
12/25/2020 5:00:00 AM 3 37.4 0.043 6.58 87.9 13.5
12/25/2020 5:15:00 AM 2.98 37.364 0.042 6.61 144.94 13.33
12/25/2020 5:30:00 AM 2.96 37.328 0.042 6.63 179.51 13.43
12/25/2020 5:45:00 AM 2.93 37.274 0.042 6.59 192.58 13.46
12/25/2020 6:00:00 AM 2.93 37.274 0.042 6.65 196.78 13.52
12/25/2020 6:15:00 AM 2.94 37.292 0.042 6.6 657.95 13.56
12/25/2020 6:30:00 AM 2.98 37.364 0.043 6.7 44.67 13.5
12/25/2020 6:45:00 AM 3.01 37.418 0.043 6.71 45.13 13.43
12/25/2020 7:00:00 AM 3.01 37.418 0.042 6.71 49.32 13.44
12/25/2020 7:15:00 AM 3.02 37.436 0.042 6.71 60.19 13.42
12/25/2020 7:30:00 AM 3.02 37.436 0.043 6.74 58.76 13.43
12/25/2020 7:45:00 AM 3 37.4 0.043 6.75 57.21 13.45
12/25/2020 8:00:00 AM 3 37.4 0.042 6.74 54.67 13.5
12/25/2020 8:15:00 AM 3.01 37.418 0.042 6.73 56.26 13.41
12/25/2020 8:30:00 AM 3.01 37.418 0.042 6.75 61.9 13.56
12/25/2020 8:45:00 AM 3.02 37.436 0.042 6.78 68.8 13.55
12/25/2020 9:00:00 AM 3.05 37.49 0.042 6.79 71.94 13.56
12/25/2020 9:15:00 AM 3.06 37.508 0.042 6.8 75.23 13.55
12/25/2020 9:30:00 AM 3.05 37.49 0.043 6.76 71.08 13.55
12/25/2020 9:45:00 AM 3.04 37.472 0.042 6.78 72.88 13.53
12/25/2020 10:00:00 AM 3.03 37.454 0.042 6.73 73.57 13.57
12/25/2020 10:15:00 AM 3.03 37.454 0.042 6.73 74.51 13.59
12/25/2020 10:30:00 AM 3 37.4 0.042 6.71 75.43 13.58
12/25/2020 10:45:00 AM 3 37.4 0.042 6.76 76.07 13.56
12/25/2020 11:00:00 AM 3.01 37.418 0.042 6.76 71.37 13.58
12/25/2020 11:15:00 AM 3 37.4 0.042 6.76 68.16 13.59
12/25/2020 11:30:00 AM 2.96 37.328 0.042 6.77 69.84 13.6
12/25/2020 11:45:00 AM 2.95 37.31 0.042 6.79 68.61 13.61
12/25/2020 12:00:00 PM 2.96 37.328 0.042 6.81 69.92 13.59
12/25/2020 12:15:00 PM 2.95 37.31 0.043 6.82 70.73 13.6
12/25/2020 12:30:00 PM 2.93 37.274 0.043 6.83 70.82 13.59
12/25/2020 12:45:00 PM 2.91 37.238 0.043 6.86 71.46 13.59
12/25/2020 1:00:00 PM 2.88 37.184 0.043 6.86 71.6 13.61
12/25/2020 1:15:00 PM 2.83 37.094 0.043 6.84 71.54 13.61
12/25/2020 1:30:00 PM 2.79 37.022 0.043 6.85 72 13.6
12/25/2020 1:45:00 PM 2.78 37.004 0.042 6.85 72.37 13.62
12/25/2020 2:00:00 PM 2.79 37.022 0.043 6.86 73.39 13.65
12/25/2020 2:15:00 PM 2.78 37.004 0.043 6.89 73.92 13.66
12/25/2020 2:30:00 PM 2.77 36.986 0.043 6.9 73.8 13.69
12/25/2020 2:45:00 PM 2.76 36.968 0.043 6.92 72.66 13.69
12/25/2020 3:00:00 PM 2.76 36.968 0.043 6.92 72.98 13.63
12/25/2020 3:15:00 PM 2.75 36.95 0.042 6.91 73.65 13.6
12/25/2020 3:30:00 PM 2.74 36.932 0.043 6.92 74.1 13.68
12/25/2020 3:45:00 PM 2.74 36.932 0.043 6.92 74.69 13.68
12/25/2020 4:00:00 PM 2.74 36.932 0.043 6.92 75.05 13.68
12/25/2020 4:15:00 PM 2.74 36.932 0.042 6.92 74.91 13.71
12/25/2020 4:30:00 PM 2.74 36.932 0.042 6.91 75.19 13.71
12/25/2020 4:45:00 PM 2.73 36.914 0.042 6.9 75.43 13.78
12/25/2020 5:00:00 PM 2.73 36.914 0.042 6.87 75.94 13.81
12/25/2020 5:15:00 PM 2.73 36.914 0.043 6.9 75.94 13.79
12/25/2020 5:30:00 PM 2.72 36.896 0.043 6.9 75.06 13.85
12/25/2020 5:45:00 PM 2.7 36.86 0.043 6.92 75.28 13.8
12/25/2020 6:00:00 PM 2.69 36.842 0.043 6.91 75.18 13.9
12/25/2020 6:15:00 PM 2.66 36.788 0.043 6.94 75.33 13.94
12/25/2020 6:30:00 PM 2.65 36.77 0.042 6.91 75.14 14.05
12/25/2020 6:45:00 PM 2.64 36.752 0.042 6.9 75.19 14.07
12/25/2020 7:00:00 PM 2.64 36.752 0.042 6.92 75.39 14.16
12/25/2020 7:15:00 PM 2.63 36.734 0.042 6.93 74.96 14.15
12/25/2020 7:30:00 PM 2.6 36.68 0.041 6.9 75.24 14.15
12/25/2020 7:45:00 PM 2.57 36.626 0.042 6.9 75.61 14.2
12/25/2020 8:00:00 PM 2.53 36.554 0.042 6.88 75.6 14.22
12/25/2020 8:15:00 PM 2.5 36.5 0.042 6.88 76.07 14.24
12/25/2020 8:30:00 PM 2.48 36.464 0.042 6.89 75.77 14.24
12/25/2020 8:45:00 PM 2.44 36.392 0.041 6.9 75.37 14.3
12/25/2020 9:00:00 PM 2.42 36.356 0.042 6.91 75.51 14.29
12/25/2020 9:15:00 PM 2.41 36.338 0.042 6.92 75.21 14.4
12/25/2020 9:30:00 PM 2.36 36.248 0.042 6.91 74.87 14.46
12/25/2020 9:45:00 PM 2.33 36.194 0.042 6.91 74.8 14.44
12/25/2020 10:00:00 PM 2.3 36.14 0.042 6.92 74.84 14.48
12/25/2020 10:15:00 PM 2.29 36.122 0.042 6.96 75.13 14.53
12/25/2020 10:30:00 PM 2.28 36.104 0.042 6.98 75.5 14.48
12/25/2020 10:45:00 PM 2.27 36.086 0.042 6.98 74.86 14.53
12/25/2020 11:00:00 PM 2.26 36.068 0.042 6.95 74.66 14.54
12/25/2020 11:15:00 PM 2.25 36.05 0.042 6.95 74.38 14.57
12/25/2020 11:30:00 PM 2.22 35.996 0.042 6.91 74.17 14.54
12/25/2020 11:45:00 PM 2.18 35.924 0.042 6.91 74.16 14.56
12/26/2020 12:00:00 AM 2.15 35.87 0.043 6.91 74.02 14.52
12/26/2020 12:15:00 AM 2.13 35.834 0.043 6.9 73.95 14.54
12/26/2020 12:30:00 AM 2.12 35.816 0.042 6.91 74.23 14.59
12/26/2020 12:45:00 AM 2.1 35.78 0.042 6.92 74.02 14.59
12/26/2020 1:00:00 AM 2.08 35.744 0.043 6.92 74.55 14.6
12/26/2020 1:15:00 AM 2.05 35.69 0.042 6.9 74.67 14.59
12/26/2020 1:30:00 AM 2.03 35.654 0.042 6.96 74.43 14.6
12/26/2020 1:45:00 AM 2.01 35.618 0.043 6.95 73.64 14.58
12/26/2020 2:00:00 AM 2 35.6 0.042 6.99 72.2 14.6
12/26/2020 2:15:00 AM 1.97 35.546 0.043 7.03 72.33 14.59
12/26/2020 2:30:00 AM 1.93 35.474 0.043 6.98 71.76 14.6
12/26/2020 2:45:00 AM 1.9 35.42 0.043 7.05 71.44 14.62
12/26/2020 3:00:00 AM 1.88 35.384 0.043 7.04 71.63 14.65
12/26/2020 3:15:00 AM 1.86 35.348 0.043 7.05 71.29 14.63
12/26/2020 3:30:00 AM 1.85 35.33 0.043 7.05 71.33 14.66
12/26/2020 3:45:00 AM 1.84 35.312 0.043 7.03 71.72 14.64
12/26/2020 4:00:00 AM 1.82 35.276 0.043 7.01 71.52 14.64
12/26/2020 4:15:00 AM 1.8 35.24 0.043 7.04 71.64 14.63
12/26/2020 4:30:00 AM 1.79 35.222 0.043 6.88 71.7 14.66
12/26/2020 4:45:00 AM 1.77 35.186 0.043 6.97 71.68 14.64
12/26/2020 5:00:00 AM 1.76 35.168 0.043 6.99 71.7 14.66
12/26/2020 5:15:00 AM 1.73 35.114 0.043 6.95 71.77 14.66
12/26/2020 5:30:00 AM 1.71 35.078 0.043 6.97 71.75 14.66
12/26/2020 5:45:00 AM 1.7 35.06 0.043 6.98 71.66 14.66
12/26/2020 6:00:00 AM 1.7 35.06 0.043 6.98 71.77 14.67
12/26/2020 6:15:00 AM 1.7 35.06 0.043 6.97 71.83 14.65
12/26/2020 6:30:00 AM 1.7 35.06 0.043 6.94 71.69 14.63
12/26/2020 6:45:00 AM 1.69 35.042 0.044 6.98 71.62 14.65
12/26/2020 7:00:00 AM 1.67 35.006 0.044 7 71.79 14.68
12/26/2020 7:15:00 AM 1.65 34.97 0.044 6.89 71.67 14.67
12/26/2020 7:30:00 AM 1.63 34.934 0.044 7 71.56 14.7
12/26/2020 7:45:00 AM 1.63 34.934 0.044 6.99 71.59 14.7
12/26/2020 8:00:00 AM 1.62 34.916 0.044 6.99 71.67 14.69
12/26/2020 8:15:00 AM 1.62 34.916 0.044 7 71.8 14.66
12/26/2020 8:30:00 AM 1.61 34.898 0.044 7 71.79 14.7
12/26/2020 8:45:00 AM 1.61 34.898 0.044 7.01 71.93 14.73
12/26/2020 9:00:00 AM 1.61 34.898 0.044 6.94 71.88 14.7
12/26/2020 9:15:00 AM 1.62 34.916 0.044 7.01 71.92 14.68
12/26/2020 9:30:00 AM 1.64 34.952 0.044 7 71.84 14.66
12/26/2020 9:45:00 AM 1.66 34.988 0.044 7.02 72.29 14.67
12/26/2020 10:00:00 AM 1.69 35.042 0.044 7 72.35 14.65
12/26/2020 10:15:00 AM 1.71 35.078 0.044 7 72.26 14.64
12/26/2020 10:30:00 AM 1.73 35.114 0.044 6.98 72.2 14.63
12/26/2020 10:45:00 AM 1.76 35.168 0.044 6.99 72.11 14.63
12/26/2020 11:00:00 AM 1.79 35.222 0.043 6.98 72.17 14.65
12/26/2020 11:15:00 AM 1.8 35.24 0.043 6.96 72.21 14.71
12/26/2020 11:30:00 AM 1.82 35.276 0.043 6.97 72.15 14.72
12/26/2020 11:45:00 AM 1.83 35.294 0.043 6.97 72.36 14.7
12/26/2020 12:00:00 PM 1.85 35.33 0.043 6.97 72.23 14.7
12/26/2020 12:15:00 PM 1.87 35.366 0.043 6.97 72.33 14.71
12/26/2020 12:30:00 PM 1.87 35.366 0.043 6.99 72.41 14.69
12/26/2020 12:45:00 PM 1.87 35.366 0.044 6.98 72.26 14.69
12/26/2020 1:00:00 PM 1.88 35.384 0.044 6.97 72.43 14.68
12/26/2020 1:15:00 PM 1.88 35.384 0.044 6.97 72.36 14.67
12/26/2020 1:30:00 PM 1.89 35.402 0.044 6.98 72.3 14.65
12/26/2020 1:45:00 PM 1.9 35.42 0.044 6.97 72.43 14.63
12/26/2020 2:00:00 PM 1.9 35.42 0.044 6.98 72.29 14.62
12/26/2020 2:15:00 PM 1.91 35.438 0.044 6.98 72.33 14.62
12/26/2020 2:30:00 PM 1.92 35.456 0.044 6.98 72.38 14.61
12/26/2020 2:45:00 PM 1.91 35.438 0.044 6.97 72.43 14.59
12/26/2020 3:00:00 PM 1.91 35.438 0.044 6.98 72.48 14.59
12/26/2020 3:15:00 PM 1.9 35.42 0.044 6.88 72.43 14.59
12/26/2020 3:30:00 PM 1.88 35.384 0.045 6.98 72.54 14.58
12/26/2020 3:45:00 PM 1.87 35.366 0.045 6.99 72.58 14.57
12/26/2020 4:00:00 PM 1.86 35.348 0.044 6.99 72.52 14.58
12/26/2020 4:15:00 PM 1.83 35.294 0.044 6.99 72.5 14.59
12/26/2020 4:30:00 PM 1.8 35.24 0.044 6.97 72.48 14.6
12/26/2020 4:45:00 PM 1.77 35.186 0.044 6.89 72.46 14.61
12/26/2020 5:00:00 PM 1.74 35.132 0.044 6.97 72.5 14.62
12/26/2020 5:15:00 PM 1.71 35.078 0.044 6.97 72.46 14.63
12/26/2020 5:30:00 PM 1.69 35.042 0.044 6.97 72.47 14.64
12/26/2020 5:45:00 PM 1.67 35.006 0.044 6.97 72.53 14.65
12/26/2020 6:00:00 PM 1.66 34.988 0.044 6.97 72.66 14.66
12/26/2020 6:15:00 PM 1.64 34.952 0.044 6.97 72.6 14.66
12/26/2020 6:30:00 PM 1.62 34.916 0.043 6.89 72.46 14.66
12/26/2020 6:45:00 PM 1.6 34.88 0.043 6.97 72.6 14.65
12/26/2020 7:00:00 PM 1.59 34.862 0.043 6.97 72.67 14.68
12/26/2020 7:15:00 PM 1.57 34.826 0.044 6.94 72.79 14.7
12/26/2020 7:30:00 PM 1.55 34.79 0.044 6.95 72.79 14.7
12/26/2020 7:45:00 PM 1.53 34.754 0.044 6.97 72.9 14.7
12/26/2020 8:00:00 PM 1.51 34.718 0.044 6.94 72.9 14.7
12/26/2020 8:15:00 PM 1.49 34.682 0.044 6.95 72.89 14.71
12/26/2020 8:30:00 PM 1.46 34.628 0.044 6.85 72.84 14.7
12/26/2020 8:45:00 PM 1.44 34.592 0.044 6.92 72.86 14.71
12/26/2020 9:00:00 PM 1.43 34.574 0.044 6.94 72.84 14.69
12/26/2020 9:15:00 PM 1.41 34.538 0.044 6.92 72.79 14.69
12/26/2020 9:30:00 PM 1.38 34.484 0.044 6.93 72.82 14.72
12/26/2020 9:45:00 PM 1.36 34.448 0.044 6.94 72.81 14.72
12/26/2020 10:00:00 PM 1.34 34.412 0.044 6.88 72.86 14.73
12/26/2020 10:15:00 PM 1.31 34.358 0.044 6.93 72.77 14.72
12/26/2020 10:30:00 PM 1.29 34.322 0.044 6.93 72.72 14.71
12/26/2020 10:45:00 PM 1.27 34.286 0.044 6.93 72.82 14.72
12/26/2020 11:00:00 PM 1.26 34.268 0.043 6.9 72.76 14.73
12/26/2020 11:15:00 PM 1.25 34.25 0.044 6.93 72.83 14.75
12/26/2020 11:30:00 PM 1.26 34.268 0.044 6.86 72.82 14.74
12/26/2020 11:45:00 PM 1.26 34.268 0.044 6.93 72.97 14.74
12/27/2020 12:00:00 AM 1.26 34.268 0.044 6.9 72.95 14.72
12/27/2020 12:15:00 AM 1.27 34.286 0.044 6.93 72.98 14.71
12/27/2020 12:30:00 AM 1.28 34.304 0.044 6.94 73 14.7
12/27/2020 12:45:00 AM 1.28 34.304 0.044 6.94 72.95 14.67
12/27/2020 1:00:00 AM 1.29 34.322 0.044 6.88 73.06 14.68
12/27/2020 1:15:00 AM 1.31 34.358 0.043 6.94 73.02 14.67
12/27/2020 1:30:00 AM 1.32 34.376 0.043 6.94 73.01 14.66
12/27/2020 1:45:00 AM 1.34 34.412 0.043 6.87 73.05 14.65
12/27/2020 2:00:00 AM 1.36 34.448 0.043 6.94 73.05 14.64
12/27/2020 2:15:00 AM 1.38 34.484 0.043 6.93 73.06 14.62
12/27/2020 2:30:00 AM 1.4 34.52 0.043 6.96 73.09 14.61
12/27/2020 2:45:00 AM 1.42 34.556 0.044 6.95 73.03 14.57
12/27/2020 3:00:00 AM 1.44 34.592 0.043 6.95 73.1 14.57
12/27/2020 3:15:00 AM 1.45 34.61 0.044 6.95 73.11 14.57
12/27/2020 3:30:00 AM 1.47 34.646 0.044 6.85 73.17 14.55
12/27/2020 3:45:00 AM 1.48 34.664 0.044 6.97 73.18 14.55
12/27/2020 4:00:00 AM 1.49 34.682 0.044 6.96 73.23 14.52
12/27/2020 4:15:00 AM 1.49 34.682 0.044 6.96 73.21 14.51
12/27/2020 4:30:00 AM 1.5 34.7 0.044 6.96 73.25 14.49
12/27/2020 4:45:00 AM 1.5 34.7 0.044 6.89 73.24 14.48
12/27/2020 5:00:00 AM 1.51 34.718 0.044 6.94 73.22 14.5
12/27/2020 5:15:00 AM 1.52 34.736 0.044 6.98 73.34 14.47
12/27/2020 5:30:00 AM 1.52 34.736 0.043 6.87 73.27 14.47
12/27/2020 5:45:00 AM 1.53 34.754 0.044 6.96 73.29 14.48
12/27/2020 6:00:00 AM 1.53 34.754 0.044 6.96 73.33 14.46
12/27/2020 6:15:00 AM 1.53 34.754 0.044 6.93 73.33 14.45
12/27/2020 6:30:00 AM 1.53 34.754 0.044 6.93 73.38 14.46
12/27/2020 6:45:00 AM 1.53 34.754 0.044 6.95 73.34 14.47
12/27/2020 7:00:00 AM 1.54 34.772 0.044 6.85 73.35 14.47
12/27/2020 7:15:00 AM 1.54 34.772 0.044 6.94 73.47 14.44
12/27/2020 7:30:00 AM 1.54 34.772 0.043 6.95 73.5 14.46
12/27/2020 7:45:00 AM 1.55 34.79 0.043 6.94 73.5 14.43
12/27/2020 8:00:00 AM 1.56 34.808 0.043 6.94 73.55 14.45
12/27/2020 8:15:00 AM 1.56 34.808 0.043 6.95 73.56 14.4
12/27/2020 8:30:00 AM 1.57 34.826 0.043 6.95 73.5 14.4
12/27/2020 8:45:00 AM 1.58 34.844 0.043 6.95 73.55 14.44
12/27/2020 9:00:00 AM 1.61 34.898 0.043 6.95 73.88 14.41
12/27/2020 9:15:00 AM 1.64 34.952 0.043 6.96 73.71 14.37
12/27/2020 9:30:00 AM 1.67 35.006 0.043 6.95 73.59 14.35
12/27/2020 9:45:00 AM 1.7 35.06 0.043 6.96 76.56 14.36
12/27/2020 10:00:00 AM 1.74 35.132 0.043 6.97 75.93 14.33
12/27/2020 10:15:00 AM 1.78 35.204 0.043 6.97 76.13 14.35
12/27/2020 10:30:00 AM 1.83 35.294 0.043 6.96 75.78 14.27
12/27/2020 10:45:00 AM 1.88 35.384 0.043 6.98 77.99 14.26
12/27/2020 11:00:00 AM 1.92 35.456 0.043 6.94 76.48 14.27
12/27/2020 11:15:00 AM 1.98 35.564 0.043 6.96 74.7 14.21
12/27/2020 11:30:00 AM 2.02 35.636 0.044 6.98 74.81 14.17
12/27/2020 11:45:00 AM 2.07 35.726 0.044 6.92 74.55 14.14
12/27/2020 12:00:00 PM 2.12 35.816 0.044 6.98 74.5 14.12
12/27/2020 12:15:00 PM 2.17 35.906 0.044 6.99 74.53 14.07
12/27/2020 12:30:00 PM 2.2 35.96 0.044 6.98 74.45 14.04
12/27/2020 12:45:00 PM 2.23 36.014 0.043 6.93 74.53 14.03
12/27/2020 1:00:00 PM 2.24 36.032 0.043 6.94 74.54 13.98
12/27/2020 1:15:00 PM 2.25 36.05 0.043 6.95 74.52 14
12/27/2020 1:30:00 PM 2.26 36.068 0.043 6.92 74.59 13.97
12/27/2020 1:45:00 PM 2.27 36.086 0.043 6.95 74.6 13.99
12/27/2020 2:00:00 PM 2.28 36.104 0.043 6.95 74.58 13.99
12/27/2020 2:15:00 PM 2.28 36.104 0.043 6.87 74.57 13.96
12/27/2020 2:30:00 PM 2.26 36.068 0.043 6.92 74.5 13.87
12/27/2020 2:45:00 PM 2.27 36.086 0.043 6.93 74.49 13.9
12/27/2020 3:00:00 PM 2.29 36.122 0.043 6.94 74.44 13.98
12/27/2020 3:15:00 PM 2.29 36.122 0.043 6.93 74.44 13.93
12/27/2020 3:30:00 PM 2.27 36.086 0.043 6.93 74.44 13.89
12/27/2020 3:45:00 PM 2.25 36.05 0.043 6.93 74.43 13.86
12/27/2020 4:00:00 PM 2.22 35.996 0.043 6.85 74.43 13.84
12/27/2020 4:15:00 PM 2.19 35.942 0.043 6.93 74.47 13.76
12/27/2020 4:30:00 PM 2.15 35.87 0.043 6.92 74.42 13.81
12/27/2020 4:45:00 PM 2.12 35.816 0.043 6.93 74.34 13.8
12/27/2020 5:00:00 PM 2.09 35.762 0.043 6.93 74.32 13.74
12/27/2020 5:15:00 PM 2.06 35.708 0.043 6.92 74.4 13.82
12/27/2020 5:30:00 PM 2.03 35.654 0.043 6.94 74.35 13.79
12/27/2020 5:45:00 PM 2 35.6 0.043 6.94 74.37 13.82
12/27/2020 6:00:00 PM 1.97 35.546 0.043 6.92 74.31 13.73
12/27/2020 6:15:00 PM 1.94 35.492 0.043 6.93 74.32 13.75
12/27/2020 6:30:00 PM 1.91 35.438 0.043 6.92 74.35 13.7
12/27/2020 6:45:00 PM 1.88 35.384 0.043 6.91 74.42 13.81
12/27/2020 7:00:00 PM 1.85 35.33 0.043 6.82 74.35 13.83
12/27/2020 7:15:00 PM 1.83 35.294 0.043 6.92 74.4 13.69
12/27/2020 7:30:00 PM 1.81 35.258 0.043 6.94 74.3 13.83
12/27/2020 7:45:00 PM 1.79 35.222 0.043 6.92 74.34 13.83
12/27/2020 8:00:00 PM 1.78 35.204 0.043 6.82 74.37 13.82
12/27/2020 8:15:00 PM 1.76 35.168 0.043 6.92 74.33 13.86
12/27/2020 8:30:00 PM 1.75 35.15 0.043 6.92 74.4 13.79
12/27/2020 8:45:00 PM 1.73 35.114 0.043 6.91 74.42 13.87
12/27/2020 9:00:00 PM 1.72 35.096 0.043 6.92 74.42 13.87
12/27/2020 9:15:00 PM 1.71 35.078 0.043 6.9 74.46 13.79
12/27/2020 9:30:00 PM 1.69 35.042 0.043 6.89 74.45 13.82
12/27/2020 9:45:00 PM 1.69 35.042 0.043 6.92 74.41 13.74
12/27/2020 10:00:00 PM 1.68 35.024 0.043 6.94 74.43 13.79
12/27/2020 10:15:00 PM 1.68 35.024 0.043 6.94 74.53 13.8
12/27/2020 10:30:00 PM 1.69 35.042 0.043 6.94 74.53 13.77
12/27/2020 10:45:00 PM 1.69 35.042 0.042 6.92 74.55 13.82
12/27/2020 11:00:00 PM 1.7 35.06 0.042 6.92 74.63 13.72
12/27/2020 11:15:00 PM 1.71 35.078 0.042 6.93 74.62 13.77
12/27/2020 11:30:00 PM 1.71 35.078 0.042 6.93 74.64 13.77
12/27/2020 11:45:00 PM 1.71 35.078 0.042 6.93 74.63 13.75
12/28/2020 12:00:00 AM 1.71 35.078 0.042 6.92 74.58 13.65
12/28/2020 12:15:00 AM 1.71 35.078 0.042 6.92 74.49 13.83
12/28/2020 12:30:00 AM 1.71 35.078 0.042 6.91 74.54 13.66
12/28/2020 12:45:00 AM 1.7 35.06 0.042 6.95 74.52 13.74
12/28/2020 1:00:00 AM 1.7 35.06 0.042 6.83 74.51 13.79
12/28/2020 1:15:00 AM 1.71 35.078 0.042 6.96 74.57 13.81
12/28/2020 1:30:00 AM 1.71 35.078 0.042 6.92 74.55 13.88
12/28/2020 1:45:00 AM 1.72 35.096 0.042 6.93 74.56 13.89
12/28/2020 2:00:00 AM 1.73 35.114 0.042 6.91 74.59 13.89
12/28/2020 2:15:00 AM 1.74 35.132 0.042 6.93 74.58 13.78
12/28/2020 2:30:00 AM 1.75 35.15 0.042 6.94 74.6 13.8
12/28/2020 2:45:00 AM 1.75 35.15 0.042 6.94 74.66 13.77
12/28/2020 3:00:00 AM 1.76 35.168 0.042 6.95 74.68 13.76
12/28/2020 3:15:00 AM 1.77 35.186 0.042 6.96 74.76 13.74
12/28/2020 3:30:00 AM 1.78 35.204 0.043 6.96 74.86 13.68
12/28/2020 3:45:00 AM 1.79 35.222 0.043 6.96 74.91 13.68
12/28/2020 4:00:00 AM 1.81 35.258 0.043 6.98 74.89 13.68
12/28/2020 4:15:00 AM 1.82 35.276 0.043 6.97 74.9 13.61
12/28/2020 4:30:00 AM 1.84 35.312 0.043 6.97 74.99 13.63
12/28/2020 4:45:00 AM 1.85 35.33 0.043 6.96 75.79 13.6
12/28/2020 5:00:00 AM 1.87 35.366 0.043 6.98 76.02 13.59
12/28/2020 5:15:00 AM 1.89 35.402 0.043 6.97 76.82 13.61
12/28/2020 5:30:00 AM 1.91 35.438 0.043 6.97 76.72 13.61
12/28/2020 5:45:00 AM 1.93 35.474 0.043 6.96 77.09 13.65
12/28/2020 6:00:00 AM 1.95 35.51 0.043 6.96 76.98 13.59
12/28/2020 6:15:00 AM 1.98 35.564 0.043 6.94 76.66 13.52
12/28/2020 6:30:00 AM 2.01 35.618 0.043 6.96 74.11 13.58
12/28/2020 6:45:00 AM 2.02 35.636 0.043 6.98 73.74 13.46
12/28/2020 7:00:00 AM 2.03 35.654 0.044 6.96 74 13.47
12/28/2020 7:15:00 AM 2.06 35.708 0.043 6.97 74.27 13.46
12/28/2020 7:30:00 AM 2.08 35.744 0.043 6.95 74.45 13.47
12/28/2020 7:45:00 AM 2.1 35.78 0.044 6.97 75.01 13.47
12/28/2020 8:00:00 AM 2.12 35.816 0.044 6.98 74.13 13.34
12/28/2020 8:15:00 AM 2.15 35.87 0.044 6.99 73.72 13.34
12/28/2020 8:30:00 AM 2.17 35.906 0.044 6.98 74.61 13.44
12/28/2020 8:45:00 AM 2.21 35.978 0.043 6.97 73.22 13.49
12/28/2020 9:00:00 AM 2.24 36.032 0.044 6.98 73.54